Time,TemperatureF,DewpointF,PressureIn,WindDirection,WindDirectionDegrees,WindSpeedMPH,WindSpeedGustMPH,Humidity,HourlyPrecipIn,Conditions,Clouds,dailyrainin,SoftwareType,DateUTC
2013-07-15 00:00:00,82.9,67.6,29.78,NE,45,0.0,0.0,60,0.00,,,0.00,WUHU216HW,2013-07-15 04:00:00,
2013-07-15 00:01:00,82.9,67.6,29.78,NE,45,0.0,0.0,60,0.00,,,0.00,WUHU216HW,2013-07-15 04:01:00,
2013-07-15 00:03:00,82.9,67.6,29.78,NE,45,0.0,0.0,59,0.00,,,0.00,WUHU216HW,2013-07-15 04:03:00,
2013-07-15 00:04:00,82.9,67.6,29.78,ENE,68,0.0,0.0,61,0.00,,,0.00,WUHU216HW,2013-07-15 04:04:00,
2013-07-15 00:05:00,82.9,67.6,29.78,ENE,68,0.0,0.0,61,0.00,,,0.00,WUHU216HW,2013-07-15 04:05:00,
2013-07-15 00:06:00,82.9,67.6,29.78,ENE,68,0.0,0.0,60,0.00,,,0.00,WUHU216HW,2013-07-15 04:06:00,
2013-07-15 00:07:00,82.9,67.6,29.78,ENE,68,0.0,0.0,60,0.00,,,0.00,WUHU216HW,2013-07-15 04:07:00,
2013-07-15 00:09:00,82.9,67.6,29.78,West,270,0.0,0.0,60,0.00,,,0.00,WUHU216HW,2013-07-15 04:09:00,
2013-07-15 00:10:00,82.9,67.6,29.78,West,270,0.0,0.0,60,0.00,,,0.00,WUHU216HW,2013-07-15 04:10:00,
2013-07-15 00:11:00,83.1,67.8,29.78,West,270,0.0,0.0,60,0.00,,,0.00,WUHU216HW,2013-07-15 04:11:00,
2013-07-15 00:12:00,83.1,67.8,29.78,West,270,0.0,0.0,60,0.00,,,0.00,WUHU216HW,2013-07-15 04:12:00,
2013-07-15 00:13:00,83.1,67.8,29.78,West,270,0.0,0.0,60,0.00,,,0.00,WUHU216HW,2013-07-15 04:13:00,
2013-07-15 00:14:00,83.1,67.8,29.78,West,270,0.0,0.0,60,0.00,,,0.00,WUHU216HW,2013-07-15 04:14:00,
2013-07-15 00:15:00,82.9,67.1,29.78,NW,315,0.0,0.0,59,0.00,,,0.00,WUHU216HW,2013-07-15 04:15:00,
2013-07-15 00:16:00,82.9,67.1,29.78,NW,315,0.0,0.0,59,0.00,,,0.00,WUHU216HW,2013-07-15 04:16:00,
2013-07-15 00:17:00,75.0,71.2,30.00,NE,45,0.0,0.0,88,0.00,,,0.00,WUHU216HW,2013-07-15 04:17:00,
2013-07-15 00:18:00,82.9,67.1,29.78,WNW,293,0.0,0.0,59,0.00,,,0.00,WUHU216HW,2013-07-15 04:18:00,
2013-07-15 00:19:00,82.9,67.1,29.78,WNW,293,0.0,0.0,59,0.00,,,0.00,WUHU216HW,2013-07-15 04:19:00,
2013-07-15 00:20:00,82.9,67.1,29.78,WNW,293,0.0,0.0,59,0.00,,,0.00,WUHU216HW,2013-07-15 04:20:00,
2013-07-15 00:21:00,82.9,67.1,29.78,WNW,293,0.0,0.0,59,0.00,,,0.00,WUHU216HW,2013-07-15 04:21:00,
2013-07-15 00:22:00,74.8,71.0,30.01,NE,45,0.0,0.0,88,0.00,,,0.00,WUHU216HW,2013-07-15 04:22:00,
2013-07-15 00:23:00,82.5,67.2,29.78,WNW,293,0.0,0.0,60,0.00,,,0.00,WUHU216HW,2013-07-15 04:23:00,
2013-07-15 00:24:00,82.5,67.2,29.78,WNW,293,0.0,0.0,60,0.00,,,0.00,WUHU216HW,2013-07-15 04:24:00,
2013-07-15 00:25:00,82.5,67.2,29.78,WNW,293,0.0,0.0,60,0.00,,,0.00,WUHU216HW,2013-07-15 04:25:00,
2013-07-15 00:26:00,82.5,67.2,29.78,WNW,293,0.0,0.0,59,0.00,,,0.00,WUHU216HW,2013-07-15 04:26:00,
2013-07-15 00:27:00,74.8,71.0,30.01,NE,45,0.0,0.0,88,0.00,,,0.00,WUHU216HW,2013-07-15 04:27:00,
2013-07-15 00:28:00,82.5,67.2,29.78,WNW,293,0.0,0.0,59,0.00,,,0.00,WUHU216HW,2013-07-15 04:28:00,
2013-07-15 00:29:00,82.5,67.2,29.78,WNW,293,0.0,0.0,59,0.00,,,0.00,WUHU216HW,2013-07-15 04:29:00,
2013-07-15 00:30:00,82.5,67.2,29.78,WNW,293,0.0,0.0,60,0.00,,,0.00,WUHU216HW,2013-07-15 04:30:00,
2013-07-15 00:31:00,82.5,67.2,29.78,WNW,293,0.0,0.0,60,0.00,,,0.00,WUHU216HW,2013-07-15 04:31:00,
2013-07-15 00:32:00,74.8,71.0,30.01,NE,45,0.0,0.0,88,0.00,,,0.00,WUHU216HW,2013-07-15 04:32:00,
2013-07-15 00:33:00,82.5,67.2,29.78,WNW,293,0.0,0.0,59,0.00,,,0.00,WUHU216HW,2013-07-15 04:33:00,
2013-07-15 00:34:00,82.5,67.2,29.77,WNW,293,0.0,0.0,59,0.00,,,0.00,WUHU216HW,2013-07-15 04:34:00,
2013-07-15 00:35:00,82.5,67.2,29.78,WNW,293,0.0,0.0,60,0.00,,,0.00,WUHU216HW,2013-07-15 04:35:00,
2013-07-15 00:36:00,82.5,67.2,29.78,WNW,293,0.0,0.0,59,0.00,,,0.00,WUHU216HW,2013-07-15 04:36:00,
2013-07-15 00:37:00,74.8,71.0,30.00,NE,45,0.0,0.0,88,0.00,,,0.00,WUHU216HW,2013-07-15 04:37:00,
2013-07-15 00:38:00,82.5,67.2,29.78,WNW,293,0.0,0.0,59,0.00,,,0.00,WUHU216HW,2013-07-15 04:38:00,
2013-07-15 00:39:00,82.5,67.2,29.78,WNW,293,0.0,0.0,59,0.00,,,0.00,WUHU216HW,2013-07-15 04:39:00,
2013-07-15 00:40:00,82.5,67.2,29.78,WNW,293,0.0,0.0,59,0.00,,,0.00,WUHU216HW,2013-07-15 04:40:00,
2013-07-15 00:41:00,82.4,67.1,29.77,WNW,293,0.0,0.0,60,0.00,,,0.00,WUHU216HW,2013-07-15 04:41:00,
2013-07-15 00:42:00,74.6,70.9,30.01,NE,45,0.0,0.0,88,0.00,,,0.00,WUHU216HW,2013-07-15 04:42:00,
2013-07-15 00:43:00,82.5,66.7,29.77,WNW,293,0.0,0.0,59,0.00,,,0.00,WUHU216HW,2013-07-15 04:43:00,
2013-07-15 00:44:00,82.5,66.7,29.77,WNW,293,0.0,0.0,59,0.00,,,0.00,WUHU216HW,2013-07-15 04:44:00,
2013-07-15 00:45:00,82.5,66.7,29.77,WNW,293,0.0,0.0,59,0.00,,,0.00,WUHU216HW,2013-07-15 04:45:00,
2013-07-15 00:46:00,82.5,66.7,29.77,WNW,293,0.0,0.0,59,0.00,,,0.00,WUHU216HW,2013-07-15 04:46:00,
2013-07-15 00:47:00,74.6,70.9,30.01,NE,45,0.0,0.0,88,0.00,,,0.00,WUHU216HW,2013-07-15 04:47:00,
2013-07-15 00:48:00,82.4,66.5,29.77,WNW,293,0.0,0.0,59,0.00,,,0.00,WUHU216HW,2013-07-15 04:48:00,
2013-07-15 00:49:00,82.4,66.5,29.77,WNW,293,0.0,0.0,59,0.00,,,0.00,WUHU216HW,2013-07-15 04:49:00,
2013-07-15 00:50:00,82.5,66.2,29.77,North,0,0.0,0.0,58,0.00,,,0.00,WUHU216HW,2013-07-15 04:50:00,
2013-07-15 00:51:00,82.5,66.2,29.77,North,0,0.0,0.0,58,0.00,,,0.00,WUHU216HW,2013-07-15 04:51:00,
2013-07-15 00:52:00,74.6,70.9,30.01,NE,45,0.0,0.0,89,0.00,,,0.00,WUHU216HW,2013-07-15 04:52:00,
2013-07-15 00:53:00,82.5,66.2,29.77,North,0,0.0,0.0,58,0.00,,,0.00,WUHU216HW,2013-07-15 04:53:00,
2013-07-15 00:54:00,82.7,66.9,29.77,North,0,0.0,0.0,59,0.00,,,0.00,WUHU216HW,2013-07-15 04:54:00,
2013-07-15 00:55:00,82.7,66.9,29.77,North,0,0.0,0.0,59,0.00,,,0.00,WUHU216HW,2013-07-15 04:55:00,
2013-07-15 00:56:00,82.7,66.9,29.77,North,0,0.0,0.0,59,0.00,,,0.00,WUHU216HW,2013-07-15 04:56:00,
2013-07-15 00:57:00,74.8,71.4,30.01,NE,45,0.0,0.0,89,0.00,,,0.00,WUHU216HW,2013-07-15 04:57:00,
2013-07-15 00:58:00,82.5,65.1,29.77,North,0,0.0,0.0,56,0.00,,,0.00,WUHU216HW,2013-07-15 04:58:00,
2013-07-15 00:59:00,82.5,65.1,29.77,North,0,0.0,0.0,56,0.00,,,0.00,WUHU216HW,2013-07-15 04:59:00,
2013-07-15 01:00:00,82.5,65.1,29.77,North,0,0.0,0.0,57,0.00,,,0.00,WUHU216HW,2013-07-15 05:00:00,
2013-07-15 01:01:00,82.5,65.1,29.77,North,0,0.0,0.0,57,0.00,,,0.00,WUHU216HW,2013-07-15 05:01:00,
2013-07-15 01:02:00,74.8,71.4,30.01,NE,45,0.0,0.0,89,0.00,,,0.00,WUHU216HW,2013-07-15 05:02:00,
2013-07-15 01:04:00,82.5,65.1,29.77,North,0,0.0,0.0,58,0.00,,,0.00,WUHU216HW,2013-07-15 05:04:00,
2013-07-15 01:05:00,82.5,65.1,29.77,North,0,0.0,0.0,58,0.00,,,0.00,WUHU216HW,2013-07-15 05:05:00,
2013-07-15 01:06:00,82.5,65.1,29.76,North,0,0.0,0.0,58,0.00,,,0.00,WUHU216HW,2013-07-15 05:06:00,
2013-07-15 01:07:00,74.8,71.4,30.00,NE,45,0.0,0.0,89,0.00,,,0.00,WUHU216HW,2013-07-15 05:07:00,
2013-07-15 01:08:00,82.5,65.1,29.77,North,0,0.0,0.0,58,0.00,,,0.00,WUHU216HW,2013-07-15 05:08:00,
2013-07-15 01:09:00,82.5,65.1,29.77,North,0,0.0,0.0,58,0.00,,,0.00,WUHU216HW,2013-07-15 05:09:00,
2013-07-15 01:10:00,82.5,65.1,29.76,North,0,0.0,0.0,58,0.00,,,0.00,WUHU216HW,2013-07-15 05:10:00,
2013-07-15 01:11:00,82.5,65.1,29.76,North,0,0.0,0.0,57,0.00,,,0.00,WUHU216HW,2013-07-15 05:11:00,
2013-07-15 01:12:00,74.8,71.4,30.00,NE,45,0.0,0.0,89,0.00,,,0.00,WUHU216HW,2013-07-15 05:12:00,
2013-07-15 01:14:00,82.5,65.1,29.77,North,0,0.0,0.0,57,0.00,,,0.00,WUHU216HW,2013-07-15 05:14:00,
2013-07-15 01:15:00,82.5,65.1,29.77,NNW,338,0.0,0.0,57,0.00,,,0.00,WUHU216HW,2013-07-15 05:15:00,
2013-07-15 01:16:00,82.5,65.1,29.77,NNW,338,0.0,0.0,57,0.00,,,0.00,WUHU216HW,2013-07-15 05:16:00,
2013-07-15 01:17:00,74.8,71.4,30.00,NE,45,0.0,0.0,89,0.00,,,0.00,WUHU216HW,2013-07-15 05:17:00,
2013-07-15 01:18:00,82.5,65.1,29.77,NNW,338,0.0,0.0,58,0.00,,,0.00,WUHU216HW,2013-07-15 05:18:00,
2013-07-15 01:19:00,82.5,65.1,29.77,NNW,338,0.0,0.0,58,0.00,,,0.00,WUHU216HW,2013-07-15 05:19:00,
2013-07-15 01:20:00,82.5,65.1,29.77,NNW,338,0.0,0.0,58,0.00,,,0.00,WUHU216HW,2013-07-15 05:20:00,
2013-07-15 01:21:00,82.5,65.1,29.77,NNW,338,0.0,0.0,58,0.00,,,0.00,WUHU216HW,2013-07-15 05:21:00,
2013-07-15 01:22:00,74.8,71.4,30.01,NE,45,0.0,0.0,89,0.00,,,0.00,WUHU216HW,2013-07-15 05:22:00,
2013-07-15 01:23:00,82.5,65.1,29.76,NNW,338,0.0,0.0,58,0.00,,,0.00,WUHU216HW,2013-07-15 05:23:00,
2013-07-15 01:24:00,82.5,65.1,29.76,NNW,338,0.0,0.0,58,0.00,,,0.00,WUHU216HW,2013-07-15 05:24:00,
2013-07-15 01:25:00,82.5,65.1,29.77,NNW,338,0.0,0.0,58,0.00,,,0.00,WUHU216HW,2013-07-15 05:25:00,
2013-07-15 01:26:00,82.7,66.4,29.76,NNW,338,0.0,0.0,58,0.00,,,0.00,WUHU216HW,2013-07-15 05:26:00,
2013-07-15 01:27:00,74.8,71.4,30.01,NE,45,0.0,0.0,89,0.00,,,0.00,WUHU216HW,2013-07-15 05:27:00,
2013-07-15 01:28:00,82.7,66.4,29.76,NNW,338,0.0,0.0,58,0.00,,,0.00,WUHU216HW,2013-07-15 05:28:00,
2013-07-15 01:29:00,82.7,66.4,29.76,NNW,338,0.0,0.0,58,0.00,,,0.00,WUHU216HW,2013-07-15 05:29:00,
2013-07-15 01:30:00,82.7,66.4,29.76,NNW,338,0.0,0.0,58,0.00,,,0.00,WUHU216HW,2013-07-15 05:30:00,
2013-07-15 01:31:00,82.7,66.4,29.76,NNW,338,0.0,0.0,58,0.00,,,0.00,WUHU216HW,2013-07-15 05:31:00,
2013-07-15 01:32:00,74.6,71.2,30.00,NE,45,0.0,0.0,89,0.00,,,0.00,WUHU216HW,2013-07-15 05:32:00,
2013-07-15 01:34:00,82.7,66.4,29.76,NNW,338,0.0,0.0,58,0.00,,,0.00,WUHU216HW,2013-07-15 05:34:00,
2013-07-15 01:36:00,82.9,66.0,29.76,NNW,338,0.0,0.0,57,0.00,,,0.00,WUHU216HW,2013-07-15 05:36:00,
2013-07-15 01:37:00,74.6,71.2,30.00,NE,45,0.0,0.0,89,0.00,,,0.00,WUHU216HW,2013-07-15 05:37:00,
2013-07-15 01:38:00,82.7,65.8,29.76,NNW,338,0.0,0.0,57,0.00,,,0.00,WUHU216HW,2013-07-15 05:38:00,
2013-07-15 01:39:00,82.7,65.8,29.76,NNW,338,0.0,0.0,58,0.00,,,0.00,WUHU216HW,2013-07-15 05:39:00,
2013-07-15 01:41:00,82.5,66.2,29.76,NNW,338,0.0,0.0,58,0.00,,,0.00,WUHU216HW,2013-07-15 05:41:00,
2013-07-15 01:42:00,74.4,71.0,30.00,NE,45,0.0,0.0,89,0.00,,,0.00,WUHU216HW,2013-07-15 05:42:00,
2013-07-15 01:43:00,82.5,66.2,29.76,NNW,338,0.0,0.0,58,0.00,,,0.00,WUHU216HW,2013-07-15 05:43:00,
2013-07-15 01:44:00,82.5,66.2,29.76,NNW,338,0.0,0.0,58,0.00,,,0.00,WUHU216HW,2013-07-15 05:44:00,
2013-07-15 01:45:00,82.5,66.2,29.76,NNW,338,0.0,0.0,58,0.00,,,0.00,WUHU216HW,2013-07-15 05:45:00,
2013-07-15 01:46:00,82.5,66.2,29.76,NNW,338,0.0,0.0,58,0.00,,,0.00,WUHU216HW,2013-07-15 05:46:00,
2013-07-15 01:47:00,74.4,71.0,30.01,NE,45,0.0,0.0,89,0.00,,,0.00,WUHU216HW,2013-07-15 05:47:00,
2013-07-15 01:48:00,82.5,66.2,29.76,NNW,338,0.0,0.0,58,0.00,,,0.00,WUHU216HW,2013-07-15 05:48:00,
2013-07-15 01:49:00,82.5,66.2,29.76,NNW,338,0.0,0.0,58,0.00,,,0.00,WUHU216HW,2013-07-15 05:49:00,
2013-07-15 01:50:00,82.2,65.8,29.76,NNW,338,0.0,0.0,58,0.00,,,0.00,WUHU216HW,2013-07-15 05:50:00,
2013-07-15 01:51:00,82.2,65.8,29.76,NNW,338,0.0,0.0,58,0.00,,,0.00,WUHU216HW,2013-07-15 05:51:00,
2013-07-15 01:52:00,74.4,71.0,30.01,NE,45,0.0,0.0,89,0.00,,,0.00,WUHU216HW,2013-07-15 05:52:00,
2013-07-15 01:54:00,82.2,65.8,29.75,NNW,338,0.0,0.0,58,0.00,,,0.00,WUHU216HW,2013-07-15 05:54:00,
2013-07-15 01:56:00,82.2,65.8,29.75,NNW,338,0.0,0.0,59,0.00,,,0.00,WUHU216HW,2013-07-15 05:56:00,
2013-07-15 01:57:00,74.3,70.9,30.01,NE,45,0.0,0.0,89,0.00,,,0.00,WUHU216HW,2013-07-15 05:57:00,
2013-07-15 01:58:00,82.2,65.8,29.75,NNW,338,0.0,0.0,58,0.00,,,0.00,WUHU216HW,2013-07-15 05:58:00,
2013-07-15 01:59:00,82.2,65.8,29.75,NNW,338,0.0,0.0,58,0.00,,,0.00,WUHU216HW,2013-07-15 05:59:00,
2013-07-15 02:02:00,74.1,70.7,30.01,NE,45,0.0,0.0,89,0.00,,,0.00,WUHU216HW,2013-07-15 06:02:00,
2013-07-15 02:03:00,82.0,65.7,29.75,NNW,338,0.0,0.0,58,0.00,,,0.00,WUHU216HW,2013-07-15 06:03:00,
2013-07-15 02:04:00,82.0,65.7,29.75,NNW,338,0.0,0.0,58,0.00,,,0.00,WUHU216HW,2013-07-15 06:04:00,
2013-07-15 02:05:00,82.0,65.7,29.75,NNW,338,0.0,0.0,58,0.00,,,0.00,WUHU216HW,2013-07-15 06:05:00,
2013-07-15 02:06:00,82.0,65.7,29.75,NNW,338,0.0,0.0,58,0.00,,,0.00,WUHU216HW,2013-07-15 06:06:00,
2013-07-15 02:07:00,74.1,70.7,30.01,NE,45,0.0,0.0,89,0.00,,,0.00,WUHU216HW,2013-07-15 06:07:00,
2013-07-15 02:08:00,82.2,65.8,29.75,NNW,338,0.0,0.0,58,0.00,,,0.00,WUHU216HW,2013-07-15 06:08:00,
2013-07-15 02:10:00,82.2,65.8,29.75,NNW,338,0.0,0.0,58,0.00,,,0.00,WUHU216HW,2013-07-15 06:10:00,
2013-07-15 02:11:00,82.2,65.8,29.74,NNW,338,0.0,0.0,58,0.00,,,0.00,WUHU216HW,2013-07-15 06:11:00,
2013-07-15 02:12:00,74.1,70.7,30.01,NE,45,0.0,0.0,89,0.00,,,0.00,WUHU216HW,2013-07-15 06:12:00,
2013-07-15 02:13:00,82.0,66.2,29.74,NNW,338,0.0,0.0,59,0.00,,,0.00,WUHU216HW,2013-07-15 06:13:00,
2013-07-15 02:14:00,82.0,66.2,29.75,NNW,338,0.0,0.0,59,0.00,,,0.00,WUHU216HW,2013-07-15 06:14:00,
2013-07-15 02:15:00,82.0,66.2,29.75,NNW,338,0.0,0.0,59,0.00,,,0.00,WUHU216HW,2013-07-15 06:15:00,
2013-07-15 02:16:00,82.0,66.2,29.74,NNW,338,0.0,0.0,59,0.00,,,0.00,WUHU216HW,2013-07-15 06:16:00,
2013-07-15 02:17:00,82.0,66.2,29.74,NNW,338,0.0,0.0,59,0.00,,,0.00,WUHU216HW,2013-07-15 06:17:00,
2013-07-15 02:18:00,73.9,70.5,30.01,NE,45,0.0,0.0,89,0.00,,,0.00,WUHU216HW,2013-07-15 06:18:00,
2013-07-15 02:19:00,82.0,66.2,29.74,NNW,338,0.0,0.0,58,0.00,,,0.00,WUHU216HW,2013-07-15 06:19:00,
2013-07-15 02:20:00,82.0,66.2,29.74,NNW,338,0.0,0.0,58,0.00,,,0.00,WUHU216HW,2013-07-15 06:20:00,
2013-07-15 02:21:00,82.0,66.2,29.74,NNW,338,0.0,0.0,58,0.00,,,0.00,WUHU216HW,2013-07-15 06:21:00,
2013-07-15 02:22:00,82.0,66.2,29.74,NNW,338,0.0,0.0,59,0.00,,,0.00,WUHU216HW,2013-07-15 06:22:00,
2013-07-15 02:23:00,73.9,70.5,30.01,NE,45,0.0,0.0,89,0.00,,,0.00,WUHU216HW,2013-07-15 06:23:00,
2013-07-15 02:24:00,82.0,66.2,29.74,NNW,338,0.0,0.0,59,0.00,,,0.00,WUHU216HW,2013-07-15 06:24:00,
2013-07-15 02:25:00,82.0,66.2,29.74,NNW,338,0.0,0.0,59,0.00,,,0.00,WUHU216HW,2013-07-15 06:25:00,
2013-07-15 02:26:00,82.0,66.2,29.74,NNW,338,0.0,0.0,59,0.00,,,0.00,WUHU216HW,2013-07-15 06:26:00,
2013-07-15 02:27:00,82.0,66.2,29.74,NNW,338,0.0,0.0,58,0.00,,,0.00,WUHU216HW,2013-07-15 06:27:00,
2013-07-15 02:28:00,73.7,70.3,30.01,NE,45,0.0,0.0,90,0.00,,,0.00,WUHU216HW,2013-07-15 06:28:00,
2013-07-15 02:29:00,82.0,66.2,29.74,NNW,338,0.0,0.0,59,0.00,,,0.00,WUHU216HW,2013-07-15 06:29:00,
2013-07-15 02:30:00,82.0,66.2,29.74,NNW,338,0.0,0.0,59,0.00,,,0.00,WUHU216HW,2013-07-15 06:30:00,
2013-07-15 02:31:00,82.0,66.2,29.74,NNW,338,0.0,0.0,59,0.00,,,0.00,WUHU216HW,2013-07-15 06:31:00,
2013-07-15 02:32:00,82.0,66.2,29.74,NNW,338,0.0,0.0,59,0.00,,,0.00,WUHU216HW,2013-07-15 06:32:00,
2013-07-15 02:33:00,73.7,70.3,30.00,NE,45,0.0,0.0,90,0.00,,,0.00,WUHU216HW,2013-07-15 06:33:00,
2013-07-15 02:34:00,82.0,66.2,29.74,NNW,338,0.0,0.0,59,0.00,,,0.00,WUHU216HW,2013-07-15 06:34:00,
2013-07-15 02:37:00,82.0,66.2,29.74,NNW,338,0.0,0.0,58,0.00,,,0.00,WUHU216HW,2013-07-15 06:37:00,
2013-07-15 02:38:00,73.5,70.5,30.00,NE,45,0.0,0.0,90,0.00,,,0.00,WUHU216HW,2013-07-15 06:38:00,
2013-07-15 02:40:00,81.8,65.5,29.74,NNW,338,0.0,0.0,58,0.00,,,0.00,WUHU216HW,2013-07-15 06:40:00,
2013-07-15 02:41:00,81.8,65.5,29.74,NNW,338,0.0,0.0,58,0.00,,,0.00,WUHU216HW,2013-07-15 06:41:00,
2013-07-15 02:42:00,82.0,65.7,29.74,NNW,338,0.0,0.0,58,0.00,,,0.00,WUHU216HW,2013-07-15 06:42:00,
2013-07-15 02:43:00,73.4,70.3,30.00,NE,45,0.0,0.0,90,0.00,,,0.00,WUHU216HW,2013-07-15 06:43:00,
2013-07-15 02:44:00,81.8,66.0,29.74,NNW,338,0.0,0.0,59,0.00,,,0.00,WUHU216HW,2013-07-15 06:44:00,
2013-07-15 02:45:00,81.8,66.0,29.74,NNW,338,0.0,0.0,58,0.00,,,0.00,WUHU216HW,2013-07-15 06:45:00,
2013-07-15 02:46:00,81.8,66.0,29.74,NNW,338,0.0,0.0,58,0.00,,,0.00,WUHU216HW,2013-07-15 06:46:00,
2013-07-15 02:48:00,73.2,70.1,30.00,NE,45,0.0,0.0,90,0.00,,,0.00,WUHU216HW,2013-07-15 06:48:00,
2013-07-15 02:49:00,81.8,66.0,29.74,NNW,338,0.0,0.0,59,0.00,,,0.00,WUHU216HW,2013-07-15 06:49:00,
2013-07-15 02:50:00,82.0,66.2,29.74,NNW,338,0.0,0.0,59,0.00,,,0.00,WUHU216HW,2013-07-15 06:50:00,
2013-07-15 02:52:00,81.6,65.9,29.74,NNW,338,0.0,0.0,59,0.00,,,0.00,WUHU216HW,2013-07-15 06:52:00,
2013-07-15 02:53:00,73.2,70.1,30.00,NE,45,0.0,0.0,90,0.00,,,0.00,WUHU216HW,2013-07-15 06:53:00,
2013-07-15 02:55:00,81.6,65.9,29.74,NNW,338,0.0,0.0,59,0.00,,,0.00,WUHU216HW,2013-07-15 06:55:00,
2013-07-15 02:56:00,81.6,65.9,29.74,NNW,338,0.0,0.0,59,0.00,,,0.00,WUHU216HW,2013-07-15 06:56:00,
2013-07-15 02:58:00,73.2,70.1,30.00,NE,45,0.0,0.0,90,0.00,,,0.00,WUHU216HW,2013-07-15 06:58:00,
2013-07-15 02:59:00,81.6,65.9,29.74,NNW,338,0.0,0.0,60,0.00,,,0.00,WUHU216HW,2013-07-15 06:59:00,
2013-07-15 03:00:00,81.5,66.2,29.75,NNW,338,0.0,0.0,60,0.00,,,0.00,WUHU216HW,2013-07-15 07:00:00,
2013-07-15 03:01:00,81.5,66.2,29.75,NNW,338,0.0,0.0,60,0.00,,,0.00,WUHU216HW,2013-07-15 07:01:00,
2013-07-15 03:02:00,81.5,66.2,29.75,NNW,338,0.0,0.0,60,0.00,,,0.00,WUHU216HW,2013-07-15 07:02:00,
2013-07-15 03:03:00,73.2,70.1,30.00,NE,45,0.0,0.0,90,0.00,,,0.00,WUHU216HW,2013-07-15 07:03:00,
2013-07-15 03:04:00,81.5,66.2,29.75,NNW,338,0.0,0.0,61,0.00,,,0.00,WUHU216HW,2013-07-15 07:04:00,
2013-07-15 03:05:00,81.3,66.5,29.75,NNW,338,0.0,0.0,61,0.00,,,0.00,WUHU216HW,2013-07-15 07:05:00,
2013-07-15 03:06:00,81.3,66.5,29.75,NNW,338,0.0,0.0,61,0.00,,,0.00,WUHU216HW,2013-07-15 07:06:00,
2013-07-15 03:07:00,81.3,66.5,29.75,NNW,338,0.0,0.0,61,0.00,,,0.00,WUHU216HW,2013-07-15 07:07:00,
2013-07-15 03:08:00,73.2,70.1,30.00,NE,45,0.0,0.0,90,0.00,,,0.00,WUHU216HW,2013-07-15 07:08:00,
2013-07-15 03:09:00,81.3,66.5,29.75,NNW,338,0.0,0.0,61,0.00,,,0.00,WUHU216HW,2013-07-15 07:09:00,
2013-07-15 03:10:00,81.3,66.5,29.75,NNW,338,0.0,0.0,62,0.00,,,0.00,WUHU216HW,2013-07-15 07:10:00,
2013-07-15 03:11:00,81.3,66.5,29.75,NNW,338,0.0,0.0,62,0.00,,,0.00,WUHU216HW,2013-07-15 07:11:00,
2013-07-15 03:12:00,81.3,66.5,29.75,NNW,338,0.0,0.0,62,0.00,,,0.00,WUHU216HW,2013-07-15 07:12:00,
2013-07-15 03:13:00,73.2,70.1,30.00,NE,45,0.0,0.0,90,0.00,,,0.00,WUHU216HW,2013-07-15 07:13:00,
2013-07-15 03:14:00,81.3,66.5,29.75,NNW,338,0.0,0.0,62,0.00,,,0.00,WUHU216HW,2013-07-15 07:14:00,
2013-07-15 03:15:00,81.3,66.5,29.75,NNW,338,0.0,0.0,62,0.00,,,0.00,WUHU216HW,2013-07-15 07:15:00,
2013-07-15 03:16:00,81.3,66.5,29.75,NNW,338,0.0,0.0,62,0.00,,,0.00,WUHU216HW,2013-07-15 07:16:00,
2013-07-15 03:17:00,81.3,66.5,29.75,NNW,338,0.0,0.0,62,0.00,,,0.00,WUHU216HW,2013-07-15 07:17:00,
2013-07-15 03:18:00,72.6,69.6,30.00,NE,45,0.0,0.0,90,0.00,,,0.00,WUHU216HW,2013-07-15 07:18:00,
2013-07-15 03:19:00,81.1,67.3,29.75,NNW,338,0.0,0.0,63,0.00,,,0.00,WUHU216HW,2013-07-15 07:19:00,
2013-07-15 03:20:00,81.1,67.3,29.75,NNW,338,0.0,0.0,63,0.00,,,0.00,WUHU216HW,2013-07-15 07:20:00,
2013-07-15 03:21:00,81.3,67.0,29.75,NNW,338,0.0,0.0,62,0.00,,,0.00,WUHU216HW,2013-07-15 07:21:00,
2013-07-15 03:23:00,72.6,69.6,30.00,NE,45,0.0,0.0,90,0.00,,,0.00,WUHU216HW,2013-07-15 07:23:00,
2013-07-15 03:24:00,81.1,66.8,29.75,NNW,338,0.0,0.0,62,0.00,,,0.00,WUHU216HW,2013-07-15 07:24:00,
2013-07-15 03:25:00,81.1,66.8,29.75,NNW,338,0.0,0.0,62,0.00,,,0.00,WUHU216HW,2013-07-15 07:25:00,
2013-07-15 03:28:00,81.1,66.8,29.75,NNW,338,0.0,0.0,62,0.00,,,0.00,WUHU216HW,2013-07-15 07:28:00,
2013-07-15 03:29:00,72.6,69.6,30.00,NE,45,0.0,0.0,91,0.00,,,0.00,WUHU216HW,2013-07-15 07:29:00,
2013-07-15 03:31:00,81.1,66.8,29.75,NNW,338,0.0,0.0,62,0.00,,,0.00,WUHU216HW,2013-07-15 07:31:00,
2013-07-15 03:32:00,81.1,66.8,29.75,NNW,338,0.0,0.0,62,0.00,,,0.00,WUHU216HW,2013-07-15 07:32:00,
2013-07-15 03:33:00,81.1,66.8,29.75,NNW,338,0.0,0.0,62,0.00,,,0.00,WUHU216HW,2013-07-15 07:33:00,
2013-07-15 03:34:00,72.5,69.7,30.00,NE,45,0.0,0.0,91,0.00,,,0.00,WUHU216HW,2013-07-15 07:34:00,
2013-07-15 03:37:00,80.9,66.7,29.76,NNW,338,0.0,0.0,62,0.00,,,0.00,WUHU216HW,2013-07-15 07:37:00,
2013-07-15 03:38:00,80.9,66.7,29.76,NNW,338,0.0,0.0,62,0.00,,,0.00,WUHU216HW,2013-07-15 07:38:00,
2013-07-15 03:39:00,72.5,69.7,30.00,NE,45,0.0,0.0,91,0.00,,,0.00,WUHU216HW,2013-07-15 07:39:00,
2013-07-15 03:41:00,80.7,66.9,29.76,NNW,338,0.0,0.0,63,0.00,,,0.00,WUHU216HW,2013-07-15 07:41:00,
2013-07-15 03:42:00,80.7,66.9,29.75,NNW,338,0.0,0.0,63,0.00,,,0.00,WUHU216HW,2013-07-15 07:42:00,
2013-07-15 03:43:00,80.7,66.9,29.75,NNW,338,0.0,0.0,63,0.00,,,0.00,WUHU216HW,2013-07-15 07:43:00,
2013-07-15 03:44:00,72.5,69.7,30.00,NE,45,0.0,0.0,91,0.00,,,0.00,WUHU216HW,2013-07-15 07:44:00,
2013-07-15 03:45:00,80.7,66.9,29.75,NNW,338,0.0,0.0,63,0.00,,,0.00,WUHU216HW,2013-07-15 07:45:00,
2013-07-15 03:46:00,80.7,66.9,29.75,NNW,338,0.0,0.0,63,0.00,,,0.00,WUHU216HW,2013-07-15 07:46:00,
2013-07-15 03:47:00,80.7,66.9,29.75,NNW,338,0.0,0.0,63,0.00,,,0.00,WUHU216HW,2013-07-15 07:47:00,
2013-07-15 03:48:00,80.7,66.9,29.75,NNW,338,0.0,0.0,63,0.00,,,0.00,WUHU216HW,2013-07-15 07:48:00,
2013-07-15 03:49:00,72.3,69.5,30.00,NE,45,0.0,0.0,91,0.00,,,0.00,WUHU216HW,2013-07-15 07:49:00,
2013-07-15 03:50:00,80.7,66.9,29.75,NNW,338,0.0,0.0,63,0.00,,,0.00,WUHU216HW,2013-07-15 07:50:00,
2013-07-15 03:51:00,80.4,66.6,29.75,NNW,338,0.0,0.0,63,0.00,,,0.00,WUHU216HW,2013-07-15 07:51:00,
2013-07-15 03:52:00,80.4,66.6,29.75,NNW,338,0.0,0.0,63,0.00,,,0.00,WUHU216HW,2013-07-15 07:52:00,
2013-07-15 03:53:00,80.4,66.6,29.76,NNW,338,0.0,0.0,63,0.00,,,0.00,WUHU216HW,2013-07-15 07:53:00,
2013-07-15 03:54:00,72.3,69.5,30.00,NE,45,0.0,0.0,91,0.00,,,0.00,WUHU216HW,2013-07-15 07:54:00,
2013-07-15 03:56:00,80.4,66.6,29.75,NNW,338,0.0,0.0,63,0.00,,,0.00,WUHU216HW,2013-07-15 07:56:00,
2013-07-15 03:57:00,80.2,66.9,29.75,NNW,338,0.0,0.0,64,0.00,,,0.00,WUHU216HW,2013-07-15 07:57:00,
2013-07-15 03:58:00,80.2,66.9,29.75,NNW,338,0.0,0.0,64,0.00,,,0.00,WUHU216HW,2013-07-15 07:58:00,
2013-07-15 03:59:00,72.3,69.5,30.00,NE,45,0.0,0.0,91,0.00,,,0.00,WUHU216HW,2013-07-15 07:59:00,
2013-07-15 04:00:00,80.2,66.9,29.75,NNW,338,0.0,0.0,64,0.00,,,0.00,WUHU216HW,2013-07-15 08:00:00,
2013-07-15 04:01:00,80.2,66.9,29.76,NNW,338,0.0,0.0,64,0.00,,,0.00,WUHU216HW,2013-07-15 08:01:00,
2013-07-15 04:02:00,80.2,66.9,29.76,NNW,338,0.0,0.0,64,0.00,,,0.00,WUHU216HW,2013-07-15 08:02:00,
2013-07-15 04:03:00,80.2,66.9,29.76,NNW,338,0.0,0.0,64,0.00,,,0.00,WUHU216HW,2013-07-15 08:03:00,
2013-07-15 04:04:00,72.3,69.5,30.00,NE,45,0.0,0.0,91,0.00,,,0.00,WUHU216HW,2013-07-15 08:04:00,
2013-07-15 04:09:00,72.3,69.5,30.00,NE,45,0.0,0.0,91,0.00,,,0.00,WUHU216HW,2013-07-15 08:09:00,
2013-07-15 04:12:00,79.8,67.0,29.76,NNW,338,0.0,0.0,66,0.00,,,0.00,WUHU216HW,2013-07-15 08:12:00,
2013-07-15 04:13:00,79.8,67.0,29.75,NNW,338,0.0,0.0,66,0.00,,,0.00,WUHU216HW,2013-07-15 08:13:00,
2013-07-15 04:14:00,72.1,69.3,30.00,NE,45,0.0,0.0,91,0.00,,,0.00,WUHU216HW,2013-07-15 08:14:00,
2013-07-15 04:15:00,79.8,67.0,29.75,NNW,338,0.0,0.0,66,0.00,,,0.00,WUHU216HW,2013-07-15 08:15:00,
2013-07-15 04:16:00,79.7,67.3,29.75,NNW,338,0.0,0.0,66,0.00,,,0.00,WUHU216HW,2013-07-15 08:16:00,
2013-07-15 04:18:00,79.5,67.1,29.75,NNW,338,0.0,0.0,66,0.00,,,0.00,WUHU216HW,2013-07-15 08:18:00,
2013-07-15 04:19:00,72.1,69.3,30.00,NE,45,0.0,0.0,91,0.00,,,0.00,WUHU216HW,2013-07-15 08:19:00,
2013-07-15 04:20:00,79.5,67.1,29.75,NNW,338,0.0,0.0,66,0.00,,,0.00,WUHU216HW,2013-07-15 08:20:00,
2013-07-15 04:21:00,79.5,67.1,29.75,NNW,338,0.0,0.0,66,0.00,,,0.00,WUHU216HW,2013-07-15 08:21:00,
2013-07-15 04:22:00,79.3,67.4,29.75,NNW,338,0.0,0.0,67,0.00,,,0.00,WUHU216HW,2013-07-15 08:22:00,
2013-07-15 04:23:00,79.3,67.4,29.75,NNW,338,0.0,0.0,67,0.00,,,0.00,WUHU216HW,2013-07-15 08:23:00,
2013-07-15 04:24:00,72.1,69.3,30.00,NE,45,0.0,0.0,91,0.00,,,0.00,WUHU216HW,2013-07-15 08:24:00,
2013-07-15 04:25:00,79.3,67.4,29.75,NNW,338,0.0,0.0,66,0.00,,,0.00,WUHU216HW,2013-07-15 08:25:00,
2013-07-15 04:28:00,79.3,67.4,29.75,NNW,338,0.0,0.0,66,0.00,,,0.00,WUHU216HW,2013-07-15 08:28:00,
2013-07-15 04:29:00,71.9,69.2,30.00,NE,45,0.0,0.0,91,0.00,,,0.00,WUHU216HW,2013-07-15 08:29:00,
2013-07-15 04:30:00,79.3,67.4,29.75,NNW,338,0.0,0.0,67,0.00,,,0.00,WUHU216HW,2013-07-15 08:30:00,
2013-07-15 04:31:00,78.9,67.0,29.75,NNW,338,0.0,0.0,67,0.00,,,0.00,WUHU216HW,2013-07-15 08:31:00,
2013-07-15 04:34:00,71.7,69.0,30.00,NE,45,0.0,0.0,91,0.00,,,0.00,WUHU216HW,2013-07-15 08:34:00,
2013-07-15 04:39:00,71.7,69.0,30.00,NE,45,0.0,0.0,91,0.00,,,0.00,WUHU216HW,2013-07-15 08:39:00,
2013-07-15 04:41:00,78.6,67.1,29.75,NNW,338,0.0,0.0,68,0.00,,,0.00,WUHU216HW,2013-07-15 08:41:00,
2013-07-15 04:43:00,78.4,66.9,29.75,NNW,338,0.0,0.0,68,0.00,,,0.00,WUHU216HW,2013-07-15 08:43:00,
2013-07-15 04:44:00,71.7,69.0,30.00,NE,45,0.0,0.0,91,0.00,,,0.00,WUHU216HW,2013-07-15 08:44:00,
2013-07-15 04:45:00,78.4,66.9,29.75,NNW,338,0.0,0.0,68,0.00,,,0.00,WUHU216HW,2013-07-15 08:45:00,
2013-07-15 04:46:00,78.4,66.9,29.75,NNW,338,0.0,0.0,68,0.00,,,0.00,WUHU216HW,2013-07-15 08:46:00,
2013-07-15 04:48:00,78.4,66.9,29.75,NNW,338,0.0,0.0,69,0.00,,,0.00,WUHU216HW,2013-07-15 08:48:00,
2013-07-15 04:49:00,71.6,68.8,30.00,NE,45,0.0,0.0,91,0.00,,,0.00,WUHU216HW,2013-07-15 08:49:00,
2013-07-15 04:50:00,78.4,66.9,29.75,NNW,338,0.0,0.0,69,0.00,,,0.00,WUHU216HW,2013-07-15 08:50:00,
2013-07-15 04:51:00,78.4,66.9,29.75,NNW,338,0.0,0.0,69,0.00,,,0.00,WUHU216HW,2013-07-15 08:51:00,
2013-07-15 04:53:00,78.0,67.5,29.75,NNW,338,0.0,0.0,70,0.00,,,0.00,WUHU216HW,2013-07-15 08:53:00,
2013-07-15 04:54:00,71.6,68.8,30.00,NE,45,0.0,0.0,91,0.00,,,0.00,WUHU216HW,2013-07-15 08:54:00,
2013-07-15 04:56:00,78.0,67.5,29.75,NNW,338,0.0,0.0,70,0.00,,,0.00,WUHU216HW,2013-07-15 08:56:00,
2013-07-15 04:57:00,77.9,67.3,29.75,NNW,338,0.0,0.0,70,0.00,,,0.00,WUHU216HW,2013-07-15 08:57:00,
2013-07-15 04:58:00,77.9,67.3,29.75,NNW,338,0.0,0.0,70,0.00,,,0.00,WUHU216HW,2013-07-15 08:58:00,
2013-07-15 04:59:00,71.7,69.0,30.00,NE,45,0.0,0.0,91,0.00,,,0.00,WUHU216HW,2013-07-15 08:59:00,
2013-07-15 05:00:00,77.9,67.3,29.75,NNW,338,0.0,0.0,70,0.00,,,0.00,WUHU216HW,2013-07-15 09:00:00,
2013-07-15 05:01:00,77.9,67.3,29.75,NNW,338,0.0,0.0,70,0.00,,,0.00,WUHU216HW,2013-07-15 09:01:00,
2013-07-15 05:02:00,77.7,67.2,29.75,NNW,338,0.0,0.0,70,0.00,,,0.00,WUHU216HW,2013-07-15 09:02:00,
2013-07-15 05:03:00,77.7,67.2,29.75,NNW,338,0.0,0.0,70,0.00,,,0.00,WUHU216HW,2013-07-15 09:03:00,
2013-07-15 05:04:00,71.7,69.0,30.00,NE,45,0.0,0.0,91,0.00,,,0.00,WUHU216HW,2013-07-15 09:04:00,
2013-07-15 05:05:00,77.5,67.0,29.75,NNW,338,0.0,0.0,70,0.00,,,0.00,WUHU216HW,2013-07-15 09:05:00,
2013-07-15 05:06:00,77.5,67.0,29.75,NNW,338,0.0,0.0,70,0.00,,,0.00,WUHU216HW,2013-07-15 09:06:00,
2013-07-15 05:07:00,77.5,67.0,29.75,NNW,338,0.0,0.0,70,0.00,,,0.00,WUHU216HW,2013-07-15 09:07:00,
2013-07-15 05:08:00,77.5,67.0,29.75,NNW,338,0.0,0.0,70,0.00,,,0.00,WUHU216HW,2013-07-15 09:08:00,
2013-07-15 05:09:00,71.4,68.6,30.00,NE,45,0.0,0.0,91,0.00,,,0.00,WUHU216HW,2013-07-15 09:09:00,
2013-07-15 05:10:00,77.5,67.0,29.75,NNW,338,0.0,0.0,70,0.00,,,0.00,WUHU216HW,2013-07-15 09:10:00,
2013-07-15 05:14:00,71.4,68.6,30.00,NE,45,0.0,0.0,91,0.00,,,0.00,WUHU216HW,2013-07-15 09:14:00,
2013-07-15 05:19:00,71.2,68.4,30.00,NE,45,0.0,0.0,91,0.00,,,0.00,WUHU216HW,2013-07-15 09:19:00,
2013-07-15 05:21:00,76.6,66.9,29.75,NNW,338,0.0,0.0,72,0.00,,,0.00,WUHU216HW,2013-07-15 09:21:00,
2013-07-15 05:22:00,76.6,66.9,29.76,NNW,338,0.0,0.0,73,0.00,,,0.00,WUHU216HW,2013-07-15 09:22:00,
2013-07-15 05:24:00,71.2,68.4,30.00,NE,45,0.0,0.0,91,0.00,,,0.00,WUHU216HW,2013-07-15 09:24:00,
2013-07-15 05:25:00,76.6,66.9,29.76,NNW,338,0.0,0.0,73,0.00,,,0.00,WUHU216HW,2013-07-15 09:25:00,
2013-07-15 05:26:00,76.6,66.9,29.76,NNW,338,0.0,0.0,73,0.00,,,0.00,WUHU216HW,2013-07-15 09:26:00,
2013-07-15 05:28:00,76.6,66.9,29.76,NNW,338,0.0,0.0,73,0.00,,,0.00,WUHU216HW,2013-07-15 09:28:00,
2013-07-15 05:29:00,71.2,68.4,30.01,NE,45,0.0,0.0,91,0.00,,,0.00,WUHU216HW,2013-07-15 09:29:00,
2013-07-15 05:30:00,76.6,66.9,29.76,NNW,338,0.0,0.0,73,0.00,,,0.00,WUHU216HW,2013-07-15 09:30:00,
2013-07-15 05:31:00,76.6,66.9,29.76,NNW,338,0.0,0.0,73,0.00,,,0.00,WUHU216HW,2013-07-15 09:31:00,
2013-07-15 05:32:00,76.6,66.9,29.76,NNW,338,0.0,0.0,73,0.00,,,0.00,WUHU216HW,2013-07-15 09:32:00,
2013-07-15 05:33:00,76.2,66.9,29.76,NNW,338,0.0,0.0,73,0.00,,,0.00,WUHU216HW,2013-07-15 09:33:00,
2013-07-15 05:34:00,71.2,68.4,30.01,NE,45,0.0,0.0,91,0.00,,,0.00,WUHU216HW,2013-07-15 09:34:00,
2013-07-15 05:35:00,76.2,66.9,29.76,NNW,338,0.0,0.0,73,0.00,,,0.00,WUHU216HW,2013-07-15 09:35:00,
2013-07-15 05:36:00,76.2,66.9,29.76,NNW,338,0.0,0.0,73,0.00,,,0.00,WUHU216HW,2013-07-15 09:36:00,
2013-07-15 05:37:00,76.2,66.9,29.76,NNW,338,0.0,0.0,73,0.00,,,0.00,WUHU216HW,2013-07-15 09:37:00,
2013-07-15 05:38:00,76.2,66.9,29.76,NNW,338,0.0,0.0,74,0.00,,,0.00,WUHU216HW,2013-07-15 09:38:00,
2013-07-15 05:39:00,71.0,68.3,30.01,NE,45,0.0,0.0,91,0.00,,,0.00,WUHU216HW,2013-07-15 09:39:00,
2013-07-15 05:40:00,76.1,67.2,29.76,NNW,338,0.0,0.0,74,0.00,,,0.00,WUHU216HW,2013-07-15 09:40:00,
2013-07-15 05:42:00,75.9,67.0,29.76,NNW,338,0.0,0.0,74,0.00,,,0.00,WUHU216HW,2013-07-15 09:42:00,
2013-07-15 05:44:00,71.2,68.4,30.01,NE,45,0.0,0.0,91,0.00,,,0.00,WUHU216HW,2013-07-15 09:44:00,
2013-07-15 05:47:00,75.9,67.0,29.76,NNW,338,0.0,0.0,74,0.00,,,0.00,WUHU216HW,2013-07-15 09:47:00,
2013-07-15 05:48:00,75.9,67.0,29.76,NNW,338,0.0,0.0,74,0.00,,,0.00,WUHU216HW,2013-07-15 09:48:00,
2013-07-15 05:49:00,71.2,68.4,30.01,NE,45,0.0,0.0,91,0.00,,,0.00,WUHU216HW,2013-07-15 09:49:00,
2013-07-15 05:50:00,75.9,67.0,29.76,NNW,338,0.0,0.0,74,0.00,,,0.00,WUHU216HW,2013-07-15 09:50:00,
2013-07-15 05:51:00,75.9,67.0,29.76,NNW,338,0.0,0.0,74,0.00,,,0.00,WUHU216HW,2013-07-15 09:51:00,
2013-07-15 05:53:00,75.9,67.0,29.76,NNW,338,0.0,0.0,75,0.00,,,0.00,WUHU216HW,2013-07-15 09:53:00,
2013-07-15 05:54:00,71.2,68.4,30.01,NE,45,0.0,0.0,91,0.00,,,0.00,WUHU216HW,2013-07-15 09:54:00,
2013-07-15 05:56:00,75.7,67.2,29.76,NNW,338,0.0,0.0,75,0.00,,,0.00,WUHU216HW,2013-07-15 09:56:00,
2013-07-15 05:57:00,75.7,67.2,29.76,NNW,338,0.0,0.0,75,0.00,,,0.00,WUHU216HW,2013-07-15 09:57:00,
2013-07-15 05:58:00,75.7,67.2,29.76,NNW,338,0.0,0.0,75,0.00,,,0.00,WUHU216HW,2013-07-15 09:58:00,
2013-07-15 05:59:00,70.8,68.1,30.01,NE,45,0.0,0.0,91,0.00,,,0.00,WUHU216HW,2013-07-15 09:59:00,
2013-07-15 06:00:00,75.7,67.2,29.76,NNW,338,0.0,0.0,75,0.00,,,0.00,WUHU216HW,2013-07-15 10:00:00,
2013-07-15 06:01:00,75.7,67.2,29.76,NNW,338,0.0,0.0,75,0.00,,,0.00,WUHU216HW,2013-07-15 10:01:00,
2013-07-15 06:02:00,75.7,67.2,29.76,NNW,338,0.0,0.0,75,0.00,,,0.00,WUHU216HW,2013-07-15 10:02:00,
2013-07-15 06:03:00,75.7,67.2,29.76,NNW,338,0.0,0.0,75,0.00,,,0.00,WUHU216HW,2013-07-15 10:03:00,
2013-07-15 06:04:00,70.8,68.1,30.01,NE,45,0.0,0.0,91,0.00,,,0.00,WUHU216HW,2013-07-15 10:04:00,
2013-07-15 06:05:00,75.7,67.2,29.76,NNW,338,0.0,0.0,75,0.00,,,0.00,WUHU216HW,2013-07-15 10:05:00,
2013-07-15 06:06:00,75.5,67.4,29.77,NNW,338,0.0,0.0,76,0.00,,,0.00,WUHU216HW,2013-07-15 10:06:00,
2013-07-15 06:07:00,75.5,67.4,29.77,NNW,338,0.0,0.0,76,0.00,,,0.00,WUHU216HW,2013-07-15 10:07:00,
2013-07-15 06:09:00,70.8,68.1,30.01,NE,45,0.0,0.0,91,0.00,,,0.00,WUHU216HW,2013-07-15 10:09:00,
2013-07-15 06:10:00,75.5,67.4,29.77,NNW,338,0.0,0.0,76,0.00,,,0.00,WUHU216HW,2013-07-15 10:10:00,
2013-07-15 06:11:00,75.5,67.4,29.77,NNW,338,0.0,0.0,76,0.00,,,0.00,WUHU216HW,2013-07-15 10:11:00,
2013-07-15 06:12:00,75.5,67.4,29.77,NNW,338,0.0,0.0,76,0.00,,,0.00,WUHU216HW,2013-07-15 10:12:00,
2013-07-15 06:13:00,75.5,67.4,29.77,NNW,338,0.0,0.0,76,0.00,,,0.00,WUHU216HW,2013-07-15 10:13:00,
2013-07-15 06:14:00,70.7,67.9,30.01,NE,45,0.0,0.0,91,0.00,,,0.00,WUHU216HW,2013-07-15 10:14:00,
2013-07-15 06:15:00,75.3,67.3,29.77,NNW,338,0.0,0.0,76,0.00,,,0.00,WUHU216HW,2013-07-15 10:15:00,
2013-07-15 06:16:00,75.3,67.3,29.77,NNW,338,0.0,0.0,76,0.00,,,0.00,WUHU216HW,2013-07-15 10:16:00,
2013-07-15 06:17:00,75.3,67.3,29.77,NNW,338,0.0,0.0,76,0.00,,,0.00,WUHU216HW,2013-07-15 10:17:00,
2013-07-15 06:18:00,75.3,67.3,29.77,NNW,338,0.0,0.0,76,0.00,,,0.00,WUHU216HW,2013-07-15 10:18:00,
2013-07-15 06:19:00,70.8,68.1,30.00,NE,45,0.0,0.0,91,0.00,,,0.00,WUHU216HW,2013-07-15 10:19:00,
2013-07-15 06:20:00,75.3,67.3,29.77,NNW,338,0.0,0.0,76,0.00,,,0.00,WUHU216HW,2013-07-15 10:20:00,
2013-07-15 06:21:00,75.3,67.3,29.77,NNW,338,0.0,0.0,76,0.00,,,0.00,WUHU216HW,2013-07-15 10:21:00,
2013-07-15 06:22:00,75.3,67.3,29.77,NNW,338,0.0,0.0,76,0.00,,,0.00,WUHU216HW,2013-07-15 10:22:00,
2013-07-15 06:23:00,75.3,67.3,29.77,NNW,338,0.0,0.0,76,0.00,,,0.00,WUHU216HW,2013-07-15 10:23:00,
2013-07-15 06:24:00,70.8,68.1,30.01,NE,45,0.0,0.0,91,0.00,,,0.00,WUHU216HW,2013-07-15 10:24:00,
2013-07-15 06:25:00,75.5,67.4,29.77,NNW,338,0.0,0.0,76,0.00,,,0.00,WUHU216HW,2013-07-15 10:25:00,
2013-07-15 06:26:00,75.5,67.4,29.77,NNW,338,0.0,0.0,76,0.00,,,0.00,WUHU216HW,2013-07-15 10:26:00,
2013-07-15 06:27:00,75.5,67.4,29.77,NNW,338,0.0,0.0,76,0.00,,,0.00,WUHU216HW,2013-07-15 10:27:00,
2013-07-15 06:28:00,75.3,67.3,29.77,NNW,338,0.0,0.0,76,0.00,,,0.00,WUHU216HW,2013-07-15 10:28:00,
2013-07-15 06:29:00,70.8,68.1,30.01,NE,45,0.0,0.0,91,0.00,,,0.00,WUHU216HW,2013-07-15 10:29:00,
2013-07-15 06:30:00,75.5,67.4,29.77,NNW,338,0.0,0.0,76,0.00,,,0.00,WUHU216HW,2013-07-15 10:30:00,
2013-07-15 06:31:00,75.5,67.4,29.77,NNW,338,0.0,0.0,76,0.00,,,0.00,WUHU216HW,2013-07-15 10:31:00,
2013-07-15 06:32:00,75.3,67.3,29.77,NNW,338,0.0,0.0,76,0.00,,,0.00,WUHU216HW,2013-07-15 10:32:00,
2013-07-15 06:33:00,75.3,67.3,29.77,NNW,338,0.0,0.0,76,0.00,,,0.00,WUHU216HW,2013-07-15 10:33:00,
2013-07-15 06:34:00,70.8,68.1,30.01,NE,45,0.0,0.0,91,0.00,,,0.00,WUHU216HW,2013-07-15 10:34:00,
2013-07-15 06:35:00,75.3,67.3,29.77,NNW,338,0.0,0.0,76,0.00,,,0.00,WUHU216HW,2013-07-15 10:35:00,
2013-07-15 06:36:00,75.3,67.3,29.77,NNW,338,0.0,0.0,76,0.00,,,0.00,WUHU216HW,2013-07-15 10:36:00,
2013-07-15 06:37:00,75.3,67.3,29.77,NNW,338,0.0,0.0,76,0.00,,,0.00,WUHU216HW,2013-07-15 10:37:00,
2013-07-15 06:38:00,75.3,67.3,29.77,NNW,338,0.0,0.0,76,0.00,,,0.00,WUHU216HW,2013-07-15 10:38:00,
2013-07-15 06:39:00,70.8,68.1,30.01,NE,45,0.0,0.0,91,0.00,,,0.00,WUHU216HW,2013-07-15 10:39:00,
2013-07-15 06:40:00,75.3,67.3,29.77,NNW,338,0.0,0.0,76,0.00,,,0.00,WUHU216HW,2013-07-15 10:40:00,
2013-07-15 06:41:00,75.3,67.3,29.77,NNW,338,0.0,0.0,76,0.00,,,0.00,WUHU216HW,2013-07-15 10:41:00,
2013-07-15 06:42:00,75.2,67.1,29.77,NNW,338,0.0,0.0,76,0.00,,,0.00,WUHU216HW,2013-07-15 10:42:00,
2013-07-15 06:43:00,75.2,67.1,29.77,NNW,338,0.0,0.0,76,0.00,,,0.00,WUHU216HW,2013-07-15 10:43:00,
2013-07-15 06:44:00,71.0,68.3,30.01,NE,45,0.0,0.0,91,0.00,,,0.00,WUHU216HW,2013-07-15 10:44:00,
2013-07-15 06:45:00,75.2,67.1,29.77,NNW,338,0.0,0.0,76,0.00,,,0.00,WUHU216HW,2013-07-15 10:45:00,
2013-07-15 06:46:00,75.2,67.1,29.77,NNW,338,0.0,0.0,76,0.00,,,0.00,WUHU216HW,2013-07-15 10:46:00,
2013-07-15 06:47:00,75.2,67.1,29.77,NNW,338,0.0,0.0,76,0.00,,,0.00,WUHU216HW,2013-07-15 10:47:00,
2013-07-15 06:48:00,75.2,67.1,29.77,NNW,338,0.0,0.0,76,0.00,,,0.00,WUHU216HW,2013-07-15 10:48:00,
2013-07-15 06:49:00,70.8,68.1,30.01,NE,45,0.0,0.0,91,0.00,,,0.00,WUHU216HW,2013-07-15 10:49:00,
2013-07-15 06:50:00,75.0,66.9,29.77,NNW,338,0.0,0.0,76,0.00,,,0.00,WUHU216HW,2013-07-15 10:50:00,
2013-07-15 06:51:00,75.2,67.1,29.77,NNW,338,0.0,0.0,76,0.00,,,0.00,WUHU216HW,2013-07-15 10:51:00,
2013-07-15 06:52:00,75.2,67.1,29.77,NNW,338,0.0,0.0,76,0.00,,,0.00,WUHU216HW,2013-07-15 10:52:00,
2013-07-15 06:53:00,75.0,66.9,29.77,NNW,338,0.0,0.0,76,0.00,,,0.00,WUHU216HW,2013-07-15 10:53:00,
2013-07-15 06:54:00,70.8,68.1,30.02,NE,45,0.0,0.0,91,0.00,,,0.00,WUHU216HW,2013-07-15 10:54:00,
2013-07-15 06:55:00,75.0,66.9,29.77,NNW,338,0.0,0.0,76,0.00,,,0.00,WUHU216HW,2013-07-15 10:55:00,
2013-07-15 06:56:00,75.0,66.9,29.77,NNW,338,0.0,0.0,76,0.00,,,0.00,WUHU216HW,2013-07-15 10:56:00,
2013-07-15 06:57:00,75.0,66.9,29.77,NNW,338,0.0,0.0,76,0.00,,,0.00,WUHU216HW,2013-07-15 10:57:00,
2013-07-15 06:58:00,75.0,66.9,29.77,NNW,338,0.0,0.0,76,0.00,,,0.00,WUHU216HW,2013-07-15 10:58:00,
2013-07-15 06:59:00,71.0,68.3,30.02,NE,45,0.0,0.0,91,0.00,,,0.00,WUHU216HW,2013-07-15 10:59:00,
2013-07-15 07:00:00,75.0,66.9,29.77,NNW,338,0.0,0.0,76,0.00,,,0.00,WUHU216HW,2013-07-15 11:00:00,
2013-07-15 07:01:00,75.0,66.9,29.77,NNW,338,0.0,0.0,76,0.00,,,0.00,WUHU216HW,2013-07-15 11:01:00,
2013-07-15 07:03:00,75.0,66.9,29.77,NNW,338,0.0,0.0,77,0.00,,,0.00,WUHU216HW,2013-07-15 11:03:00,
2013-07-15 07:04:00,71.0,68.3,30.02,NE,45,0.0,0.0,91,0.00,,,0.00,WUHU216HW,2013-07-15 11:04:00,
2013-07-15 07:05:00,75.0,66.9,29.77,NNW,338,0.0,0.0,77,0.00,,,0.00,WUHU216HW,2013-07-15 11:05:00,
2013-07-15 07:06:00,74.8,67.1,29.77,NNW,338,0.0,0.0,77,0.00,,,0.00,WUHU216HW,2013-07-15 11:06:00,
2013-07-15 07:07:00,74.8,67.1,29.77,NNW,338,0.0,0.0,77,0.00,,,0.00,WUHU216HW,2013-07-15 11:07:00,
2013-07-15 07:08:00,74.8,67.1,29.76,NNW,338,0.0,0.0,77,0.00,,,0.00,WUHU216HW,2013-07-15 11:08:00,
2013-07-15 07:09:00,71.2,68.4,30.02,NE,45,0.0,0.0,91,0.00,,,0.00,WUHU216HW,2013-07-15 11:09:00,
2013-07-15 07:11:00,74.8,67.1,29.77,NNW,338,0.0,0.0,77,0.00,,,0.00,WUHU216HW,2013-07-15 11:11:00,
2013-07-15 07:14:00,71.2,68.4,30.03,NE,45,0.0,0.0,91,0.00,,,0.00,WUHU216HW,2013-07-15 11:14:00,
2013-07-15 07:18:00,74.8,67.1,29.77,NNW,338,0.0,0.0,77,0.00,,,0.00,WUHU216HW,2013-07-15 11:18:00,
2013-07-15 07:19:00,71.2,68.4,30.02,NE,45,0.0,0.0,91,0.00,,,0.00,WUHU216HW,2013-07-15 11:19:00,
2013-07-15 07:21:00,74.6,67.4,29.77,NNW,338,0.0,0.0,78,0.00,,,0.00,WUHU216HW,2013-07-15 11:21:00,
2013-07-15 07:22:00,74.6,67.4,29.77,NNW,338,0.0,0.0,78,0.00,,,0.00,WUHU216HW,2013-07-15 11:22:00,
2013-07-15 07:23:00,74.4,67.2,29.77,NNW,338,0.0,0.0,78,0.00,,,0.00,WUHU216HW,2013-07-15 11:23:00,
2013-07-15 07:24:00,74.4,67.2,29.77,NNW,338,0.0,0.0,78,0.00,,,0.00,WUHU216HW,2013-07-15 11:24:00,
2013-07-15 07:25:00,71.2,68.4,30.03,NE,45,0.0,0.0,91,0.00,,,0.00,WUHU216HW,2013-07-15 11:25:00,
2013-07-15 07:26:00,74.3,67.0,29.77,NNW,338,0.0,0.0,78,0.00,,,0.00,WUHU216HW,2013-07-15 11:26:00,
2013-07-15 07:27:00,74.3,67.0,29.77,NNW,338,0.0,0.0,78,0.00,,,0.00,WUHU216HW,2013-07-15 11:27:00,
2013-07-15 07:28:00,74.3,67.0,29.77,NNW,338,0.0,0.0,78,0.00,,,0.00,WUHU216HW,2013-07-15 11:28:00,
2013-07-15 07:29:00,74.3,67.0,29.77,NNW,338,0.0,0.0,78,0.00,,,0.00,WUHU216HW,2013-07-15 11:29:00,
2013-07-15 07:30:00,71.4,68.6,30.02,NE,45,0.0,0.0,91,0.00,,,0.00,WUHU216HW,2013-07-15 11:30:00,
2013-07-15 07:31:00,74.1,66.8,29.77,NNW,338,0.0,0.0,78,0.00,,,0.00,WUHU216HW,2013-07-15 11:31:00,
2013-07-15 07:32:00,74.1,66.8,29.77,NNW,338,0.0,0.0,78,0.00,,,0.00,WUHU216HW,2013-07-15 11:32:00,
2013-07-15 07:33:00,74.1,66.8,29.77,NNW,338,0.0,0.0,78,0.00,,,0.00,WUHU216HW,2013-07-15 11:33:00,
2013-07-15 07:34:00,74.1,66.8,29.77,NNW,338,0.0,0.0,78,0.00,,,0.00,WUHU216HW,2013-07-15 11:34:00,
2013-07-15 07:35:00,71.4,68.6,30.02,NE,45,0.0,0.0,91,0.00,,,0.00,WUHU216HW,2013-07-15 11:35:00,
2013-07-15 07:36:00,74.1,66.8,29.77,NNW,338,0.0,0.0,78,0.00,,,0.00,WUHU216HW,2013-07-15 11:36:00,
2013-07-15 07:37:00,74.1,66.8,29.77,NNW,338,0.0,0.0,78,0.00,,,0.00,WUHU216HW,2013-07-15 11:37:00,
2013-07-15 07:38:00,74.1,66.8,29.77,NNW,338,0.0,0.0,78,0.00,,,0.00,WUHU216HW,2013-07-15 11:38:00,
2013-07-15 07:39:00,74.1,66.8,29.77,NNW,338,0.0,0.0,78,0.00,,,0.00,WUHU216HW,2013-07-15 11:39:00,
2013-07-15 07:40:00,71.7,69.0,30.03,NE,45,0.0,0.0,91,0.00,,,0.00,WUHU216HW,2013-07-15 11:40:00,
2013-07-15 07:41:00,73.9,66.6,29.77,NNW,338,0.0,0.0,78,0.00,,,0.00,WUHU216HW,2013-07-15 11:41:00,
2013-07-15 07:42:00,73.9,66.6,29.77,NNW,338,0.0,0.0,78,0.00,,,0.00,WUHU216HW,2013-07-15 11:42:00,
2013-07-15 07:43:00,73.9,66.6,29.77,NNW,338,0.0,0.0,78,0.00,,,0.00,WUHU216HW,2013-07-15 11:43:00,
2013-07-15 07:44:00,73.9,66.6,29.77,NNW,338,0.0,0.0,78,0.00,,,0.00,WUHU216HW,2013-07-15 11:44:00,
2013-07-15 07:45:00,71.9,69.2,30.03,NE,45,0.0,0.0,91,0.00,,,0.00,WUHU216HW,2013-07-15 11:45:00,
2013-07-15 07:46:00,73.9,66.6,29.77,NNW,338,0.0,0.0,79,0.00,,,0.00,WUHU216HW,2013-07-15 11:46:00,
2013-07-15 07:48:00,73.9,66.6,29.77,NNW,338,0.0,0.0,79,0.00,,,0.00,WUHU216HW,2013-07-15 11:48:00,
2013-07-15 07:49:00,73.7,66.9,29.77,NNW,338,0.0,0.0,79,0.00,,,0.00,WUHU216HW,2013-07-15 11:49:00,
2013-07-15 07:50:00,72.1,69.3,30.03,NE,45,0.0,0.0,91,0.00,,,0.00,WUHU216HW,2013-07-15 11:50:00,
2013-07-15 07:52:00,73.7,66.9,29.77,NNW,338,0.0,0.0,79,0.00,,,0.00,WUHU216HW,2013-07-15 11:52:00,
2013-07-15 07:53:00,73.7,66.9,29.77,NNW,338,0.0,0.0,79,0.00,,,0.00,WUHU216HW,2013-07-15 11:53:00,
2013-07-15 07:54:00,73.5,66.7,29.77,NNW,338,0.0,0.0,79,0.00,,,0.00,WUHU216HW,2013-07-15 11:54:00,
2013-07-15 07:55:00,72.5,69.7,30.03,NE,45,0.0,0.0,91,0.00,,,0.00,WUHU216HW,2013-07-15 11:55:00,
2013-07-15 07:56:00,73.5,66.7,29.77,NNW,338,0.0,0.0,79,0.00,,,0.00,WUHU216HW,2013-07-15 11:56:00,
2013-07-15 07:57:00,73.5,66.7,29.77,NNW,338,0.0,0.0,79,0.00,,,0.00,WUHU216HW,2013-07-15 11:57:00,
2013-07-15 07:58:00,73.5,66.7,29.77,NNW,338,0.0,0.0,79,0.00,,,0.00,WUHU216HW,2013-07-15 11:58:00,
2013-07-15 07:59:00,73.5,66.7,29.77,NNW,338,0.0,0.0,79,0.00,,,0.00,WUHU216HW,2013-07-15 11:59:00,
2013-07-15 08:00:00,72.8,70.1,30.03,NNE,23,0.0,0.0,91,0.00,,,0.00,WUHU216HW,2013-07-15 12:00:00,
2013-07-15 08:01:00,73.5,66.7,29.77,NNW,338,0.0,0.0,79,0.00,,,0.00,WUHU216HW,2013-07-15 12:01:00,
2013-07-15 08:02:00,73.5,66.7,29.77,NNW,338,0.0,0.0,80,0.00,,,0.00,WUHU216HW,2013-07-15 12:02:00,
2013-07-15 08:04:00,73.5,66.7,29.77,NNW,338,0.0,0.0,79,0.00,,,0.00,WUHU216HW,2013-07-15 12:04:00,
2013-07-15 08:05:00,73.0,70.2,30.03,NE,45,0.0,0.0,91,0.00,,,0.00,WUHU216HW,2013-07-15 12:05:00,
2013-07-15 08:06:00,73.5,66.7,29.77,NNW,338,0.0,0.0,79,0.00,,,0.00,WUHU216HW,2013-07-15 12:06:00,
2013-07-15 08:07:00,73.4,66.5,29.77,NNW,338,0.0,0.0,79,0.00,,,0.00,WUHU216HW,2013-07-15 12:07:00,
2013-07-15 08:08:00,73.4,66.5,29.77,NNW,338,0.0,0.0,79,0.00,,,0.00,WUHU216HW,2013-07-15 12:08:00,
2013-07-15 08:09:00,73.4,66.5,29.77,NNW,338,0.0,0.0,79,0.00,,,0.00,WUHU216HW,2013-07-15 12:09:00,
2013-07-15 08:10:00,73.2,70.4,30.03,NE,45,0.0,0.0,91,0.00,,,0.00,WUHU216HW,2013-07-15 12:10:00,
2013-07-15 08:11:00,73.2,66.3,29.77,NNW,338,0.0,0.0,79,0.00,,,0.00,WUHU216HW,2013-07-15 12:11:00,
2013-07-15 08:12:00,73.2,66.3,29.77,NNW,338,0.0,0.0,79,0.00,,,0.00,WUHU216HW,2013-07-15 12:12:00,
2013-07-15 08:13:00,73.2,66.3,29.77,NNW,338,0.0,0.0,79,0.00,,,0.00,WUHU216HW,2013-07-15 12:13:00,
2013-07-15 08:14:00,73.2,66.3,29.77,NNW,338,0.0,0.0,79,0.00,,,0.00,WUHU216HW,2013-07-15 12:14:00,
2013-07-15 08:15:00,73.7,71.3,30.03,NE,45,0.0,0.0,92,0.00,,,0.00,WUHU216HW,2013-07-15 12:15:00,
2013-07-15 08:16:00,73.2,66.3,29.77,NNW,338,0.0,0.0,79,0.00,,,0.00,WUHU216HW,2013-07-15 12:16:00,
2013-07-15 08:17:00,73.2,66.3,29.77,NNW,338,0.0,0.0,79,0.00,,,0.00,WUHU216HW,2013-07-15 12:17:00,
2013-07-15 08:18:00,73.2,66.3,29.77,NNW,338,0.0,0.0,79,0.00,,,0.00,WUHU216HW,2013-07-15 12:18:00,
2013-07-15 08:19:00,73.2,66.3,29.77,NNW,338,0.0,0.0,79,0.00,,,0.00,WUHU216HW,2013-07-15 12:19:00,
2013-07-15 08:20:00,74.1,71.3,30.03,NE,45,0.0,0.0,91,0.00,,,0.00,WUHU216HW,2013-07-15 12:20:00,
2013-07-15 08:21:00,73.2,66.3,29.77,NNW,338,0.0,0.0,79,0.00,,,0.00,WUHU216HW,2013-07-15 12:21:00,
2013-07-15 08:22:00,73.2,66.3,29.77,NNW,338,0.0,0.0,79,0.00,,,0.00,WUHU216HW,2013-07-15 12:22:00,
2013-07-15 08:23:00,73.2,66.3,29.77,NNW,338,0.0,0.0,79,0.00,,,0.00,WUHU216HW,2013-07-15 12:23:00,
2013-07-15 08:24:00,73.2,66.3,29.77,NNW,338,0.0,0.0,79,0.00,,,0.00,WUHU216HW,2013-07-15 12:24:00,
2013-07-15 08:25:00,74.3,71.5,30.03,NE,45,0.0,0.0,91,0.00,,,0.00,WUHU216HW,2013-07-15 12:25:00,
2013-07-15 08:26:00,73.2,66.3,29.77,NNW,338,0.0,0.0,79,0.00,,,0.00,WUHU216HW,2013-07-15 12:26:00,
2013-07-15 08:27:00,73.2,66.3,29.77,NNW,338,0.0,0.0,79,0.00,,,0.00,WUHU216HW,2013-07-15 12:27:00,
2013-07-15 08:28:00,73.0,66.1,29.77,NNW,338,0.0,0.0,79,0.00,,,0.00,WUHU216HW,2013-07-15 12:28:00,
2013-07-15 08:29:00,73.0,66.1,29.77,NNW,338,0.0,0.0,79,0.00,,,0.00,WUHU216HW,2013-07-15 12:29:00,
2013-07-15 08:30:00,74.6,71.9,30.03,NE,45,0.0,0.0,91,0.00,,,0.00,WUHU216HW,2013-07-15 12:30:00,
2013-07-15 08:31:00,73.0,66.1,29.77,NNW,338,0.0,0.0,79,0.00,,,0.00,WUHU216HW,2013-07-15 12:31:00,
2013-07-15 08:32:00,73.0,66.1,29.77,NNW,338,0.0,0.0,79,0.00,,,0.00,WUHU216HW,2013-07-15 12:32:00,
2013-07-15 08:33:00,73.0,66.1,29.77,NNW,338,0.0,0.0,79,0.00,,,0.00,WUHU216HW,2013-07-15 12:33:00,
2013-07-15 08:34:00,73.0,66.1,29.77,NNW,338,0.0,0.0,79,0.00,,,0.00,WUHU216HW,2013-07-15 12:34:00,
2013-07-15 08:35:00,74.8,72.0,30.03,NE,45,0.0,0.0,91,0.00,,,0.00,WUHU216HW,2013-07-15 12:35:00,
2013-07-15 08:36:00,73.0,66.1,29.77,NNW,338,0.0,0.0,79,0.00,,,0.00,WUHU216HW,2013-07-15 12:36:00,
2013-07-15 08:37:00,73.0,66.1,29.77,NNW,338,0.0,0.0,79,0.00,,,0.00,WUHU216HW,2013-07-15 12:37:00,
2013-07-15 08:38:00,73.0,66.1,29.77,NNW,338,0.0,0.0,79,0.00,,,0.00,WUHU216HW,2013-07-15 12:38:00,
2013-07-15 08:39:00,73.0,66.1,29.77,NNW,338,0.0,0.0,79,0.00,,,0.00,WUHU216HW,2013-07-15 12:39:00,
2013-07-15 08:40:00,75.2,72.4,30.03,NE,45,0.0,0.0,91,0.00,,,0.00,WUHU216HW,2013-07-15 12:40:00,
2013-07-15 08:41:00,73.0,66.1,29.77,NNW,338,0.0,0.0,79,0.00,,,0.00,WUHU216HW,2013-07-15 12:41:00,
2013-07-15 08:42:00,73.0,66.1,29.77,NNW,338,0.0,0.0,79,0.00,,,0.00,WUHU216HW,2013-07-15 12:42:00,
2013-07-15 08:43:00,73.0,66.1,29.77,NNW,338,0.0,0.0,79,0.00,,,0.00,WUHU216HW,2013-07-15 12:43:00,
2013-07-15 08:44:00,73.0,66.1,29.77,NNW,338,0.0,0.0,79,0.00,,,0.00,WUHU216HW,2013-07-15 12:44:00,
2013-07-15 08:45:00,75.5,72.5,30.03,NNE,23,0.0,0.0,90,0.00,,,0.00,WUHU216HW,2013-07-15 12:45:00,
2013-07-15 08:46:00,73.0,66.1,29.77,NNW,338,0.0,0.0,79,0.00,,,0.00,WUHU216HW,2013-07-15 12:46:00,
2013-07-15 08:47:00,73.0,66.1,29.77,NNW,338,0.0,0.0,79,0.00,,,0.00,WUHU216HW,2013-07-15 12:47:00,
2013-07-15 08:48:00,73.0,66.1,29.77,NNW,338,0.0,0.0,79,0.00,,,0.00,WUHU216HW,2013-07-15 12:48:00,
2013-07-15 08:49:00,73.0,66.1,29.77,NNW,338,0.0,0.0,79,0.00,,,0.00,WUHU216HW,2013-07-15 12:49:00,
2013-07-15 08:50:00,75.7,72.6,30.03,NNE,23,0.0,0.0,90,0.00,,,0.00,WUHU216HW,2013-07-15 12:50:00,
2013-07-15 08:51:00,73.0,66.1,29.77,NNW,338,0.0,0.0,79,0.00,,,0.00,WUHU216HW,2013-07-15 12:51:00,
2013-07-15 08:52:00,73.0,66.1,29.77,NNW,338,0.0,0.0,79,0.00,,,0.00,WUHU216HW,2013-07-15 12:52:00,
2013-07-15 08:53:00,73.0,66.1,29.77,NNW,338,0.0,0.0,79,0.00,,,0.00,WUHU216HW,2013-07-15 12:53:00,
2013-07-15 08:54:00,73.0,66.1,29.77,NNW,338,0.0,0.0,79,0.00,,,0.00,WUHU216HW,2013-07-15 12:54:00,
2013-07-15 08:55:00,76.1,73.0,30.03,NNE,23,0.0,0.0,90,0.00,,,0.00,WUHU216HW,2013-07-15 12:55:00,
2013-07-15 08:56:00,73.0,66.1,29.77,NNW,338,0.0,0.0,79,0.00,,,0.00,WUHU216HW,2013-07-15 12:56:00,
2013-07-15 08:57:00,73.0,66.1,29.77,NNW,338,0.0,0.0,79,0.00,,,0.00,WUHU216HW,2013-07-15 12:57:00,
2013-07-15 08:58:00,73.0,66.1,29.77,NNW,338,0.0,0.0,79,0.00,,,0.00,WUHU216HW,2013-07-15 12:58:00,
2013-07-15 08:59:00,73.0,66.1,29.77,NNW,338,0.0,0.0,79,0.00,,,0.00,WUHU216HW,2013-07-15 12:59:00,
2013-07-15 09:00:00,76.2,73.2,30.03,NNE,23,0.0,0.0,90,0.00,,,0.00,WUHU216HW,2013-07-15 13:00:00,
2013-07-15 09:01:00,73.0,66.1,29.77,NNW,338,0.0,0.0,79,0.00,,,0.00,WUHU216HW,2013-07-15 13:01:00,
2013-07-15 09:02:00,73.0,66.1,29.77,NNW,338,0.0,0.0,79,0.00,,,0.00,WUHU216HW,2013-07-15 13:02:00,
2013-07-15 09:03:00,73.0,66.1,29.77,NNW,338,0.0,0.0,79,0.00,,,0.00,WUHU216HW,2013-07-15 13:03:00,
2013-07-15 09:04:00,73.0,66.1,29.77,NNW,338,0.0,0.0,79,0.00,,,0.00,WUHU216HW,2013-07-15 13:04:00,
2013-07-15 09:05:00,76.6,73.5,30.03,North,0,0.0,0.0,90,0.00,,,0.00,WUHU216HW,2013-07-15 13:05:00,
2013-07-15 09:06:00,73.0,66.1,29.77,NNW,338,0.0,0.0,79,0.00,,,0.00,WUHU216HW,2013-07-15 13:06:00,
2013-07-15 09:07:00,73.0,66.1,29.77,NNW,338,0.0,0.0,79,0.00,,,0.00,WUHU216HW,2013-07-15 13:07:00,
2013-07-15 09:09:00,73.0,66.1,29.77,NNW,338,0.0,0.0,79,0.00,,,0.00,WUHU216HW,2013-07-15 13:09:00,
2013-07-15 09:10:00,77.1,73.7,30.03,North,0,0.0,0.0,89,0.00,,,0.00,WUHU216HW,2013-07-15 13:10:00,
2013-07-15 09:11:00,73.0,66.1,29.77,NNW,338,0.0,0.0,79,0.00,,,0.00,WUHU216HW,2013-07-15 13:11:00,
2013-07-15 09:12:00,73.0,66.1,29.77,NNW,338,0.0,0.0,79,0.00,,,0.00,WUHU216HW,2013-07-15 13:12:00,
2013-07-15 09:13:00,73.0,66.1,29.77,NNW,338,0.0,0.0,79,0.00,,,0.00,WUHU216HW,2013-07-15 13:13:00,
2013-07-15 09:14:00,73.0,66.1,29.77,NNW,338,0.0,0.0,79,0.00,,,0.00,WUHU216HW,2013-07-15 13:14:00,
2013-07-15 09:15:00,77.1,73.7,30.03,North,0,0.0,0.0,89,0.00,,,0.00,WUHU216HW,2013-07-15 13:15:00,
2013-07-15 09:16:00,73.0,66.1,29.77,NNW,338,0.0,0.0,79,0.00,,,0.00,WUHU216HW,2013-07-15 13:16:00,
2013-07-15 09:17:00,73.0,66.1,29.77,NNW,338,0.0,0.0,79,0.00,,,0.00,WUHU216HW,2013-07-15 13:17:00,
2013-07-15 09:18:00,73.0,66.1,29.77,NNW,338,0.0,0.0,79,0.00,,,0.00,WUHU216HW,2013-07-15 13:18:00,
2013-07-15 09:19:00,73.0,66.1,29.77,NNW,338,0.0,0.0,79,0.00,,,0.00,WUHU216HW,2013-07-15 13:19:00,
2013-07-15 09:20:00,77.3,73.9,30.03,North,0,0.0,0.0,89,0.00,,,0.00,WUHU216HW,2013-07-15 13:20:00,
2013-07-15 09:21:00,73.0,66.1,29.77,NNW,338,0.0,0.0,79,0.00,,,0.00,WUHU216HW,2013-07-15 13:21:00,
2013-07-15 09:22:00,73.0,66.1,29.77,NNW,338,0.0,0.0,79,0.00,,,0.00,WUHU216HW,2013-07-15 13:22:00,
2013-07-15 09:23:00,73.0,66.1,29.77,NNW,338,0.0,0.0,79,0.00,,,0.00,WUHU216HW,2013-07-15 13:23:00,
2013-07-15 09:24:00,73.0,66.1,29.77,NNW,338,0.0,0.0,80,0.00,,,0.00,WUHU216HW,2013-07-15 13:24:00,
2013-07-15 09:25:00,77.7,74.3,30.03,North,0,0.0,0.0,89,0.00,,,0.00,WUHU216HW,2013-07-15 13:25:00,
2013-07-15 09:29:00,73.0,66.1,29.77,NNW,338,0.0,0.0,80,0.00,,,0.00,WUHU216HW,2013-07-15 13:29:00,
2013-07-15 09:30:00,77.9,74.4,30.03,North,0,0.0,0.0,88,0.00,,,0.00,WUHU216HW,2013-07-15 13:30:00,
2013-07-15 09:31:00,73.0,66.1,29.77,NNW,338,0.0,0.0,80,0.00,,,0.00,WUHU216HW,2013-07-15 13:31:00,
2013-07-15 09:32:00,72.8,66.0,29.77,NNW,338,0.0,0.0,79,0.00,,,0.00,WUHU216HW,2013-07-15 13:32:00,
2013-07-15 09:33:00,72.8,66.0,29.77,NNW,338,0.0,0.0,79,0.00,,,0.00,WUHU216HW,2013-07-15 13:33:00,
2013-07-15 09:34:00,72.8,66.0,29.77,NNW,338,0.0,0.0,79,0.00,,,0.00,WUHU216HW,2013-07-15 13:34:00,
2013-07-15 09:35:00,78.0,74.3,30.03,North,0,0.0,0.0,88,0.00,,,0.00,WUHU216HW,2013-07-15 13:35:00,
2013-07-15 09:37:00,72.8,66.0,29.77,NNW,338,0.0,0.0,79,0.00,,,0.00,WUHU216HW,2013-07-15 13:37:00,
2013-07-15 09:38:00,72.8,66.0,29.77,NNW,338,0.0,0.0,79,0.00,,,0.00,WUHU216HW,2013-07-15 13:38:00,
2013-07-15 09:39:00,72.6,66.2,29.77,NNW,338,0.0,0.0,80,0.00,,,0.00,WUHU216HW,2013-07-15 13:39:00,
2013-07-15 09:40:00,78.4,74.6,30.03,North,0,0.0,0.0,87,0.00,,,0.00,WUHU216HW,2013-07-15 13:40:00,
2013-07-15 09:43:00,72.6,66.2,29.77,NNW,338,0.0,0.0,80,0.00,,,0.00,WUHU216HW,2013-07-15 13:43:00,
2013-07-15 09:44:00,72.6,66.2,29.77,NNW,338,0.0,0.0,80,0.00,,,0.00,WUHU216HW,2013-07-15 13:44:00,
2013-07-15 09:45:00,72.6,66.2,29.77,NNW,338,0.0,0.0,80,0.00,,,0.00,WUHU216HW,2013-07-15 13:45:00,
2013-07-15 09:46:00,78.6,74.4,30.03,North,0,0.0,0.0,87,0.00,,,0.00,WUHU216HW,2013-07-15 13:46:00,
2013-07-15 09:47:00,72.6,66.2,29.77,NNW,338,0.0,0.0,80,0.00,,,0.00,WUHU216HW,2013-07-15 13:47:00,
2013-07-15 09:48:00,72.6,66.2,29.77,NNW,338,0.0,0.0,80,0.00,,,0.00,WUHU216HW,2013-07-15 13:48:00,
2013-07-15 09:49:00,72.6,66.2,29.77,NNW,338,0.0,0.0,80,0.00,,,0.00,WUHU216HW,2013-07-15 13:49:00,
2013-07-15 09:50:00,72.6,66.2,29.77,NNW,338,0.0,0.0,81,0.00,,,0.00,WUHU216HW,2013-07-15 13:50:00,
2013-07-15 09:51:00,79.5,74.9,30.03,North,0,0.0,0.0,86,0.00,,,0.00,WUHU216HW,2013-07-15 13:51:00,
2013-07-15 09:52:00,72.6,66.2,29.77,NNW,338,0.0,0.0,81,0.00,,,0.00,WUHU216HW,2013-07-15 13:52:00,
2013-07-15 09:53:00,72.6,66.2,29.77,NNW,338,0.0,0.0,81,0.00,,,0.00,WUHU216HW,2013-07-15 13:53:00,
2013-07-15 09:54:00,72.6,66.2,29.77,NNW,338,0.0,0.0,81,0.00,,,0.00,WUHU216HW,2013-07-15 13:54:00,
2013-07-15 09:55:00,72.6,66.2,29.77,NNW,338,0.0,0.0,81,0.00,,,0.00,WUHU216HW,2013-07-15 13:55:00,
2013-07-15 09:56:00,80.0,75.1,30.03,North,0,0.0,0.0,85,0.00,,,0.00,WUHU216HW,2013-07-15 13:56:00,
2013-07-15 09:57:00,72.5,66.3,29.77,NNW,338,0.0,0.0,81,0.00,,,0.00,WUHU216HW,2013-07-15 13:57:00,
2013-07-15 09:58:00,72.5,66.3,29.76,NNW,338,0.0,0.0,81,0.00,,,0.00,WUHU216HW,2013-07-15 13:58:00,
2013-07-15 09:59:00,72.5,66.3,29.76,NNW,338,0.0,0.0,81,0.00,,,0.00,WUHU216HW,2013-07-15 13:59:00,
2013-07-15 10:00:00,72.5,66.3,29.76,NNW,338,0.0,0.0,81,0.00,,,0.00,WUHU216HW,2013-07-15 14:00:00,
2013-07-15 10:01:00,72.5,66.3,29.77,NNW,338,0.0,0.0,81,0.00,,,0.00,WUHU216HW,2013-07-15 14:01:00,
2013-07-15 10:02:00,80.6,74.9,30.03,North,0,0.0,0.0,83,0.00,,,0.00,WUHU216HW,2013-07-15 14:02:00,
2013-07-15 10:03:00,72.5,66.3,29.77,NNW,338,0.0,0.0,81,0.00,,,0.00,WUHU216HW,2013-07-15 14:03:00,
2013-07-15 10:05:00,72.5,66.3,29.77,NNW,338,0.0,0.0,82,0.00,,,0.00,WUHU216HW,2013-07-15 14:05:00,
2013-07-15 10:06:00,72.5,66.3,29.77,NNW,338,0.0,0.0,82,0.00,,,0.00,WUHU216HW,2013-07-15 14:06:00,
2013-07-15 10:07:00,81.3,75.0,30.03,North,0,0.0,0.0,81,0.00,,,0.00,WUHU216HW,2013-07-15 14:07:00,
2013-07-15 10:08:00,72.5,66.3,29.77,NNW,338,0.0,0.0,82,0.00,,,0.00,WUHU216HW,2013-07-15 14:08:00,
2013-07-15 10:09:00,72.3,66.5,29.77,NNW,338,0.0,0.0,82,0.00,,,0.00,WUHU216HW,2013-07-15 14:09:00,
2013-07-15 10:10:00,72.3,66.5,29.77,NNW,338,0.0,0.0,82,0.00,,,0.00,WUHU216HW,2013-07-15 14:10:00,
2013-07-15 10:11:00,72.3,66.5,29.77,NNW,338,0.0,0.0,82,0.00,,,0.00,WUHU216HW,2013-07-15 14:11:00,
2013-07-15 10:12:00,81.6,75.3,30.03,NE,45,0.0,0.0,81,0.00,,,0.00,WUHU216HW,2013-07-15 14:12:00,
2013-07-15 10:17:00,81.6,75.3,30.03,NNE,23,0.0,0.0,81,0.00,,,0.00,WUHU216HW,2013-07-15 14:17:00,
2013-07-15 10:18:00,72.3,66.5,29.77,NNW,338,0.0,0.0,82,0.00,,,0.00,WUHU216HW,2013-07-15 14:18:00,
2013-07-15 10:19:00,72.3,66.5,29.77,NNW,338,0.0,0.0,82,0.00,,,0.00,WUHU216HW,2013-07-15 14:19:00,
2013-07-15 10:20:00,72.3,66.5,29.77,NNW,338,0.0,0.0,82,0.00,,,0.00,WUHU216HW,2013-07-15 14:20:00,
2013-07-15 10:22:00,82.4,76.0,30.03,North,0,0.0,0.0,81,0.00,,,0.00,WUHU216HW,2013-07-15 14:22:00,
2013-07-15 10:23:00,72.1,66.3,29.77,NNW,338,0.0,0.0,82,0.00,,,0.00,WUHU216HW,2013-07-15 14:23:00,
2013-07-15 10:24:00,72.3,66.5,29.77,NNW,338,0.0,0.0,82,0.00,,,0.00,WUHU216HW,2013-07-15 14:24:00,
2013-07-15 10:25:00,72.3,66.5,29.77,NNW,338,0.0,0.0,82,0.00,,,0.00,WUHU216HW,2013-07-15 14:25:00,
2013-07-15 10:26:00,72.1,66.3,29.77,NNW,338,0.0,0.0,82,0.00,,,0.00,WUHU216HW,2013-07-15 14:26:00,
2013-07-15 10:27:00,82.9,75.8,30.03,NNE,23,0.6,0.6,79,0.00,,,0.00,WUHU216HW,2013-07-15 14:27:00,
2013-07-15 10:28:00,72.1,66.3,29.77,NNW,338,0.0,0.0,82,0.00,,,0.00,WUHU216HW,2013-07-15 14:28:00,
2013-07-15 10:29:00,72.1,66.3,29.77,NNW,338,0.0,0.0,82,0.00,,,0.00,WUHU216HW,2013-07-15 14:29:00,
2013-07-15 10:30:00,72.1,66.3,29.77,NNW,338,0.0,0.0,83,0.00,,,0.00,WUHU216HW,2013-07-15 14:30:00,
2013-07-15 10:32:00,83.1,75.5,30.03,North,0,1.3,1.3,77,0.00,,,0.00,WUHU216HW,2013-07-15 14:32:00,
2013-07-15 10:36:00,72.1,66.3,29.76,NNW,338,0.0,0.0,83,0.00,,,0.00,WUHU216HW,2013-07-15 14:36:00,
2013-07-15 10:37:00,83.3,75.3,30.03,North,0,0.0,2.4,77,0.00,,,0.00,WUHU216HW,2013-07-15 14:37:00,
2013-07-15 10:38:00,72.1,66.3,29.76,NNW,338,0.0,0.0,83,0.00,,,0.00,WUHU216HW,2013-07-15 14:38:00,
2013-07-15 10:39:00,72.1,66.3,29.76,NNW,338,0.0,0.0,83,0.00,,,0.00,WUHU216HW,2013-07-15 14:39:00,
2013-07-15 10:40:00,72.1,66.3,29.77,NNW,338,0.0,0.0,83,0.00,,,0.00,WUHU216HW,2013-07-15 14:40:00,
2013-07-15 10:41:00,72.1,66.3,29.76,NNW,338,0.0,0.0,83,0.00,,,0.00,WUHU216HW,2013-07-15 14:41:00,
2013-07-15 10:42:00,83.4,75.5,30.04,North,0,0.0,2.4,77,0.00,,,0.00,WUHU216HW,2013-07-15 14:42:00,
2013-07-15 10:43:00,72.1,66.3,29.76,NNW,338,0.0,0.0,83,0.00,,,0.00,WUHU216HW,2013-07-15 14:43:00,
2013-07-15 10:44:00,72.1,66.3,29.76,NNW,338,0.0,0.0,83,0.00,,,0.00,WUHU216HW,2013-07-15 14:44:00,
2013-07-15 10:45:00,71.9,66.5,29.76,NNW,338,0.0,0.0,83,0.00,,,0.00,WUHU216HW,2013-07-15 14:45:00,
2013-07-15 10:47:00,83.4,75.1,30.04,North,0,0.0,0.4,76,0.00,,,0.00,WUHU216HW,2013-07-15 14:47:00,
2013-07-15 10:48:00,71.9,66.5,29.76,NNW,338,0.0,0.0,83,0.00,,,0.00,WUHU216HW,2013-07-15 14:48:00,
2013-07-15 10:49:00,71.9,66.5,29.76,NNW,338,0.0,0.0,83,0.00,,,0.00,WUHU216HW,2013-07-15 14:49:00,
2013-07-15 10:50:00,71.9,66.5,29.76,NNW,338,0.0,0.0,83,0.00,,,0.00,WUHU216HW,2013-07-15 14:50:00,
2013-07-15 10:51:00,71.9,66.5,29.75,NNW,338,0.0,0.0,83,0.00,,,0.00,WUHU216HW,2013-07-15 14:51:00,
2013-07-15 10:52:00,83.1,74.7,30.04,North,0,0.6,0.6,76,0.00,,,0.00,WUHU216HW,2013-07-15 14:52:00,
2013-07-15 10:53:00,71.9,66.5,29.75,NNW,338,0.0,0.0,83,0.00,,,0.00,WUHU216HW,2013-07-15 14:53:00,
2013-07-15 10:54:00,71.9,66.5,29.75,NNW,338,0.0,0.0,83,0.00,,,0.00,WUHU216HW,2013-07-15 14:54:00,
2013-07-15 10:55:00,71.9,66.5,29.75,NNW,338,0.0,0.0,83,0.00,,,0.00,WUHU216HW,2013-07-15 14:55:00,
2013-07-15 10:56:00,71.9,66.5,29.75,NNW,338,0.0,0.0,83,0.00,,,0.00,WUHU216HW,2013-07-15 14:56:00,
2013-07-15 10:57:00,71.9,66.5,29.75,NNW,338,0.0,0.0,83,0.00,,,0.00,WUHU216HW,2013-07-15 14:57:00,
2013-07-15 10:58:00,71.9,66.5,29.75,NNW,338,0.0,0.0,83,0.00,,,0.00,WUHU216HW,2013-07-15 14:58:00,
2013-07-15 10:59:00,82.9,75.0,30.04,North,0,0.0,0.6,77,0.00,,,0.00,WUHU216HW,2013-07-15 14:59:00,
2013-07-15 11:00:00,71.9,66.5,29.75,NNW,338,0.0,0.0,83,0.00,,,0.00,WUHU216HW,2013-07-15 15:00:00,
2013-07-15 11:01:00,71.7,66.3,29.75,NNW,338,0.0,0.0,83,0.00,,,0.00,WUHU216HW,2013-07-15 15:01:00,
2013-07-15 11:02:00,71.7,66.3,29.75,NNW,338,0.0,0.0,83,0.00,,,0.00,WUHU216HW,2013-07-15 15:02:00,
2013-07-15 11:03:00,71.7,66.3,29.75,NNW,338,0.0,0.0,83,0.00,,,0.00,WUHU216HW,2013-07-15 15:03:00,
2013-07-15 11:04:00,83.1,74.7,30.03,North,0,0.0,0.0,76,0.00,,,0.00,WUHU216HW,2013-07-15 15:04:00,
2013-07-15 11:05:00,71.7,66.3,29.75,NNW,338,0.0,0.0,83,0.00,,,0.00,WUHU216HW,2013-07-15 15:05:00,
2013-07-15 11:06:00,71.7,66.3,29.75,NNW,338,0.0,0.0,83,0.00,,,0.00,WUHU216HW,2013-07-15 15:06:00,
2013-07-15 11:07:00,71.7,66.3,29.75,NNW,338,0.0,0.0,83,0.00,,,0.00,WUHU216HW,2013-07-15 15:07:00,
2013-07-15 11:08:00,71.7,66.3,29.75,NNW,338,0.0,0.0,83,0.00,,,0.00,WUHU216HW,2013-07-15 15:08:00,
2013-07-15 11:09:00,71.7,66.3,29.75,NNW,338,0.0,0.0,83,0.00,,,0.00,WUHU216HW,2013-07-15 15:09:00,
2013-07-15 11:10:00,71.7,66.3,29.75,NNW,338,0.0,0.0,83,0.00,,,0.00,WUHU216HW,2013-07-15 15:10:00,
2013-07-15 11:11:00,71.7,66.3,29.75,NNW,338,0.0,0.0,83,0.00,,,0.00,WUHU216HW,2013-07-15 15:11:00,
2013-07-15 11:12:00,71.7,66.3,29.75,NNW,338,0.0,0.0,84,0.00,,,0.00,WUHU216HW,2013-07-15 15:12:00,
2013-07-15 11:13:00,71.7,66.3,29.75,NNW,338,0.0,0.0,84,0.00,,,0.00,WUHU216HW,2013-07-15 15:13:00,
2013-07-15 11:14:00,71.6,66.4,29.75,NNW,338,0.0,0.0,84,0.00,,,0.00,WUHU216HW,2013-07-15 15:14:00,
2013-07-15 11:15:00,71.6,66.4,29.75,NNW,338,0.0,0.0,84,0.00,,,0.00,WUHU216HW,2013-07-15 15:15:00,
2013-07-15 11:16:00,71.6,66.4,29.75,NNW,338,0.0,0.0,84,0.00,,,0.00,WUHU216HW,2013-07-15 15:16:00,
2013-07-15 11:17:00,71.6,66.4,29.75,NNW,338,0.0,0.0,84,0.00,,,0.00,WUHU216HW,2013-07-15 15:17:00,
2013-07-15 11:18:00,71.6,66.4,29.75,NNW,338,0.0,0.0,84,0.00,,,0.00,WUHU216HW,2013-07-15 15:18:00,
2013-07-15 11:19:00,71.6,66.4,29.75,NNW,338,0.0,0.0,84,0.00,,,0.00,WUHU216HW,2013-07-15 15:19:00,
2013-07-15 11:20:00,71.4,66.3,29.75,NNW,338,0.0,0.0,84,0.00,,,0.00,WUHU216HW,2013-07-15 15:20:00,
2013-07-15 11:22:00,71.4,66.3,29.75,NNW,338,0.0,0.0,84,0.00,,,0.00,WUHU216HW,2013-07-15 15:22:00,
2013-07-15 11:24:00,71.2,66.1,29.75,NNW,338,0.0,0.0,84,0.00,,,0.00,WUHU216HW,2013-07-15 15:24:00,
2013-07-15 11:25:00,71.2,66.1,29.75,NNW,338,0.0,0.0,84,0.00,,,0.00,WUHU216HW,2013-07-15 15:25:00,
2013-07-15 11:26:00,71.2,66.1,29.75,NNW,338,0.0,0.0,84,0.00,,,0.00,WUHU216HW,2013-07-15 15:26:00,
2013-07-15 11:27:00,71.2,66.1,29.75,NNW,338,0.0,0.0,84,0.00,,,0.00,WUHU216HW,2013-07-15 15:27:00,
2013-07-15 11:29:00,71.2,66.1,29.75,NNW,338,0.0,0.0,85,0.00,,,0.00,WUHU216HW,2013-07-15 15:29:00,
2013-07-15 11:30:00,71.2,66.1,29.75,NNW,338,0.0,0.0,85,0.00,,,0.00,WUHU216HW,2013-07-15 15:30:00,
2013-07-15 11:31:00,71.2,66.1,29.74,NNW,338,0.0,0.0,85,0.00,,,0.00,WUHU216HW,2013-07-15 15:31:00,
2013-07-15 11:32:00,71.2,66.1,29.74,NNW,338,0.0,0.0,85,0.00,,,0.00,WUHU216HW,2013-07-15 15:32:00,
2013-07-15 11:33:00,71.0,66.2,29.75,NNW,338,0.0,0.0,85,0.00,,,0.00,WUHU216HW,2013-07-15 15:33:00,
2013-07-15 11:34:00,71.0,66.2,29.75,NNW,338,0.0,0.0,85,0.00,,,0.00,WUHU216HW,2013-07-15 15:34:00,
2013-07-15 11:35:00,70.8,66.1,29.75,NNW,338,0.0,0.0,85,0.00,,,0.00,WUHU216HW,2013-07-15 15:35:00,
2013-07-15 11:36:00,70.8,66.1,29.74,NNW,338,0.0,0.0,85,0.00,,,0.00,WUHU216HW,2013-07-15 15:36:00,
2013-07-15 11:37:00,70.8,66.1,29.74,NNW,338,0.0,0.0,85,0.00,,,0.00,WUHU216HW,2013-07-15 15:37:00,
2013-07-15 11:38:00,70.8,66.1,29.74,NNW,338,0.0,0.0,85,0.00,,,0.00,WUHU216HW,2013-07-15 15:38:00,
2013-07-15 11:39:00,70.8,66.1,29.74,NNW,338,0.0,0.0,85,0.00,,,0.00,WUHU216HW,2013-07-15 15:39:00,
2013-07-15 11:47:00,70.3,65.9,29.74,NNW,338,0.0,0.0,86,0.00,,,0.00,WUHU216HW,2013-07-15 15:47:00,
2013-07-15 11:48:00,70.3,65.9,29.74,NNW,338,0.0,0.0,86,0.00,,,0.00,WUHU216HW,2013-07-15 15:48:00,
2013-07-15 11:49:00,70.3,65.9,29.74,NNW,338,0.0,0.0,86,0.00,,,0.00,WUHU216HW,2013-07-15 15:49:00,
2013-07-15 11:50:00,70.3,65.9,29.74,NNW,338,0.0,0.0,86,0.00,,,0.00,WUHU216HW,2013-07-15 15:50:00,
2013-07-15 11:51:00,70.3,65.9,29.74,NNW,338,0.0,0.0,86,0.00,,,0.00,WUHU216HW,2013-07-15 15:51:00,
2013-07-15 11:54:00,70.1,65.7,29.74,NNW,338,0.0,0.0,86,0.00,,,0.00,WUHU216HW,2013-07-15 15:54:00,
2013-07-15 11:55:00,70.1,65.7,29.74,NNW,338,0.0,0.0,86,0.00,,,0.00,WUHU216HW,2013-07-15 15:55:00,
2013-07-15 11:56:00,70.1,65.7,29.74,NNW,338,0.0,0.0,86,0.00,,,0.00,WUHU216HW,2013-07-15 15:56:00,
2013-07-15 11:57:00,70.1,65.7,29.74,NNW,338,0.0,0.0,86,0.00,,,0.00,WUHU216HW,2013-07-15 15:57:00,
2013-07-15 11:59:00,70.1,65.7,29.74,NNW,338,0.0,0.0,86,0.00,,,0.00,WUHU216HW,2013-07-15 15:59:00,
2013-07-15 12:00:00,70.1,65.7,29.74,NNW,338,0.0,0.0,86,0.00,,,0.00,WUHU216HW,2013-07-15 16:00:00,
2013-07-15 12:04:00,69.9,65.5,29.74,NNW,338,0.0,0.0,86,0.00,,,0.00,WUHU216HW,2013-07-15 16:04:00,
2013-07-15 12:05:00,69.9,65.5,29.74,NNW,338,0.0,0.0,86,0.00,,,0.00,WUHU216HW,2013-07-15 16:05:00,
2013-07-15 12:07:00,69.9,65.5,29.74,NNW,338,0.0,0.0,86,0.00,,,0.00,WUHU216HW,2013-07-15 16:07:00,
2013-07-15 12:08:00,69.9,65.5,29.74,NNW,338,0.0,0.0,86,0.00,,,0.00,WUHU216HW,2013-07-15 16:08:00,
2013-07-15 12:09:00,69.9,65.5,29.74,NNW,338,0.0,0.0,86,0.00,,,0.00,WUHU216HW,2013-07-15 16:09:00,
2013-07-15 12:11:00,69.8,65.3,29.74,NNW,338,0.0,0.0,86,0.00,,,0.00,WUHU216HW,2013-07-15 16:11:00,
2013-07-15 12:12:00,69.6,65.2,29.74,NNW,338,0.0,0.0,86,0.00,,,0.00,WUHU216HW,2013-07-15 16:12:00,
2013-07-15 12:13:00,69.6,65.2,29.74,NNW,338,0.0,0.0,86,0.00,,,0.00,WUHU216HW,2013-07-15 16:13:00,
2013-07-15 12:14:00,69.6,65.2,29.74,NNW,338,0.0,0.0,86,0.00,,,0.00,WUHU216HW,2013-07-15 16:14:00,
2013-07-15 12:15:00,69.6,65.2,29.74,NNW,338,0.0,0.0,86,0.00,,,0.00,WUHU216HW,2013-07-15 16:15:00,
2013-07-15 12:16:00,69.6,65.2,29.74,NNW,338,0.0,0.0,86,0.00,,,0.00,WUHU216HW,2013-07-15 16:16:00,
2013-07-15 12:17:00,69.6,65.2,29.74,NNW,338,0.0,0.0,86,0.00,,,0.00,WUHU216HW,2013-07-15 16:17:00,
2013-07-15 12:18:00,69.6,65.2,29.74,NNW,338,0.0,0.0,86,0.00,,,0.00,WUHU216HW,2013-07-15 16:18:00,
2013-07-15 12:19:00,69.6,65.2,29.74,NNW,338,0.0,0.0,86,0.00,,,0.00,WUHU216HW,2013-07-15 16:19:00,
2013-07-15 12:20:00,69.6,65.2,29.74,NNW,338,0.0,0.0,87,0.00,,,0.00,WUHU216HW,2013-07-15 16:20:00,
2013-07-15 12:21:00,69.6,65.2,29.74,NNW,338,0.0,0.0,87,0.00,,,0.00,WUHU216HW,2013-07-15 16:21:00,
2013-07-15 12:22:00,69.4,65.3,29.74,NNW,338,0.0,0.0,87,0.00,,,0.00,WUHU216HW,2013-07-15 16:22:00,
2013-07-15 12:23:00,69.4,65.3,29.74,NNW,338,0.0,0.0,87,0.00,,,0.00,WUHU216HW,2013-07-15 16:23:00,
2013-07-15 12:24:00,69.4,65.3,29.74,NNW,338,0.0,0.0,87,0.00,,,0.00,WUHU216HW,2013-07-15 16:24:00,
2013-07-15 12:25:00,69.4,65.3,29.74,NNW,338,0.0,0.0,87,0.00,,,0.00,WUHU216HW,2013-07-15 16:25:00,
2013-07-15 12:26:00,69.4,65.3,29.74,NNW,338,0.0,0.0,87,0.00,,,0.00,WUHU216HW,2013-07-15 16:26:00,
2013-07-15 12:27:00,69.4,65.3,29.74,NNW,338,0.0,0.0,87,0.00,,,0.00,WUHU216HW,2013-07-15 16:27:00,
2013-07-15 12:28:00,69.4,65.3,29.74,NNW,338,0.0,0.0,87,0.00,,,0.00,WUHU216HW,2013-07-15 16:28:00,
2013-07-15 12:32:00,69.4,65.3,29.74,NNW,338,0.0,0.0,87,0.00,,,0.00,WUHU216HW,2013-07-15 16:32:00,
2013-07-15 12:33:00,69.4,65.3,29.74,NNW,338,0.0,0.0,87,0.00,,,0.00,WUHU216HW,2013-07-15 16:33:00,
2013-07-15 12:34:00,69.4,65.3,29.74,NNW,338,0.0,0.0,87,0.00,,,0.00,WUHU216HW,2013-07-15 16:34:00,
2013-07-15 12:35:00,69.2,65.1,29.74,NNW,338,0.0,0.0,87,0.00,,,0.00,WUHU216HW,2013-07-15 16:35:00,
2013-07-15 12:36:00,69.2,65.1,29.74,NNW,338,0.0,0.0,87,0.00,,,0.00,WUHU216HW,2013-07-15 16:36:00,
2013-07-15 12:37:00,69.2,65.1,29.74,NNW,338,0.0,0.0,87,0.00,,,0.00,WUHU216HW,2013-07-15 16:37:00,
2013-07-15 12:38:00,69.0,65.0,29.74,NNW,338,0.0,0.0,87,0.00,,,0.00,WUHU216HW,2013-07-15 16:38:00,
2013-07-15 12:39:00,69.0,65.0,29.74,NNW,338,0.0,0.0,87,0.00,,,0.00,WUHU216HW,2013-07-15 16:39:00,
2013-07-15 12:40:00,69.0,65.0,29.74,NNW,338,0.0,0.0,87,0.00,,,0.00,WUHU216HW,2013-07-15 16:40:00,
2013-07-15 12:41:00,69.0,65.0,29.74,NNW,338,0.0,0.0,87,0.00,,,0.00,WUHU216HW,2013-07-15 16:41:00,
2013-07-15 12:42:00,69.0,65.0,29.74,NNW,338,0.0,0.0,87,0.00,,,0.00,WUHU216HW,2013-07-15 16:42:00,
2013-07-15 12:43:00,69.0,65.0,29.74,NNW,338,0.0,0.0,87,0.00,,,0.00,WUHU216HW,2013-07-15 16:43:00,
2013-07-15 12:44:00,69.0,65.0,29.74,NNW,338,0.0,0.0,87,0.00,,,0.00,WUHU216HW,2013-07-15 16:44:00,
2013-07-15 12:45:00,69.0,65.0,29.74,NNW,338,0.0,0.0,87,0.00,,,0.00,WUHU216HW,2013-07-15 16:45:00,
2013-07-15 12:46:00,69.0,65.0,29.74,NNW,338,0.0,0.0,87,0.00,,,0.00,WUHU216HW,2013-07-15 16:46:00,
2013-07-15 12:48:00,69.0,65.0,29.74,NNW,338,0.0,0.0,87,0.00,,,0.00,WUHU216HW,2013-07-15 16:48:00,
2013-07-15 12:49:00,69.0,65.0,29.74,NNW,338,0.0,0.0,87,0.00,,,0.00,WUHU216HW,2013-07-15 16:49:00,
2013-07-15 12:51:00,69.0,65.0,29.74,NNW,338,0.0,0.0,87,0.00,,,0.00,WUHU216HW,2013-07-15 16:51:00,
2013-07-15 12:52:00,69.0,65.0,29.74,NNW,338,0.0,0.0,88,0.00,,,0.00,WUHU216HW,2013-07-15 16:52:00,
2013-07-15 12:55:00,69.0,65.0,29.74,NNW,338,0.0,0.0,88,0.00,,,0.00,WUHU216HW,2013-07-15 16:55:00,
2013-07-15 12:57:00,69.0,65.0,29.74,NNW,338,0.0,0.0,88,0.00,,,0.00,WUHU216HW,2013-07-15 16:57:00,
2013-07-15 12:58:00,69.0,65.0,29.74,NNW,338,0.0,0.0,88,0.00,,,0.00,WUHU216HW,2013-07-15 16:58:00,
2013-07-15 12:59:00,69.0,65.0,29.74,NNW,338,0.0,0.0,88,0.00,,,0.00,WUHU216HW,2013-07-15 16:59:00,
2013-07-15 13:01:00,69.0,65.0,29.74,NNW,338,0.0,0.0,88,0.00,,,0.00,WUHU216HW,2013-07-15 17:01:00,
2013-07-15 13:02:00,69.0,65.0,29.74,NNW,338,0.0,0.0,88,0.00,,,0.00,WUHU216HW,2013-07-15 17:02:00,
2013-07-15 13:03:00,69.0,65.0,29.74,NNW,338,0.0,0.0,88,0.00,,,0.00,WUHU216HW,2013-07-15 17:03:00,
2013-07-15 13:04:00,69.0,65.0,29.74,NNW,338,0.0,0.0,88,0.00,,,0.00,WUHU216HW,2013-07-15 17:04:00,
2013-07-15 13:06:00,69.0,65.0,29.74,NNW,338,0.0,0.0,88,0.00,,,0.00,WUHU216HW,2013-07-15 17:06:00,
2013-07-15 13:08:00,69.0,65.0,29.74,NNW,338,0.0,0.0,88,0.00,,,0.00,WUHU216HW,2013-07-15 17:08:00,
2013-07-15 13:10:00,69.0,65.0,29.74,NNW,338,0.0,0.0,88,0.00,,,0.00,WUHU216HW,2013-07-15 17:10:00,
2013-07-15 13:11:00,69.0,65.0,29.74,NNW,338,0.0,0.0,88,0.00,,,0.00,WUHU216HW,2013-07-15 17:11:00,
2013-07-15 13:16:00,69.0,65.0,29.74,NNW,338,0.0,0.0,88,0.00,,,0.00,WUHU216HW,2013-07-15 17:16:00,
2013-07-15 13:18:00,69.0,65.0,29.74,NNW,338,0.0,0.0,88,0.00,,,0.00,WUHU216HW,2013-07-15 17:18:00,
2013-07-15 13:19:00,69.0,65.0,29.74,NNW,338,0.0,0.0,88,0.00,,,0.00,WUHU216HW,2013-07-15 17:19:00,
2013-07-15 13:20:00,69.0,65.0,29.74,NNW,338,0.0,0.0,88,0.00,,,0.00,WUHU216HW,2013-07-15 17:20:00,
2013-07-15 13:21:00,69.0,65.0,29.74,NNW,338,0.0,0.0,88,0.00,,,0.00,WUHU216HW,2013-07-15 17:21:00,
2013-07-15 13:22:00,69.0,65.0,29.74,NNW,338,0.0,0.0,88,0.00,,,0.00,WUHU216HW,2013-07-15 17:22:00,
2013-07-15 13:23:00,69.0,65.0,29.74,NNW,338,0.0,0.0,88,0.00,,,0.00,WUHU216HW,2013-07-15 17:23:00,
2013-07-15 13:24:00,69.0,65.0,29.74,NNW,338,0.0,0.0,88,0.00,,,0.00,WUHU216HW,2013-07-15 17:24:00,
2013-07-15 13:25:00,69.0,65.0,29.74,NNW,338,0.0,0.0,88,0.00,,,0.00,WUHU216HW,2013-07-15 17:25:00,
2013-07-15 13:26:00,68.9,65.1,29.74,NNW,338,0.0,0.0,88,0.00,,,0.00,WUHU216HW,2013-07-15 17:26:00,
2013-07-15 13:27:00,68.9,65.1,29.74,NNW,338,0.0,0.0,88,0.00,,,0.00,WUHU216HW,2013-07-15 17:27:00,
2013-07-15 13:28:00,68.9,65.1,29.73,NNW,338,0.0,0.0,88,0.00,,,0.00,WUHU216HW,2013-07-15 17:28:00,
2013-07-15 13:29:00,68.9,65.1,29.74,NNW,338,0.0,0.0,88,0.00,,,0.00,WUHU216HW,2013-07-15 17:29:00,
2013-07-15 13:30:00,68.9,65.1,29.74,NNW,338,0.0,0.0,88,0.00,,,0.00,WUHU216HW,2013-07-15 17:30:00,
2013-07-15 13:31:00,68.9,65.1,29.74,NNW,338,0.0,0.0,88,0.00,,,0.00,WUHU216HW,2013-07-15 17:31:00,
2013-07-15 13:32:00,68.9,65.1,29.74,NNW,338,0.0,0.0,88,0.00,,,0.00,WUHU216HW,2013-07-15 17:32:00,
2013-07-15 13:33:00,68.9,65.1,29.74,NNW,338,0.0,0.0,88,0.00,,,0.00,WUHU216HW,2013-07-15 17:33:00,
2013-07-15 13:34:00,68.9,65.1,29.74,NNW,338,0.0,0.0,88,0.00,,,0.00,WUHU216HW,2013-07-15 17:34:00,
2013-07-15 13:35:00,68.9,65.1,29.73,NNW,338,0.0,0.0,88,0.00,,,0.00,WUHU216HW,2013-07-15 17:35:00,
2013-07-15 13:36:00,68.7,65.3,29.73,NNW,338,0.0,0.0,89,0.00,,,0.00,WUHU216HW,2013-07-15 17:36:00,
2013-07-15 13:38:00,68.7,65.3,29.73,NNW,338,0.0,0.0,88,0.00,,,0.00,WUHU216HW,2013-07-15 17:38:00,
2013-07-15 13:39:00,68.7,65.3,29.73,NNW,338,0.0,0.0,88,0.00,,,0.00,WUHU216HW,2013-07-15 17:39:00,
2013-07-15 13:40:00,68.5,64.8,29.73,NNW,338,0.0,0.0,88,0.00,,,0.00,WUHU216HW,2013-07-15 17:40:00,
2013-07-15 13:41:00,68.5,64.8,29.73,NNW,338,0.0,0.0,88,0.00,,,0.00,WUHU216HW,2013-07-15 17:41:00,
2013-07-15 13:42:00,68.5,64.8,29.73,NNW,338,0.0,0.0,88,0.00,,,0.00,WUHU216HW,2013-07-15 17:42:00,
2013-07-15 13:43:00,68.5,64.8,29.73,NNW,338,0.0,0.0,88,0.00,,,0.00,WUHU216HW,2013-07-15 17:43:00,
2013-07-15 13:44:00,68.5,64.8,29.73,NNW,338,0.0,0.0,89,0.00,,,0.00,WUHU216HW,2013-07-15 17:44:00,
2013-07-15 13:45:00,68.5,64.8,29.73,NNW,338,0.0,0.0,89,0.00,,,0.00,WUHU216HW,2013-07-15 17:45:00,
2013-07-15 13:46:00,68.5,64.8,29.73,NNW,338,0.0,0.0,89,0.00,,,0.00,WUHU216HW,2013-07-15 17:46:00,
2013-07-15 13:47:00,68.5,64.8,29.73,NNW,338,0.0,0.0,89,0.00,,,0.00,WUHU216HW,2013-07-15 17:47:00,
2013-07-15 13:49:00,68.5,64.8,29.73,NNW,338,0.0,0.0,89,0.00,,,0.00,WUHU216HW,2013-07-15 17:49:00,
2013-07-15 13:50:00,68.5,64.8,29.73,NNW,338,0.0,0.0,89,0.00,,,0.00,WUHU216HW,2013-07-15 17:50:00,
2013-07-15 13:51:00,68.5,64.8,29.73,NNW,338,0.0,0.0,89,0.00,,,0.00,WUHU216HW,2013-07-15 17:51:00,
2013-07-15 14:01:00,68.5,64.8,29.74,NNW,338,0.0,0.0,89,0.00,,,0.00,WUHU216HW,2013-07-15 18:01:00,
2013-07-15 14:02:00,68.5,64.8,29.74,NNW,338,0.0,0.0,89,0.00,,,0.00,WUHU216HW,2013-07-15 18:02:00,
2013-07-15 14:04:00,68.5,64.8,29.74,NNW,338,0.0,0.0,89,0.00,,,0.00,WUHU216HW,2013-07-15 18:04:00,
2013-07-15 14:05:00,68.5,64.8,29.74,NNW,338,0.0,0.0,89,0.00,,,0.00,WUHU216HW,2013-07-15 18:05:00,
2013-07-15 14:08:00,68.5,64.8,29.74,NNW,338,0.0,0.0,89,0.00,,,0.00,WUHU216HW,2013-07-15 18:08:00,
2013-07-15 14:10:00,68.5,64.8,29.74,NNW,338,0.0,0.0,89,0.00,,,0.00,WUHU216HW,2013-07-15 18:10:00,
2013-07-15 14:11:00,68.5,64.8,29.74,NNW,338,0.0,0.0,89,0.00,,,0.00,WUHU216HW,2013-07-15 18:11:00,
2013-07-15 14:12:00,68.5,64.8,29.74,NNW,338,0.0,0.0,89,0.00,,,0.00,WUHU216HW,2013-07-15 18:12:00,
2013-07-15 14:13:00,68.5,64.8,29.74,NNW,338,0.0,0.0,89,0.00,,,0.00,WUHU216HW,2013-07-15 18:13:00,
2013-07-15 14:14:00,68.5,64.8,29.74,NNW,338,0.0,0.0,89,0.00,,,0.00,WUHU216HW,2013-07-15 18:14:00,
2013-07-15 14:15:00,68.5,64.8,29.74,NNW,338,0.0,0.0,89,0.00,,,0.00,WUHU216HW,2013-07-15 18:15:00,
2013-07-15 14:16:00,68.5,64.8,29.74,NNW,338,0.0,0.0,89,0.00,,,0.00,WUHU216HW,2013-07-15 18:16:00,
2013-07-15 14:17:00,68.5,64.8,29.74,NNW,338,0.0,0.0,89,0.00,,,0.00,WUHU216HW,2013-07-15 18:17:00,
2013-07-15 14:18:00,68.5,64.8,29.74,NNW,338,0.0,0.0,89,0.00,,,0.00,WUHU216HW,2013-07-15 18:18:00,
2013-07-15 14:19:00,68.5,64.8,29.74,NNW,338,0.0,0.0,89,0.00,,,0.00,WUHU216HW,2013-07-15 18:19:00,
2013-07-15 14:20:00,68.5,64.8,29.74,NNW,338,0.0,0.0,89,0.00,,,0.00,WUHU216HW,2013-07-15 18:20:00,
2013-07-15 14:21:00,68.5,64.8,29.74,NNW,338,0.0,0.0,89,0.00,,,0.00,WUHU216HW,2013-07-15 18:21:00,
2013-07-15 14:22:00,68.5,64.8,29.74,NNW,338,0.0,0.0,89,0.00,,,0.00,WUHU216HW,2013-07-15 18:22:00,
2013-07-15 14:23:00,68.5,64.8,29.74,NNW,338,0.0,0.0,89,0.00,,,0.00,WUHU216HW,2013-07-15 18:23:00,
2013-07-15 14:24:00,68.5,64.8,29.74,NNW,338,0.0,0.0,89,0.00,,,0.00,WUHU216HW,2013-07-15 18:24:00,
2013-07-15 14:25:00,68.5,64.8,29.75,NNW,338,0.0,0.0,89,0.00,,,0.00,WUHU216HW,2013-07-15 18:25:00,
2013-07-15 14:26:00,68.5,64.8,29.75,NNW,338,0.0,0.0,89,0.00,,,0.00,WUHU216HW,2013-07-15 18:26:00,
2013-07-15 14:27:00,68.5,64.8,29.74,NNW,338,0.0,0.0,89,0.00,,,0.00,WUHU216HW,2013-07-15 18:27:00,
2013-07-15 14:28:00,68.5,64.8,29.74,NNW,338,0.0,0.0,89,0.00,,,0.00,WUHU216HW,2013-07-15 18:28:00,
2013-07-15 14:29:00,68.5,64.8,29.75,NNW,338,0.0,0.0,89,0.00,,,0.00,WUHU216HW,2013-07-15 18:29:00,
2013-07-15 14:30:00,68.5,64.8,29.75,NNW,338,0.0,0.0,89,0.00,,,0.00,WUHU216HW,2013-07-15 18:30:00,
2013-07-15 14:31:00,68.5,64.8,29.75,NNW,338,0.0,0.0,89,0.00,,,0.00,WUHU216HW,2013-07-15 18:31:00,
2013-07-15 14:32:00,68.5,64.8,29.75,NNW,338,0.0,0.0,89,0.00,,,0.00,WUHU216HW,2013-07-15 18:32:00,
2013-07-15 14:33:00,68.5,64.8,29.75,NNW,338,0.0,0.0,89,0.00,,,0.00,WUHU216HW,2013-07-15 18:33:00,
2013-07-15 14:34:00,68.5,64.8,29.75,NNW,338,0.0,0.0,89,0.00,,,0.00,WUHU216HW,2013-07-15 18:34:00,
2013-07-15 14:35:00,68.5,64.8,29.75,NNW,338,0.0,0.0,89,0.00,,,0.00,WUHU216HW,2013-07-15 18:35:00,
2013-07-15 14:38:00,68.5,64.8,29.75,NNW,338,0.0,0.0,89,0.00,,,0.00,WUHU216HW,2013-07-15 18:38:00,
2013-07-15 14:39:00,68.5,64.8,29.75,NNW,338,0.0,0.0,89,0.00,,,0.00,WUHU216HW,2013-07-15 18:39:00,
2013-07-15 14:47:00,68.3,64.9,29.75,NNW,338,0.0,0.0,89,0.00,,,0.00,WUHU216HW,2013-07-15 18:47:00,
2013-07-15 14:48:00,68.3,64.9,29.75,NNW,338,0.0,0.0,89,0.00,,,0.00,WUHU216HW,2013-07-15 18:48:00,
2013-07-15 14:49:00,68.3,64.9,29.75,NNW,338,0.0,0.0,89,0.00,,,0.00,WUHU216HW,2013-07-15 18:49:00,
2013-07-15 14:52:00,68.3,64.9,29.75,NNW,338,0.0,0.0,89,0.00,,,0.00,WUHU216HW,2013-07-15 18:52:00,
2013-07-15 14:53:00,68.3,64.9,29.75,NNW,338,0.0,0.0,89,0.00,,,0.00,WUHU216HW,2013-07-15 18:53:00,
2013-07-15 14:57:00,68.3,64.9,29.75,NNW,338,0.0,0.0,89,0.00,,,0.00,WUHU216HW,2013-07-15 18:57:00,
2013-07-15 14:59:00,68.3,64.9,29.75,NNW,338,0.0,0.0,89,0.00,,,0.00,WUHU216HW,2013-07-15 18:59:00,
2013-07-15 15:02:00,68.5,65.1,29.75,NNW,338,0.0,0.0,89,0.00,,,0.00,WUHU216HW,2013-07-15 19:02:00,
2013-07-15 15:03:00,68.5,65.1,29.75,NNW,338,0.0,0.0,89,0.00,,,0.00,WUHU216HW,2013-07-15 19:03:00,
2013-07-15 15:04:00,68.3,64.9,29.75,NNW,338,0.0,0.0,89,0.00,,,0.00,WUHU216HW,2013-07-15 19:04:00,
2013-07-15 15:05:00,88.8,73.7,29.99,NNW,338,0.0,2.2,61,0.00,,,0.00,WUHU216HW,2013-07-15 19:05:00,
2013-07-15 15:06:00,68.3,64.9,29.75,NNW,338,0.0,0.0,89,0.00,,,0.00,WUHU216HW,2013-07-15 19:06:00,
2013-07-15 15:07:00,68.5,65.1,29.75,NNW,338,0.0,0.0,89,0.00,,,0.00,WUHU216HW,2013-07-15 19:07:00,
2013-07-15 15:08:00,68.5,65.1,29.75,NNW,338,0.0,0.0,89,0.00,,,0.00,WUHU216HW,2013-07-15 19:08:00,
2013-07-15 15:09:00,68.5,65.1,29.76,NNW,338,0.0,0.0,89,0.00,,,0.00,WUHU216HW,2013-07-15 19:09:00,
2013-07-15 15:10:00,68.5,65.1,29.75,NNW,338,0.0,0.0,89,0.00,,,0.00,WUHU216HW,2013-07-15 19:10:00,
2013-07-15 15:11:00,68.5,65.1,29.75,NNW,338,0.0,0.0,89,0.00,,,0.00,WUHU216HW,2013-07-15 19:11:00,
2013-07-15 15:13:00,68.5,65.1,29.75,NNW,338,0.0,0.0,89,0.00,,,0.00,WUHU216HW,2013-07-15 19:13:00,
2013-07-15 15:14:00,68.5,65.1,29.75,NNW,338,0.0,0.0,89,0.00,,,0.00,WUHU216HW,2013-07-15 19:14:00,
2013-07-15 15:15:00,68.5,65.1,29.75,NNW,338,0.0,0.0,89,0.00,,,0.00,WUHU216HW,2013-07-15 19:15:00,
2013-07-15 15:16:00,68.5,65.1,29.75,NNW,338,0.0,0.0,89,0.00,,,0.00,WUHU216HW,2013-07-15 19:16:00,
2013-07-15 15:17:00,68.7,65.3,29.75,NNW,338,0.0,0.0,89,0.00,,,0.00,WUHU216HW,2013-07-15 19:17:00,
2013-07-15 15:18:00,68.7,65.3,29.75,NNW,338,0.0,0.0,89,0.00,,,0.00,WUHU216HW,2013-07-15 19:18:00,
2013-07-15 15:19:00,68.7,65.3,29.75,NNW,338,0.0,0.0,89,0.00,,,0.00,WUHU216HW,2013-07-15 19:19:00,
2013-07-15 15:21:00,68.7,65.3,29.75,NNW,338,0.0,0.0,89,0.00,,,0.00,WUHU216HW,2013-07-15 19:21:00,
2013-07-15 15:23:00,87.9,73.8,29.98,North,0,0.0,0.0,63,0.00,,,0.00,WUHU216HW,2013-07-15 19:23:00,
2013-07-15 15:41:00,69.4,66.0,29.76,NNW,338,0.0,0.0,89,0.00,,,0.00,WUHU216HW,2013-07-15 19:41:00,
2013-07-15 15:42:00,69.4,66.0,29.76,NNW,338,0.0,0.0,89,0.00,,,0.00,WUHU216HW,2013-07-15 19:42:00,
2013-07-15 15:43:00,69.4,66.0,29.76,NNW,338,0.0,0.0,89,0.00,,,0.00,WUHU216HW,2013-07-15 19:43:00,
2013-07-15 15:44:00,69.4,66.0,29.76,NNW,338,0.0,0.0,89,0.00,,,0.00,WUHU216HW,2013-07-15 19:44:00,
2013-07-15 15:45:00,69.4,66.0,29.76,NNW,338,0.0,0.0,89,0.00,,,0.00,WUHU216HW,2013-07-15 19:45:00,
2013-07-15 15:46:00,69.4,66.0,29.76,NNW,338,0.0,0.0,89,0.00,,,0.00,WUHU216HW,2013-07-15 19:46:00,
2013-07-15 15:47:00,69.6,66.5,29.76,NNW,338,0.0,0.0,90,0.00,,,0.00,WUHU216HW,2013-07-15 19:47:00,
2013-07-15 15:48:00,69.6,66.5,29.76,NNW,338,0.0,0.0,90,0.00,,,0.00,WUHU216HW,2013-07-15 19:48:00,
2013-07-15 15:49:00,69.6,66.5,29.76,NNW,338,0.0,0.0,90,0.00,,,0.00,WUHU216HW,2013-07-15 19:49:00,
2013-07-15 15:50:00,69.6,66.5,29.76,NNW,338,0.0,0.0,90,0.00,,,0.00,WUHU216HW,2013-07-15 19:50:00,
2013-07-15 15:51:00,69.6,66.5,29.76,NNW,338,0.0,0.0,90,0.00,,,0.00,WUHU216HW,2013-07-15 19:51:00,
2013-07-15 15:52:00,69.9,66.9,29.76,NNW,338,0.0,0.0,90,0.00,,,0.00,WUHU216HW,2013-07-15 19:52:00,
2013-07-15 15:53:00,69.9,66.9,29.76,NNW,338,0.0,0.0,90,0.00,,,0.00,WUHU216HW,2013-07-15 19:53:00,
2013-07-15 15:54:00,69.9,66.9,29.76,NNW,338,0.0,0.0,90,0.00,,,0.00,WUHU216HW,2013-07-15 19:54:00,
2013-07-15 15:55:00,69.9,66.9,29.76,NNW,338,0.0,0.0,90,0.00,,,0.00,WUHU216HW,2013-07-15 19:55:00,
2013-07-15 15:56:00,70.1,67.1,29.76,NNW,338,0.0,0.0,90,0.00,,,0.00,WUHU216HW,2013-07-15 19:56:00,
2013-07-15 15:57:00,70.1,67.1,29.76,NNW,338,0.0,0.0,90,0.00,,,0.00,WUHU216HW,2013-07-15 19:57:00,
2013-07-15 15:58:00,70.3,67.2,29.76,NNW,338,0.0,0.0,90,0.00,,,0.00,WUHU216HW,2013-07-15 19:58:00,
2013-07-15 15:59:00,70.3,67.2,29.76,NNW,338,0.0,0.0,90,0.00,,,0.00,WUHU216HW,2013-07-15 19:59:00,
2013-07-15 16:00:00,70.3,67.2,29.76,NNW,338,0.0,0.0,90,0.00,,,0.00,WUHU216HW,2013-07-15 20:00:00,
2013-07-15 16:01:00,70.3,67.2,29.76,NNW,338,0.0,0.0,90,0.00,,,0.00,WUHU216HW,2013-07-15 20:01:00,
2013-07-15 16:02:00,70.3,67.2,29.76,NNW,338,0.0,0.0,90,0.00,,,0.00,WUHU216HW,2013-07-15 20:02:00,
2013-07-15 16:03:00,70.5,67.4,29.76,NNW,338,0.0,0.0,90,0.00,,,0.00,WUHU216HW,2013-07-15 20:03:00,
2013-07-15 16:04:00,70.5,67.4,29.76,NNW,338,0.0,0.0,90,0.00,,,0.00,WUHU216HW,2013-07-15 20:04:00,
2013-07-15 16:05:00,70.5,67.4,29.76,NNW,338,0.0,0.0,90,0.00,,,0.00,WUHU216HW,2013-07-15 20:05:00,
2013-07-15 16:06:00,70.5,67.4,29.76,NNW,338,0.0,0.0,90,0.00,,,0.00,WUHU216HW,2013-07-15 20:06:00,
2013-07-15 16:07:00,70.7,67.6,29.76,NNW,338,0.0,0.0,90,0.00,,,0.00,WUHU216HW,2013-07-15 20:07:00,
2013-07-15 16:08:00,70.8,67.8,29.76,NNW,338,0.0,0.0,90,0.00,,,0.00,WUHU216HW,2013-07-15 20:08:00,
2013-07-15 16:09:00,70.8,67.8,29.76,NNW,338,0.0,0.0,90,0.00,,,0.00,WUHU216HW,2013-07-15 20:09:00,
2013-07-15 16:10:00,70.8,67.8,29.76,NNW,338,0.0,0.0,90,0.00,,,0.00,WUHU216HW,2013-07-15 20:10:00,
2013-07-15 16:11:00,71.0,68.0,29.76,NNW,338,0.0,0.0,90,0.00,,,0.00,WUHU216HW,2013-07-15 20:11:00,
2013-07-15 16:13:00,71.2,68.1,29.76,NNW,338,0.0,0.0,90,0.00,,,0.00,WUHU216HW,2013-07-15 20:13:00,
2013-07-15 16:17:00,71.2,68.1,29.76,NNW,338,0.0,0.0,90,0.00,,,0.00,WUHU216HW,2013-07-15 20:17:00,
2013-07-15 16:20:00,71.2,68.1,29.76,NNW,338,0.0,0.0,90,0.00,,,0.00,WUHU216HW,2013-07-15 20:20:00,
2013-07-15 16:21:00,71.2,68.1,29.76,NNW,338,0.0,0.0,90,0.00,,,0.00,WUHU216HW,2013-07-15 20:21:00,
2013-07-15 16:22:00,71.4,68.3,29.76,NNW,338,0.0,0.0,90,0.00,,,0.00,WUHU216HW,2013-07-15 20:22:00,
2013-07-15 16:23:00,71.4,68.3,29.76,NNW,338,0.0,0.0,90,0.00,,,0.00,WUHU216HW,2013-07-15 20:23:00,
2013-07-15 16:24:00,71.4,68.3,29.76,NNW,338,0.0,0.0,89,0.00,,,0.00,WUHU216HW,2013-07-15 20:24:00,
2013-07-15 16:26:00,71.4,68.3,29.76,NNW,338,0.0,0.0,89,0.00,,,0.00,WUHU216HW,2013-07-15 20:26:00,
2013-07-15 16:27:00,71.4,68.3,29.76,NNW,338,0.0,0.0,89,0.00,,,0.00,WUHU216HW,2013-07-15 20:27:00,
2013-07-15 16:28:00,71.4,68.3,29.76,NNW,338,0.0,0.0,89,0.00,,,0.00,WUHU216HW,2013-07-15 20:28:00,
2013-07-15 16:29:00,71.4,68.3,29.76,NNW,338,0.0,0.0,89,0.00,,,0.00,WUHU216HW,2013-07-15 20:29:00,
2013-07-15 16:30:00,71.4,68.3,29.76,NNW,338,0.0,0.0,89,0.00,,,0.00,WUHU216HW,2013-07-15 20:30:00,
2013-07-15 16:31:00,71.6,68.2,29.76,NNW,338,0.0,0.0,89,0.00,,,0.00,WUHU216HW,2013-07-15 20:31:00,
2013-07-15 16:32:00,71.6,68.2,29.76,NNW,338,0.0,0.0,89,0.00,,,0.00,WUHU216HW,2013-07-15 20:32:00,
2013-07-15 16:33:00,71.6,68.2,29.76,NNW,338,0.0,0.0,89,0.00,,,0.00,WUHU216HW,2013-07-15 20:33:00,
2013-07-15 16:34:00,71.6,68.2,29.77,NNW,338,0.0,0.0,89,0.00,,,0.00,WUHU216HW,2013-07-15 20:34:00,
2013-07-15 16:35:00,71.7,68.3,29.77,NNW,338,0.0,0.0,89,0.00,,,0.00,WUHU216HW,2013-07-15 20:35:00,
2013-07-15 16:36:00,71.7,68.3,29.77,NNW,338,0.0,0.0,89,0.00,,,0.00,WUHU216HW,2013-07-15 20:36:00,
2013-07-15 16:37:00,71.7,68.3,29.77,NNW,338,0.0,0.0,89,0.00,,,0.00,WUHU216HW,2013-07-15 20:37:00,
2013-07-15 16:38:00,71.7,68.3,29.77,NNW,338,0.0,0.0,89,0.00,,,0.00,WUHU216HW,2013-07-15 20:38:00,
2013-07-15 16:39:00,71.9,68.5,29.77,NNW,338,0.0,0.0,89,0.00,,,0.00,WUHU216HW,2013-07-15 20:39:00,
2013-07-15 16:40:00,71.9,68.5,29.77,NNW,338,0.0,0.0,89,0.00,,,0.00,WUHU216HW,2013-07-15 20:40:00,
2013-07-15 16:42:00,72.1,68.7,29.77,NNW,338,0.0,0.0,89,0.00,,,0.00,WUHU216HW,2013-07-15 20:42:00,
2013-07-15 16:43:00,72.1,68.7,29.77,NNW,338,0.0,0.0,89,0.00,,,0.00,WUHU216HW,2013-07-15 20:43:00,
2013-07-15 16:44:00,72.1,68.7,29.76,NNW,338,0.0,0.0,89,0.00,,,0.00,WUHU216HW,2013-07-15 20:44:00,
2013-07-15 16:45:00,72.3,68.9,29.76,NNW,338,0.0,0.0,89,0.00,,,0.00,WUHU216HW,2013-07-15 20:45:00,
2013-07-15 16:47:00,72.3,68.9,29.76,NNW,338,0.0,0.0,89,0.00,,,0.00,WUHU216HW,2013-07-15 20:47:00,
2013-07-15 16:48:00,72.6,69.2,29.76,NNW,338,0.0,0.0,89,0.00,,,0.00,WUHU216HW,2013-07-15 20:48:00,
2013-07-15 16:49:00,72.6,69.2,29.76,NNW,338,0.0,0.0,89,0.00,,,0.00,WUHU216HW,2013-07-15 20:49:00,
2013-07-15 16:50:00,72.8,69.1,29.76,NNW,338,0.0,0.0,88,0.00,,,0.00,WUHU216HW,2013-07-15 20:50:00,
2013-07-15 16:51:00,72.8,69.1,29.76,NNW,338,0.0,0.0,88,0.00,,,0.00,WUHU216HW,2013-07-15 20:51:00,
2013-07-15 16:52:00,73.0,69.2,29.76,NNW,338,0.0,0.0,88,0.00,,,0.00,WUHU216HW,2013-07-15 20:52:00,
2013-07-15 16:53:00,73.0,69.2,29.76,NNW,338,0.0,0.0,88,0.00,,,0.00,WUHU216HW,2013-07-15 20:53:00,
2013-07-15 16:54:00,73.0,69.2,29.76,NNW,338,0.0,0.0,88,0.00,,,0.00,WUHU216HW,2013-07-15 20:54:00,
2013-07-15 16:57:00,73.2,69.4,29.76,SW,225,0.0,0.0,88,0.00,,,0.00,WUHU216HW,2013-07-15 20:57:00,
2013-07-15 16:58:00,73.5,69.4,29.76,SW,225,0.0,0.0,87,0.00,,,0.00,WUHU216HW,2013-07-15 20:58:00,
2013-07-15 16:59:00,73.5,69.4,29.76,SW,225,0.0,0.0,87,0.00,,,0.00,WUHU216HW,2013-07-15 20:59:00,
2013-07-15 17:00:00,73.7,69.6,29.76,SW,225,0.0,0.0,87,0.00,,,0.00,WUHU216HW,2013-07-15 21:00:00,
2013-07-15 17:01:00,73.7,69.6,29.76,SW,225,0.0,0.0,87,0.00,,,0.00,WUHU216HW,2013-07-15 21:01:00,
2013-07-15 17:03:00,73.9,69.5,29.76,SSE,158,0.0,0.0,86,0.00,,,0.00,WUHU216HW,2013-07-15 21:03:00,
2013-07-15 17:04:00,73.9,69.5,29.76,SSE,158,0.0,0.0,86,0.00,,,0.00,WUHU216HW,2013-07-15 21:04:00,
2013-07-15 17:05:00,74.1,69.3,29.76,SSE,158,0.0,0.0,85,0.00,,,0.00,WUHU216HW,2013-07-15 21:05:00,
2013-07-15 17:07:00,74.3,69.5,29.76,SSE,158,0.0,0.0,85,0.00,,,0.00,WUHU216HW,2013-07-15 21:07:00,
2013-07-15 17:08:00,74.3,69.5,29.76,SSE,158,0.0,0.0,85,0.00,,,0.00,WUHU216HW,2013-07-15 21:08:00,
2013-07-15 17:09:00,74.4,69.7,29.76,SSE,158,0.0,0.0,85,0.00,,,0.00,WUHU216HW,2013-07-15 21:09:00,
2013-07-15 17:10:00,74.4,69.7,29.76,SSE,158,0.0,0.0,85,0.00,,,0.00,WUHU216HW,2013-07-15 21:10:00,
2013-07-15 17:11:00,74.6,69.8,29.76,SSE,158,0.0,0.0,85,0.00,,,0.00,WUHU216HW,2013-07-15 21:11:00,
2013-07-15 17:12:00,74.6,69.8,29.76,SSE,158,0.0,0.0,85,0.00,,,0.00,WUHU216HW,2013-07-15 21:12:00,
2013-07-15 17:13:00,74.8,70.0,29.76,SSE,158,0.0,0.0,85,0.00,,,0.00,WUHU216HW,2013-07-15 21:13:00,
2013-07-15 17:15:00,74.8,70.0,29.76,SSE,158,0.0,0.0,85,0.00,,,0.00,WUHU216HW,2013-07-15 21:15:00,
2013-07-15 17:16:00,74.8,70.0,29.76,SSE,158,0.0,0.0,85,0.00,,,0.00,WUHU216HW,2013-07-15 21:16:00,
2013-07-15 17:17:00,74.8,70.0,29.76,SSE,158,0.0,0.0,85,0.00,,,0.00,WUHU216HW,2013-07-15 21:17:00,
2013-07-15 17:18:00,74.8,70.0,29.76,SSE,158,0.0,0.0,84,0.00,,,0.00,WUHU216HW,2013-07-15 21:18:00,
2013-07-15 17:19:00,74.8,70.0,29.76,SSE,158,0.0,0.0,84,0.00,,,0.00,WUHU216HW,2013-07-15 21:19:00,
2013-07-15 17:20:00,74.8,70.0,29.76,SSE,158,0.0,0.0,84,0.00,,,0.00,WUHU216HW,2013-07-15 21:20:00,
2013-07-15 17:21:00,74.8,70.0,29.76,SSE,158,0.0,0.0,84,0.00,,,0.00,WUHU216HW,2013-07-15 21:21:00,
2013-07-15 17:22:00,75.0,69.5,29.76,SSE,158,0.0,0.0,83,0.00,,,0.00,WUHU216HW,2013-07-15 21:22:00,
2013-07-15 17:23:00,75.0,69.5,29.76,SSE,158,0.0,0.0,83,0.00,,,0.00,WUHU216HW,2013-07-15 21:23:00,
2013-07-15 17:24:00,75.0,69.5,29.76,SSE,158,0.0,0.0,83,0.00,,,0.00,WUHU216HW,2013-07-15 21:24:00,
2013-07-15 17:25:00,75.0,69.5,29.76,SSE,158,0.0,0.0,83,0.00,,,0.00,WUHU216HW,2013-07-15 21:25:00,
2013-07-15 17:26:00,75.0,69.5,29.76,SSE,158,0.0,0.0,83,0.00,,,0.00,WUHU216HW,2013-07-15 21:26:00,
2013-07-15 17:27:00,75.0,69.5,29.76,SSE,158,0.0,0.0,83,0.00,,,0.00,WUHU216HW,2013-07-15 21:27:00,
2013-07-15 17:28:00,75.0,69.5,29.75,SSE,158,0.0,0.0,83,0.00,,,0.00,WUHU216HW,2013-07-15 21:28:00,
2013-07-15 17:30:00,75.3,69.5,29.76,SSE,158,0.0,0.0,82,0.00,,,0.00,WUHU216HW,2013-07-15 21:30:00,
2013-07-15 17:31:00,75.5,69.7,29.75,SSE,158,0.0,0.0,82,0.00,,,0.00,WUHU216HW,2013-07-15 21:31:00,
2013-07-15 17:32:00,75.5,69.7,29.75,SSE,158,0.0,0.0,82,0.00,,,0.00,WUHU216HW,2013-07-15 21:32:00,
2013-07-15 17:33:00,75.5,69.7,29.76,SSE,158,0.0,0.0,82,0.00,,,0.00,WUHU216HW,2013-07-15 21:33:00,
2013-07-15 17:34:00,75.5,69.7,29.76,SSE,158,0.0,0.0,82,0.00,,,0.00,WUHU216HW,2013-07-15 21:34:00,
2013-07-15 17:35:00,75.5,69.7,29.75,SSE,158,0.0,0.0,82,0.00,,,0.00,WUHU216HW,2013-07-15 21:35:00,
2013-07-15 17:36:00,75.5,69.7,29.75,SSE,158,0.0,0.0,82,0.00,,,0.00,WUHU216HW,2013-07-15 21:36:00,
2013-07-15 17:37:00,75.7,69.9,29.75,SSE,158,0.0,0.0,82,0.00,,,0.00,WUHU216HW,2013-07-15 21:37:00,
2013-07-15 17:38:00,75.7,69.9,29.76,SSE,158,0.0,0.0,82,0.00,,,0.00,WUHU216HW,2013-07-15 21:38:00,
2013-07-15 17:40:00,75.7,69.9,29.75,SSE,158,0.0,0.0,81,0.00,,,0.00,WUHU216HW,2013-07-15 21:40:00,
2013-07-15 17:41:00,75.7,69.9,29.75,SSE,158,0.0,0.0,81,0.00,,,0.00,WUHU216HW,2013-07-15 21:41:00,
2013-07-15 17:42:00,75.7,69.9,29.75,SSE,158,0.0,0.0,82,0.00,,,0.00,WUHU216HW,2013-07-15 21:42:00,
2013-07-15 17:43:00,75.7,69.9,29.75,SSE,158,0.0,0.0,82,0.00,,,0.00,WUHU216HW,2013-07-15 21:43:00,
2013-07-15 17:44:00,75.7,69.9,29.75,SSE,158,0.0,0.0,82,0.00,,,0.00,WUHU216HW,2013-07-15 21:44:00,
2013-07-15 17:45:00,75.7,69.9,29.75,SSE,158,0.0,0.0,82,0.00,,,0.00,WUHU216HW,2013-07-15 21:45:00,
2013-07-15 17:46:00,75.7,69.9,29.75,SSE,158,0.0,0.0,82,0.00,,,0.00,WUHU216HW,2013-07-15 21:46:00,
2013-07-15 17:47:00,75.7,69.9,29.76,SSE,158,0.0,0.0,82,0.00,,,0.00,WUHU216HW,2013-07-15 21:47:00,
2013-07-15 17:48:00,75.7,69.9,29.76,SSE,158,0.0,0.0,82,0.00,,,0.00,WUHU216HW,2013-07-15 21:48:00,
2013-07-15 17:49:00,75.7,69.9,29.75,SSE,158,0.0,0.0,82,0.00,,,0.00,WUHU216HW,2013-07-15 21:49:00,
2013-07-15 17:51:00,75.9,70.0,29.75,SSE,158,0.0,0.0,82,0.00,,,0.00,WUHU216HW,2013-07-15 21:51:00,
2013-07-15 17:52:00,75.9,70.0,29.75,SSE,158,0.0,0.0,81,0.00,,,0.00,WUHU216HW,2013-07-15 21:52:00,
2013-07-15 17:53:00,75.9,70.0,29.75,SSE,158,0.0,0.0,81,0.00,,,0.00,WUHU216HW,2013-07-15 21:53:00,
2013-07-15 17:54:00,75.9,70.0,29.75,SE,135,0.0,0.0,81,0.00,,,0.00,WUHU216HW,2013-07-15 21:54:00,
2013-07-15 17:55:00,75.9,70.0,29.75,SE,135,0.0,0.0,81,0.00,,,0.00,WUHU216HW,2013-07-15 21:55:00,
2013-07-15 17:57:00,75.9,70.0,29.75,SE,135,0.0,0.0,81,0.00,,,0.00,WUHU216HW,2013-07-15 21:57:00,
2013-07-15 17:58:00,75.9,70.0,29.75,SE,135,0.0,0.0,81,0.00,,,0.00,WUHU216HW,2013-07-15 21:58:00,
2013-07-15 18:00:00,76.1,69.8,29.75,SE,135,0.0,0.0,81,0.00,,,0.00,WUHU216HW,2013-07-15 22:00:00,
2013-07-15 18:01:00,76.1,69.8,29.75,SE,135,0.0,0.0,81,0.00,,,0.00,WUHU216HW,2013-07-15 22:01:00,
2013-07-15 18:02:00,76.1,69.8,29.75,SE,135,0.0,0.0,81,0.00,,,0.00,WUHU216HW,2013-07-15 22:02:00,
2013-07-15 18:03:00,76.1,69.8,29.75,SE,135,0.0,0.0,81,0.00,,,0.00,WUHU216HW,2013-07-15 22:03:00,
2013-07-15 18:04:00,76.1,69.8,29.75,SE,135,0.0,0.0,81,0.00,,,0.00,WUHU216HW,2013-07-15 22:04:00,
2013-07-15 18:07:00,76.1,69.8,29.75,SE,135,0.0,0.0,80,0.00,,,0.00,WUHU216HW,2013-07-15 22:07:00,
2013-07-15 18:08:00,76.1,69.8,29.75,SE,135,0.0,0.0,80,0.00,,,0.00,WUHU216HW,2013-07-15 22:08:00,
2013-07-15 18:10:00,76.1,69.8,29.75,SE,135,0.0,0.0,81,0.00,,,0.00,WUHU216HW,2013-07-15 22:10:00,
2013-07-15 18:11:00,76.1,69.8,29.75,SE,135,0.0,0.0,81,0.00,,,0.00,WUHU216HW,2013-07-15 22:11:00,
2013-07-15 18:12:00,76.2,69.6,29.75,SE,135,0.0,0.0,80,0.00,,,0.00,WUHU216HW,2013-07-15 22:12:00,
2013-07-15 18:13:00,76.2,69.6,29.75,SE,135,0.0,0.0,80,0.00,,,0.00,WUHU216HW,2013-07-15 22:13:00,
2013-07-15 18:14:00,76.2,69.6,29.75,SE,135,0.0,0.0,80,0.00,,,0.00,WUHU216HW,2013-07-15 22:14:00,
2013-07-15 18:15:00,76.2,69.6,29.75,SE,135,0.0,0.0,80,0.00,,,0.00,WUHU216HW,2013-07-15 22:15:00,
2013-07-15 18:16:00,76.4,69.4,29.75,SE,135,0.0,0.0,79,0.00,,,0.00,WUHU216HW,2013-07-15 22:16:00,
2013-07-15 18:17:00,76.4,69.4,29.75,SE,135,0.0,0.0,79,0.00,,,0.00,WUHU216HW,2013-07-15 22:17:00,
2013-07-15 18:18:00,76.2,69.3,29.75,SE,135,0.0,0.0,79,0.00,,,0.00,WUHU216HW,2013-07-15 22:18:00,
2013-07-15 18:19:00,76.2,69.3,29.75,SE,135,0.0,0.0,79,0.00,,,0.00,WUHU216HW,2013-07-15 22:19:00,
2013-07-15 18:20:00,76.6,70.0,29.75,SE,135,0.0,0.0,80,0.00,,,0.00,WUHU216HW,2013-07-15 22:20:00,
2013-07-15 18:21:00,76.6,70.0,29.75,SE,135,0.0,0.0,80,0.00,,,0.00,WUHU216HW,2013-07-15 22:21:00,
2013-07-15 18:22:00,76.6,70.0,29.75,SE,135,0.0,0.0,81,0.00,,,0.00,WUHU216HW,2013-07-15 22:22:00,
2013-07-15 18:23:00,76.6,70.0,29.75,SE,135,0.0,0.0,81,0.00,,,0.00,WUHU216HW,2013-07-15 22:23:00,
2013-07-15 18:24:00,76.6,70.0,29.75,SE,135,0.0,0.0,81,0.00,,,0.00,WUHU216HW,2013-07-15 22:24:00,
2013-07-15 18:25:00,76.8,70.1,29.75,SE,135,0.0,0.0,80,0.00,,,0.00,WUHU216HW,2013-07-15 22:25:00,
2013-07-15 18:26:00,76.8,70.1,29.75,SE,135,0.0,0.0,80,0.00,,,0.00,WUHU216HW,2013-07-15 22:26:00,
2013-07-15 18:27:00,77.0,70.3,29.75,ESE,113,0.0,0.0,80,0.00,,,0.00,WUHU216HW,2013-07-15 22:27:00,
2013-07-15 18:28:00,77.0,70.3,29.75,ESE,113,0.0,0.0,80,0.00,,,0.00,WUHU216HW,2013-07-15 22:28:00,
2013-07-15 18:29:00,77.1,70.1,29.75,SE,135,1.7,1.7,79,0.00,,,0.00,WUHU216HW,2013-07-15 22:29:00,
2013-07-15 18:30:00,77.1,70.1,29.75,SE,135,1.7,1.7,79,0.00,,,0.00,WUHU216HW,2013-07-15 22:30:00,
2013-07-15 18:31:00,77.5,70.4,29.75,SE,135,0.0,1.7,79,0.00,,,0.00,WUHU216HW,2013-07-15 22:31:00,
2013-07-15 18:32:00,77.5,70.4,29.75,SE,135,0.0,1.7,79,0.00,,,0.00,WUHU216HW,2013-07-15 22:32:00,
2013-07-15 18:33:00,77.5,70.4,29.75,SE,135,0.0,1.7,79,0.00,,,0.00,WUHU216HW,2013-07-15 22:33:00,
2013-07-15 18:34:00,77.5,70.4,29.75,SE,135,0.0,1.7,79,0.00,,,0.00,WUHU216HW,2013-07-15 22:34:00,
2013-07-15 18:35:00,77.7,70.6,29.74,SE,135,0.0,1.7,79,0.00,,,0.00,WUHU216HW,2013-07-15 22:35:00,
2013-07-15 18:36:00,77.7,70.6,29.74,SE,135,0.0,1.7,79,0.00,,,0.00,WUHU216HW,2013-07-15 22:36:00,
2013-07-15 18:37:00,77.9,70.8,29.74,SE,135,0.0,1.7,79,0.00,,,0.00,WUHU216HW,2013-07-15 22:37:00,
2013-07-15 18:38:00,77.9,70.8,29.75,SE,135,0.0,1.7,79,0.00,,,0.00,WUHU216HW,2013-07-15 22:38:00,
2013-07-15 18:40:00,78.0,71.0,29.75,SE,135,0.0,1.7,79,0.00,,,0.00,WUHU216HW,2013-07-15 22:40:00,
2013-07-15 18:41:00,78.0,71.0,29.75,SE,135,0.0,0.0,79,0.00,,,0.00,WUHU216HW,2013-07-15 22:41:00,
2013-07-15 18:42:00,78.6,71.1,29.75,SE,135,0.0,0.0,78,0.00,,,0.00,WUHU216HW,2013-07-15 22:42:00,
2013-07-15 18:43:00,78.6,71.1,29.75,SE,135,0.0,0.0,78,0.00,,,0.00,WUHU216HW,2013-07-15 22:43:00,
2013-07-15 18:44:00,78.6,71.1,29.75,SE,135,0.0,0.0,76,0.00,,,0.00,WUHU216HW,2013-07-15 22:44:00,
2013-07-15 18:45:00,78.6,71.1,29.75,SE,135,0.0,0.0,76,0.00,,,0.00,WUHU216HW,2013-07-15 22:45:00,
2013-07-15 18:46:00,78.6,71.1,29.75,SE,135,0.0,0.0,77,0.00,,,0.00,WUHU216HW,2013-07-15 22:46:00,
2013-07-15 18:47:00,78.6,71.1,29.75,SE,135,0.0,0.0,77,0.00,,,0.00,WUHU216HW,2013-07-15 22:47:00,
2013-07-15 18:48:00,78.9,70.7,29.75,SSW,203,3.5,3.5,76,0.00,,,0.00,WUHU216HW,2013-07-15 22:48:00,
2013-07-15 18:49:00,78.9,70.7,29.75,SSW,203,3.5,3.5,76,0.00,,,0.00,WUHU216HW,2013-07-15 22:49:00,
2013-07-15 18:50:00,79.1,70.5,29.75,SSW,203,0.0,3.5,75,0.00,,,0.00,WUHU216HW,2013-07-15 22:50:00,
2013-07-15 18:51:00,79.1,70.5,29.75,SSW,203,0.0,3.5,75,0.00,,,0.00,WUHU216HW,2013-07-15 22:51:00,
2013-07-15 18:52:00,79.1,70.5,29.75,SSW,203,0.0,3.5,75,0.00,,,0.00,WUHU216HW,2013-07-15 22:52:00,
2013-07-15 18:53:00,79.1,70.5,29.75,South,180,1.3,3.5,74,0.00,,,0.00,WUHU216HW,2013-07-15 22:53:00,
2013-07-15 18:54:00,79.1,70.5,29.75,South,180,1.3,3.5,74,0.00,,,0.00,WUHU216HW,2013-07-15 22:54:00,
2013-07-15 18:55:00,79.3,69.9,29.75,SSW,203,0.0,3.5,73,0.00,,,0.00,WUHU216HW,2013-07-15 22:55:00,
2013-07-15 18:56:00,79.3,69.9,29.75,SSW,203,0.0,3.5,73,0.00,,,0.00,WUHU216HW,2013-07-15 22:56:00,
2013-07-15 18:57:00,79.5,70.0,29.75,ESE,113,0.0,3.5,73,0.00,,,0.00,WUHU216HW,2013-07-15 22:57:00,
2013-07-15 18:58:00,79.5,70.0,29.75,ESE,113,0.0,3.5,73,0.00,,,0.00,WUHU216HW,2013-07-15 22:58:00,
2013-07-15 18:59:00,79.7,70.2,29.74,ESE,113,0.0,3.5,73,0.00,,,0.00,WUHU216HW,2013-07-15 22:59:00,
2013-07-15 19:00:00,79.7,70.2,29.75,ESE,113,0.0,1.3,73,0.00,,,0.00,WUHU216HW,2013-07-15 23:00:00,
2013-07-15 19:02:00,79.8,70.8,29.74,SE,135,0.0,1.3,74,0.00,,,0.00,WUHU216HW,2013-07-15 23:02:00,
2013-07-15 19:03:00,80.2,70.8,29.74,SE,135,0.0,1.3,73,0.00,,,0.00,WUHU216HW,2013-07-15 23:03:00,
2013-07-15 19:04:00,80.2,70.8,29.74,SE,135,0.0,0.0,73,0.00,,,0.00,WUHU216HW,2013-07-15 23:04:00,
2013-07-15 19:05:00,80.2,70.8,29.74,SSW,203,0.0,0.0,72,0.00,,,0.00,WUHU216HW,2013-07-15 23:05:00,
2013-07-15 19:06:00,80.2,70.8,29.74,SSW,203,0.0,0.0,72,0.00,,,0.00,WUHU216HW,2013-07-15 23:06:00,
2013-07-15 19:07:00,80.2,70.8,29.74,SSW,203,0.0,0.0,72,0.00,,,0.00,WUHU216HW,2013-07-15 23:07:00,
2013-07-15 19:09:00,80.2,70.8,29.74,SSW,203,0.0,0.0,72,0.00,,,0.00,WUHU216HW,2013-07-15 23:09:00,
2013-07-15 19:10:00,80.2,70.8,29.74,SSW,203,0.0,0.0,73,0.00,,,0.00,WUHU216HW,2013-07-15 23:10:00,
2013-07-15 19:11:00,80.2,70.8,29.74,SSW,203,0.0,0.0,73,0.00,,,0.00,WUHU216HW,2013-07-15 23:11:00,
2013-07-15 19:12:00,80.2,70.8,29.74,South,180,0.0,0.0,72,0.00,,,0.00,WUHU216HW,2013-07-15 23:12:00,
2013-07-15 19:13:00,80.2,70.8,29.74,South,180,0.0,0.0,72,0.00,,,0.00,WUHU216HW,2013-07-15 23:13:00,
2013-07-15 19:14:00,80.2,70.8,29.74,ENE,68,0.0,0.0,72,0.00,,,0.00,WUHU216HW,2013-07-15 23:14:00,
2013-07-15 19:15:00,80.2,70.8,29.74,ENE,68,0.0,0.0,72,0.00,,,0.00,WUHU216HW,2013-07-15 23:15:00,
2013-07-15 19:16:00,80.0,70.2,29.74,SE,135,0.0,0.0,72,0.00,,,0.00,WUHU216HW,2013-07-15 23:16:00,
2013-07-15 19:17:00,80.0,70.2,29.74,SE,135,0.0,0.0,72,0.00,,,0.00,WUHU216HW,2013-07-15 23:17:00,
2013-07-15 19:18:00,80.2,70.4,29.74,SE,135,0.0,0.0,72,0.00,,,0.00,WUHU216HW,2013-07-15 23:18:00,
2013-07-15 19:19:00,80.2,70.4,29.74,SE,135,0.0,0.0,72,0.00,,,0.00,WUHU216HW,2013-07-15 23:19:00,
2013-07-15 19:20:00,83.8,73.0,29.97,NNW,338,0.0,0.0,70,0.00,,,0.00,WUHU216HW,2013-07-15 23:20:00,
2013-07-15 19:21:00,80.2,70.4,29.74,SE,135,0.0,0.0,72,0.00,,,0.00,WUHU216HW,2013-07-15 23:21:00,
2013-07-15 19:22:00,80.2,70.4,29.74,SE,135,0.0,0.0,72,0.00,,,0.00,WUHU216HW,2013-07-15 23:22:00,
2013-07-15 19:23:00,80.7,71.3,29.74,SE,135,0.0,0.0,73,0.00,,,0.00,WUHU216HW,2013-07-15 23:23:00,
2013-07-15 19:24:00,80.7,71.3,29.74,SE,135,0.0,0.0,73,0.00,,,0.00,WUHU216HW,2013-07-15 23:24:00,
2013-07-15 19:25:00,81.1,71.6,29.74,SE,135,0.0,0.0,73,0.00,,,0.00,WUHU216HW,2013-07-15 23:25:00,
2013-07-15 19:26:00,81.1,71.6,29.74,SE,135,0.0,0.0,73,0.00,,,0.00,WUHU216HW,2013-07-15 23:26:00,
2013-07-15 19:27:00,81.5,72.0,29.74,SE,135,0.0,0.0,73,0.00,,,0.00,WUHU216HW,2013-07-15 23:27:00,
2013-07-15 19:28:00,81.5,72.0,29.74,SE,135,0.0,0.0,73,0.00,,,0.00,WUHU216HW,2013-07-15 23:28:00,
2013-07-15 19:29:00,81.6,71.3,29.74,SE,135,0.6,0.6,71,0.00,,,0.00,WUHU216HW,2013-07-15 23:29:00,
2013-07-15 19:30:00,81.6,71.3,29.74,SE,135,0.6,0.6,71,0.00,,,0.00,WUHU216HW,2013-07-15 23:30:00,
2013-07-15 19:32:00,81.6,71.3,29.74,SE,135,0.0,0.6,71,0.00,,,0.00,WUHU216HW,2013-07-15 23:32:00,
2013-07-15 19:33:00,82.0,71.6,29.74,SE,135,0.0,0.6,71,0.00,,,0.00,WUHU216HW,2013-07-15 23:33:00,
2013-07-15 19:34:00,82.0,71.6,29.74,SE,135,0.0,0.6,71,0.00,,,0.00,WUHU216HW,2013-07-15 23:34:00,
2013-07-15 19:35:00,82.0,71.6,29.74,SE,135,0.0,0.6,71,0.00,,,0.00,WUHU216HW,2013-07-15 23:35:00,
2013-07-15 19:36:00,82.4,72.4,29.74,SSE,158,1.5,1.5,72,0.00,,,0.00,WUHU216HW,2013-07-15 23:36:00,
2013-07-15 19:37:00,82.4,72.4,29.74,SSE,158,1.5,1.5,72,0.00,,,0.00,WUHU216HW,2013-07-15 23:37:00,
2013-07-15 19:39:00,82.5,71.7,29.74,SSE,158,0.0,1.5,70,0.00,,,0.00,WUHU216HW,2013-07-15 23:39:00,
2013-07-15 19:40:00,83.3,72.9,29.97,NNW,338,0.0,0.0,71,0.00,,,0.00,WUHU216HW,2013-07-15 23:40:00,
2013-07-15 19:41:00,82.7,71.9,29.74,SSE,158,2.0,2.0,70,0.00,,,0.00,WUHU216HW,2013-07-15 23:41:00,
2013-07-15 19:42:00,82.7,71.9,29.74,SSE,158,2.6,2.6,69,0.00,,,0.00,WUHU216HW,2013-07-15 23:42:00,
2013-07-15 19:43:00,82.7,71.9,29.74,SSE,158,2.6,2.6,69,0.00,,,0.00,WUHU216HW,2013-07-15 23:43:00,
2013-07-15 19:44:00,83.1,72.7,29.74,SSE,158,0.0,2.6,71,0.00,,,0.00,WUHU216HW,2013-07-15 23:44:00,
2013-07-15 19:45:00,83.1,72.7,29.74,SSE,158,0.0,2.6,71,0.00,,,0.00,WUHU216HW,2013-07-15 23:45:00,
2013-07-15 19:46:00,83.4,72.6,29.74,South,180,2.4,2.6,70,0.00,,,0.00,WUHU216HW,2013-07-15 23:46:00,
2013-07-15 19:47:00,83.4,72.6,29.74,South,180,2.4,2.6,70,0.00,,,0.00,WUHU216HW,2013-07-15 23:47:00,
2013-07-15 19:48:00,83.4,72.6,29.74,South,180,2.4,2.6,70,0.00,,,0.00,WUHU216HW,2013-07-15 23:48:00,
2013-07-15 19:49:00,83.3,70.7,29.74,SSE,158,0.0,2.6,66,0.00,,,0.00,WUHU216HW,2013-07-15 23:49:00,
2013-07-15 19:50:00,83.3,70.7,29.74,SSE,158,0.0,2.6,66,0.00,,,0.00,WUHU216HW,2013-07-15 23:50:00,
2013-07-15 19:51:00,82.9,70.3,29.74,SE,135,0.0,2.6,66,0.00,,,0.00,WUHU216HW,2013-07-15 23:51:00,
2013-07-15 19:52:00,82.9,70.3,29.74,SE,135,0.0,2.6,66,0.00,,,0.00,WUHU216HW,2013-07-15 23:52:00,
2013-07-15 19:53:00,82.7,70.6,29.74,SE,135,0.0,2.6,67,0.00,,,0.00,WUHU216HW,2013-07-15 23:53:00,
2013-07-15 19:54:00,82.7,70.6,29.74,SE,135,0.0,2.4,67,0.00,,,0.00,WUHU216HW,2013-07-15 23:54:00,
2013-07-15 19:55:00,82.5,70.8,29.73,SE,135,0.0,2.4,68,0.00,,,0.00,WUHU216HW,2013-07-15 23:55:00,
2013-07-15 19:56:00,82.5,70.8,29.74,SE,135,0.0,2.4,68,0.00,,,0.00,WUHU216HW,2013-07-15 23:56:00,
2013-07-15 19:57:00,82.5,70.8,29.73,SE,135,0.0,2.4,67,0.00,,,0.00,WUHU216HW,2013-07-15 23:57:00,
2013-07-15 19:58:00,82.5,70.8,29.73,SE,135,0.0,2.4,67,0.00,,,0.00,WUHU216HW,2013-07-15 23:58:00,
2013-07-15 19:59:00,82.2,70.0,29.73,SSE,158,0.0,0.0,67,0.00,,,0.00,WUHU216HW,2013-07-15 23:59:00,
2013-07-15 20:00:00,82.2,70.0,29.73,SSE,158,0.0,0.0,67,0.00,,,0.00,WUHU216HW,2013-07-16 00:00:00,
2013-07-15 20:01:00,82.2,70.0,29.73,ENE,68,0.0,0.0,67,0.00,,,0.00,WUHU216HW,2013-07-16 00:01:00,
2013-07-15 20:02:00,82.2,70.0,29.73,ENE,68,0.0,0.0,67,0.00,,,0.00,WUHU216HW,2013-07-16 00:02:00,
2013-07-15 20:03:00,82.2,70.0,29.74,North,0,0.0,0.0,68,0.00,,,0.00,WUHU216HW,2013-07-16 00:03:00,
2013-07-15 20:04:00,82.2,70.0,29.74,North,0,0.0,0.0,68,0.00,,,0.00,WUHU216HW,2013-07-16 00:04:00,
2013-07-15 20:05:00,82.2,70.0,29.74,North,0,0.0,0.0,68,0.00,,,0.00,WUHU216HW,2013-07-16 00:05:00,
2013-07-15 20:06:00,82.0,69.9,29.73,NNE,23,0.0,0.0,67,0.00,,,0.00,WUHU216HW,2013-07-16 00:06:00,
2013-07-15 20:07:00,82.0,69.9,29.73,NNE,23,0.0,0.0,67,0.00,,,0.00,WUHU216HW,2013-07-16 00:07:00,
2013-07-15 20:08:00,82.2,69.6,29.73,WSW,248,0.0,0.0,66,0.00,,,0.00,WUHU216HW,2013-07-16 00:08:00,
2013-07-15 20:09:00,82.2,69.6,29.73,WSW,248,0.0,0.0,66,0.00,,,0.00,WUHU216HW,2013-07-16 00:09:00,
2013-07-15 20:10:00,82.2,69.6,29.73,NE,45,0.0,0.0,68,0.00,,,0.00,WUHU216HW,2013-07-16 00:10:00,
2013-07-15 20:11:00,82.2,69.6,29.73,NE,45,0.0,0.0,68,0.00,,,0.00,WUHU216HW,2013-07-16 00:11:00,
2013-07-15 20:12:00,82.0,69.9,29.73,SSE,158,0.0,0.0,67,0.00,,,0.00,WUHU216HW,2013-07-16 00:12:00,
2013-07-15 20:14:00,82.0,69.9,29.73,South,180,0.0,0.0,67,0.00,,,0.00,WUHU216HW,2013-07-16 00:14:00,
2013-07-15 20:15:00,82.0,69.9,29.73,South,180,0.0,0.0,67,0.00,,,0.00,WUHU216HW,2013-07-16 00:15:00,
2013-07-15 20:16:00,82.0,69.9,29.73,South,180,0.0,0.0,67,0.00,,,0.00,WUHU216HW,2013-07-16 00:16:00,
2013-07-15 20:18:00,82.2,70.0,29.73,SW,225,0.0,0.0,67,0.00,,,0.00,WUHU216HW,2013-07-16 00:18:00,
2013-07-15 20:19:00,82.2,70.0,29.73,SW,225,0.0,0.0,67,0.00,,,0.00,WUHU216HW,2013-07-16 00:19:00,
2013-07-15 20:21:00,82.7,71.5,29.73,SSW,203,0.0,0.0,69,0.00,,,0.00,WUHU216HW,2013-07-16 00:21:00,
2013-07-15 20:23:00,83.1,70.9,29.72,South,180,2.2,2.2,67,0.00,,,0.00,WUHU216HW,2013-07-16 00:23:00,
2013-07-15 20:24:00,83.1,70.9,29.72,South,180,2.2,2.2,67,0.00,,,0.00,WUHU216HW,2013-07-16 00:24:00,
2013-07-15 20:25:00,83.4,70.4,29.73,South,180,0.0,2.2,65,0.00,,,0.00,WUHU216HW,2013-07-16 00:25:00,
2013-07-15 20:26:00,83.4,70.4,29.73,South,180,0.0,2.2,65,0.00,,,0.00,WUHU216HW,2013-07-16 00:26:00,
2013-07-15 20:27:00,83.8,71.2,29.73,South,180,2.2,2.2,66,0.00,,,0.00,WUHU216HW,2013-07-16 00:27:00,
2013-07-15 20:28:00,83.8,71.2,29.73,South,180,2.2,2.2,66,0.00,,,0.00,WUHU216HW,2013-07-16 00:28:00,
2013-07-15 20:29:00,83.8,71.2,29.73,South,180,2.2,2.2,66,0.00,,,0.00,WUHU216HW,2013-07-16 00:29:00,
2013-07-15 20:30:00,84.3,71.7,29.73,SSE,158,0.0,2.2,66,0.00,,,0.00,WUHU216HW,2013-07-16 00:30:00,
2013-07-15 20:31:00,84.3,71.7,29.73,SSE,158,0.0,2.2,66,0.00,,,0.00,WUHU216HW,2013-07-16 00:31:00,
2013-07-15 20:32:00,84.7,71.6,29.73,NNE,23,0.8,2.2,65,0.00,,,0.00,WUHU216HW,2013-07-16 00:32:00,
2013-07-15 20:33:00,84.7,71.6,29.72,NNE,23,0.8,2.2,65,0.00,,,0.00,WUHU216HW,2013-07-16 00:33:00,
2013-07-15 20:34:00,84.9,70.9,29.72,SSW,203,3.1,3.1,63,0.00,,,0.00,WUHU216HW,2013-07-16 00:34:00,
2013-07-15 20:35:00,84.9,70.9,29.73,SSW,203,3.1,3.1,63,0.00,,,0.00,WUHU216HW,2013-07-16 00:35:00,
2013-07-15 20:36:00,85.1,71.0,29.73,SSW,203,0.0,3.1,63,0.00,,,0.00,WUHU216HW,2013-07-16 00:36:00,
2013-07-15 20:37:00,85.1,71.0,29.73,SSW,203,0.0,3.1,63,0.00,,,0.00,WUHU216HW,2013-07-16 00:37:00,
2013-07-15 20:38:00,85.1,71.0,29.73,SW,225,2.4,3.1,63,0.00,,,0.00,WUHU216HW,2013-07-16 00:38:00,
2013-07-15 20:40:00,84.9,70.0,29.73,SSE,158,0.0,3.1,61,0.00,,,0.00,WUHU216HW,2013-07-16 00:40:00,
2013-07-15 20:41:00,84.9,70.0,29.73,SSE,158,0.0,3.1,61,0.00,,,0.00,WUHU216HW,2013-07-16 00:41:00,
2013-07-15 20:42:00,84.7,70.7,29.72,SSE,158,0.0,3.1,63,0.00,,,0.00,WUHU216HW,2013-07-16 00:42:00,
2013-07-15 20:43:00,84.7,70.7,29.72,SSE,158,0.0,3.1,63,0.00,,,0.00,WUHU216HW,2013-07-16 00:43:00,
2013-07-15 20:44:00,84.7,70.7,29.72,SSE,158,0.0,3.1,63,0.00,,,0.00,WUHU216HW,2013-07-16 00:44:00,
2013-07-15 20:51:00,84.3,69.9,29.72,South,180,0.0,0.8,62,0.00,,,0.00,WUHU216HW,2013-07-16 00:51:00,
2013-07-15 20:52:00,84.3,69.9,29.72,South,180,0.0,0.8,62,0.00,,,0.00,WUHU216HW,2013-07-16 00:52:00,
2013-07-15 20:53:00,84.3,69.9,29.72,SSW,203,0.0,0.8,62,0.00,,,0.00,WUHU216HW,2013-07-16 00:53:00,
2013-07-15 20:55:00,84.0,69.6,29.72,SSW,203,2.4,2.4,62,0.00,,,0.00,WUHU216HW,2013-07-16 00:55:00,
2013-07-15 20:56:00,84.0,69.6,29.72,SSW,203,2.4,2.4,62,0.00,,,0.00,WUHU216HW,2013-07-16 00:56:00,
2013-07-15 20:57:00,83.8,68.9,29.72,SSW,203,0.0,2.4,61,0.00,,,0.00,WUHU216HW,2013-07-16 00:57:00,
2013-07-15 20:58:00,83.8,68.9,29.72,SSW,203,0.0,2.4,61,0.00,,,0.00,WUHU216HW,2013-07-16 00:58:00,
2013-07-15 20:59:00,83.8,68.9,29.72,SSW,203,0.0,2.4,61,0.00,,,0.00,WUHU216HW,2013-07-16 00:59:00,
2013-07-15 21:00:00,83.8,68.9,29.72,SSW,203,0.0,2.4,61,0.00,,,0.00,WUHU216HW,2013-07-16 01:00:00,
2013-07-15 21:01:00,83.8,68.9,29.72,SSW,203,0.0,2.4,61,0.00,,,0.00,WUHU216HW,2013-07-16 01:01:00,
2013-07-15 21:02:00,83.4,67.6,29.72,SSE,158,1.7,2.4,59,0.00,,,0.00,WUHU216HW,2013-07-16 01:02:00,
2013-07-15 21:03:00,83.4,67.6,29.72,SSE,158,1.7,2.4,59,0.00,,,0.00,WUHU216HW,2013-07-16 01:03:00,
2013-07-15 21:05:00,80.4,72.5,29.96,NNW,338,0.0,0.0,78,0.00,,,0.00,WUHU216HW,2013-07-16 01:05:00,
2013-07-15 21:06:00,83.8,68.9,29.72,SW,225,1.1,2.4,61,0.00,,,0.00,WUHU216HW,2013-07-16 01:06:00,
2013-07-15 21:07:00,83.8,68.9,29.72,SW,225,1.1,2.2,61,0.00,,,0.00,WUHU216HW,2013-07-16 01:07:00,
2013-07-15 21:08:00,84.3,69.0,29.72,SSE,158,0.0,2.2,60,0.00,,,0.00,WUHU216HW,2013-07-16 01:08:00,
2013-07-15 21:09:00,84.3,69.0,29.72,SSE,158,0.0,2.2,60,0.00,,,0.00,WUHU216HW,2013-07-16 01:09:00,
2013-07-15 21:10:00,84.3,69.0,29.72,SSE,158,0.0,2.2,60,0.00,,,0.00,WUHU216HW,2013-07-16 01:10:00,
2013-07-15 21:11:00,84.7,69.3,29.72,SSE,158,0.0,2.2,60,0.00,,,0.00,WUHU216HW,2013-07-16 01:11:00,
2013-07-15 21:12:00,84.7,69.3,29.72,SSE,158,0.0,2.2,60,0.00,,,0.00,WUHU216HW,2013-07-16 01:12:00,
2013-07-15 21:13:00,85.1,69.7,29.72,SSE,158,0.0,2.2,60,0.00,,,0.00,WUHU216HW,2013-07-16 01:13:00,
2013-07-15 21:14:00,85.1,69.7,29.72,SSE,158,0.0,2.2,60,0.00,,,0.00,WUHU216HW,2013-07-16 01:14:00,
2013-07-15 21:15:00,85.4,70.0,29.72,SE,135,0.0,2.2,60,0.00,,,0.00,WUHU216HW,2013-07-16 01:15:00,
2013-07-15 21:16:00,85.4,70.0,29.72,SE,135,0.0,1.1,60,0.00,,,0.00,WUHU216HW,2013-07-16 01:16:00,
2013-07-15 21:17:00,85.4,70.0,29.72,SSE,158,1.3,1.3,60,0.00,,,0.00,WUHU216HW,2013-07-16 01:17:00,
2013-07-15 21:18:00,85.4,70.0,29.71,SSE,158,1.3,1.3,60,0.00,,,0.00,WUHU216HW,2013-07-16 01:18:00,
2013-07-15 21:19:00,85.6,71.5,29.71,SSW,203,0.0,1.3,63,0.00,,,0.00,WUHU216HW,2013-07-16 01:19:00,
2013-07-15 21:20:00,85.6,71.5,29.71,SSW,203,0.0,1.3,63,0.00,,,0.00,WUHU216HW,2013-07-16 01:20:00,
2013-07-15 21:21:00,86.3,71.8,29.71,SSW,203,0.0,1.3,62,0.00,,,0.00,WUHU216HW,2013-07-16 01:21:00,
2013-07-15 21:22:00,86.3,71.8,29.71,SSW,203,0.0,1.3,62,0.00,,,0.00,WUHU216HW,2013-07-16 01:22:00,
2013-07-15 21:23:00,86.7,70.1,29.71,South,180,1.5,1.5,58,0.00,,,0.00,WUHU216HW,2013-07-16 01:23:00,
2013-07-15 21:24:00,86.7,70.1,29.71,South,180,1.5,1.5,58,0.00,,,0.00,WUHU216HW,2013-07-16 01:24:00,
2013-07-15 21:25:00,87.0,70.5,29.71,WSW,248,0.6,1.5,58,0.00,,,0.00,WUHU216HW,2013-07-16 01:25:00,
2013-07-15 21:26:00,87.0,70.5,29.71,WSW,248,0.6,1.5,58,0.00,,,0.00,WUHU216HW,2013-07-16 01:26:00,
2013-07-15 21:27:00,87.0,70.5,29.71,WSW,248,0.6,1.5,58,0.00,,,0.00,WUHU216HW,2013-07-16 01:27:00,
2013-07-15 21:28:00,87.0,70.5,29.71,SSW,203,0.0,1.5,58,0.00,,,0.00,WUHU216HW,2013-07-16 01:28:00,
2013-07-15 21:29:00,87.0,70.5,29.71,SSW,203,0.0,1.5,58,0.00,,,0.00,WUHU216HW,2013-07-16 01:29:00,
2013-07-15 21:30:00,87.4,71.4,29.71,SSW,203,0.0,1.5,59,0.00,,,0.00,WUHU216HW,2013-07-16 01:30:00,
2013-07-15 21:31:00,87.4,71.4,29.71,SSW,203,0.0,1.5,59,0.00,,,0.00,WUHU216HW,2013-07-16 01:31:00,
2013-07-15 21:32:00,87.4,71.4,29.70,South,180,0.0,1.5,57,0.00,,,0.00,WUHU216HW,2013-07-16 01:32:00,
2013-07-15 21:33:00,87.4,71.4,29.71,South,180,0.0,1.5,57,0.00,,,0.00,WUHU216HW,2013-07-16 01:33:00,
2013-07-15 21:34:00,87.2,70.1,29.71,SW,225,0.0,1.5,57,0.00,,,0.00,WUHU216HW,2013-07-16 01:34:00,
2013-07-15 21:35:00,87.2,70.1,29.70,SW,225,0.0,0.6,57,0.00,,,0.00,WUHU216HW,2013-07-16 01:35:00,
2013-07-15 21:37:00,87.0,69.4,29.70,South,180,5.3,5.3,56,0.00,,,0.00,WUHU216HW,2013-07-16 01:37:00,
2013-07-15 21:38:00,87.0,70.5,29.70,South,180,3.5,5.3,58,0.00,,,0.00,WUHU216HW,2013-07-16 01:38:00,
2013-07-15 21:39:00,87.0,70.5,29.70,South,180,3.5,5.3,58,0.00,,,0.00,WUHU216HW,2013-07-16 01:39:00,
2013-07-15 21:40:00,87.0,70.5,29.70,SSE,158,0.0,5.3,57,0.00,,,0.00,WUHU216HW,2013-07-16 01:40:00,
2013-07-15 21:41:00,87.0,70.5,29.69,SSE,158,0.0,5.3,57,0.00,,,0.00,WUHU216HW,2013-07-16 01:41:00,
2013-07-15 21:43:00,87.0,70.5,29.70,SW,225,0.0,5.3,57,0.00,,,0.00,WUHU216HW,2013-07-16 01:43:00,
2013-07-15 21:44:00,87.0,70.5,29.70,SW,225,0.0,5.3,60,0.00,,,0.00,WUHU216HW,2013-07-16 01:44:00,
2013-07-15 21:46:00,87.0,70.5,29.69,SW,225,0.0,5.3,60,0.00,,,0.00,WUHU216HW,2013-07-16 01:46:00,
2013-07-15 21:47:00,87.4,69.8,29.69,SW,225,0.0,5.3,56,0.00,,,0.00,WUHU216HW,2013-07-16 01:47:00,
2013-07-15 21:49:00,87.2,69.1,29.69,WSW,248,1.5,3.5,55,0.00,,,0.00,WUHU216HW,2013-07-16 01:49:00,
2013-07-15 21:50:00,87.2,69.1,29.69,WSW,248,1.5,1.5,55,0.00,,,0.00,WUHU216HW,2013-07-16 01:50:00,
2013-07-15 21:51:00,87.4,69.2,29.69,WSW,248,0.0,1.5,55,0.00,,,0.00,WUHU216HW,2013-07-16 01:51:00,
2013-07-15 21:52:00,87.4,69.2,29.69,WSW,248,0.0,1.5,55,0.00,,,0.00,WUHU216HW,2013-07-16 01:52:00,
2013-07-15 21:53:00,87.4,69.2,29.69,WSW,248,0.0,1.5,55,0.00,,,0.00,WUHU216HW,2013-07-16 01:53:00,
2013-07-15 21:54:00,87.6,68.9,29.69,South,180,0.0,1.5,54,0.00,,,0.00,WUHU216HW,2013-07-16 01:54:00,
2013-07-15 21:55:00,87.9,69.7,29.69,SSW,203,1.3,1.5,55,0.00,,,0.00,WUHU216HW,2013-07-16 01:55:00,
2013-07-15 21:56:00,87.9,69.7,29.69,SSW,203,1.3,1.5,55,0.00,,,0.00,WUHU216HW,2013-07-16 01:56:00,
2013-07-15 21:57:00,87.9,69.7,29.69,SSW,203,1.3,1.5,55,0.00,,,0.00,WUHU216HW,2013-07-16 01:57:00,
2013-07-15 21:58:00,87.9,69.7,29.69,NE,45,0.0,1.5,55,0.00,,,0.00,WUHU216HW,2013-07-16 01:58:00,
2013-07-15 21:59:00,87.9,69.7,29.69,NE,45,0.0,1.5,55,0.00,,,0.00,WUHU216HW,2013-07-16 01:59:00,
2013-07-15 22:00:00,78.6,71.9,29.98,NNW,338,0.0,0.0,81,0.00,,,0.00,WUHU216HW,2013-07-16 02:00:00,
2013-07-15 22:01:00,88.1,69.4,29.69,SE,135,0.0,1.3,54,0.00,,,0.00,WUHU216HW,2013-07-16 02:01:00,
2013-07-15 22:02:00,88.3,69.0,29.69,SW,225,0.0,1.3,53,0.00,,,0.00,WUHU216HW,2013-07-16 02:02:00,
2013-07-15 22:03:00,88.3,69.0,29.69,SW,225,0.0,1.3,53,0.00,,,0.00,WUHU216HW,2013-07-16 02:03:00,
2013-07-15 22:04:00,88.1,68.8,29.69,SSW,203,2.6,2.6,53,0.00,,,0.00,WUHU216HW,2013-07-16 02:04:00,
2013-07-15 22:05:00,88.1,68.8,29.69,SSW,203,2.6,2.6,53,0.00,,,0.00,WUHU216HW,2013-07-16 02:05:00,
2013-07-15 22:06:00,78.4,72.1,29.98,NNW,338,0.0,0.0,81,0.00,,,0.00,WUHU216HW,2013-07-16 02:06:00,
2013-07-15 22:07:00,87.9,68.1,29.69,SSE,158,1.7,2.6,52,0.00,,,0.00,WUHU216HW,2013-07-16 02:07:00,
2013-07-15 22:08:00,88.1,69.9,29.69,SSW,203,0.0,2.6,55,0.00,,,0.00,WUHU216HW,2013-07-16 02:08:00,
2013-07-15 22:09:00,88.1,69.9,29.69,SSW,203,0.0,2.6,55,0.00,,,0.00,WUHU216HW,2013-07-16 02:09:00,
2013-07-15 22:10:00,88.1,69.9,29.69,SSW,203,0.0,2.6,55,0.00,,,0.00,WUHU216HW,2013-07-16 02:10:00,
2013-07-15 22:11:00,88.1,69.9,29.69,South,180,0.6,2.6,54,0.00,,,0.00,WUHU216HW,2013-07-16 02:11:00,
2013-07-15 22:12:00,88.1,69.9,29.69,South,180,0.6,2.6,54,0.00,,,0.00,WUHU216HW,2013-07-16 02:12:00,
2013-07-15 22:13:00,88.3,70.1,29.69,SSE,158,0.0,2.6,55,0.00,,,0.00,WUHU216HW,2013-07-16 02:13:00,
2013-07-15 22:14:00,88.3,70.1,29.69,SSE,158,0.0,2.6,55,0.00,,,0.00,WUHU216HW,2013-07-16 02:14:00,
2013-07-15 22:15:00,88.1,68.8,29.69,South,180,4.4,4.4,53,0.00,,,0.00,WUHU216HW,2013-07-16 02:15:00,
2013-07-15 22:16:00,88.1,68.8,29.69,South,180,4.4,4.4,53,0.00,,,0.00,WUHU216HW,2013-07-16 02:16:00,
2013-07-15 22:17:00,87.6,68.9,29.69,ESE,113,2.6,4.4,54,0.00,,,0.00,WUHU216HW,2013-07-16 02:17:00,
2013-07-15 22:18:00,87.6,68.9,29.69,ESE,113,2.6,4.4,54,0.00,,,0.00,WUHU216HW,2013-07-16 02:18:00,
2013-07-15 22:19:00,87.2,68.0,29.69,SE,135,0.0,4.4,53,0.00,,,0.00,WUHU216HW,2013-07-16 02:19:00,
2013-07-15 22:20:00,87.2,68.0,29.69,SE,135,0.0,4.4,53,0.00,,,0.00,WUHU216HW,2013-07-16 02:20:00,
2013-07-15 22:21:00,87.4,68.7,29.68,SE,135,0.0,4.4,54,0.00,,,0.00,WUHU216HW,2013-07-16 02:21:00,
2013-07-15 22:22:00,87.4,68.7,29.68,SE,135,0.0,4.4,54,0.00,,,0.00,WUHU216HW,2013-07-16 02:22:00,
2013-07-15 22:24:00,87.4,68.7,29.68,SSE,158,0.0,4.4,52,0.00,,,0.00,WUHU216HW,2013-07-16 02:24:00,
2013-07-15 22:25:00,87.4,68.7,29.68,SSE,158,0.0,4.4,52,0.00,,,0.00,WUHU216HW,2013-07-16 02:25:00,
2013-07-15 22:27:00,87.6,68.9,29.68,SE,135,0.0,2.6,54,0.00,,,0.00,WUHU216HW,2013-07-16 02:27:00,
2013-07-15 22:28:00,87.6,68.9,29.68,South,180,0.0,2.6,54,0.00,,,0.00,WUHU216HW,2013-07-16 02:28:00,
2013-07-15 22:29:00,87.6,68.9,29.68,South,180,0.0,0.0,54,0.00,,,0.00,WUHU216HW,2013-07-16 02:29:00,
2013-07-15 22:30:00,87.9,68.7,29.68,WSW,248,0.6,0.6,53,0.00,,,0.00,WUHU216HW,2013-07-16 02:30:00,
2013-07-15 22:31:00,87.9,68.7,29.68,WSW,248,0.6,0.6,53,0.00,,,0.00,WUHU216HW,2013-07-16 02:31:00,
2013-07-15 22:32:00,88.1,69.4,29.68,WSW,248,0.0,0.6,54,0.00,,,0.00,WUHU216HW,2013-07-16 02:32:00,
2013-07-15 22:33:00,88.1,69.4,29.68,WSW,248,0.0,0.6,54,0.00,,,0.00,WUHU216HW,2013-07-16 02:33:00,
2013-07-15 22:34:00,87.8,69.6,29.68,WSW,248,0.0,0.6,55,0.00,,,0.00,WUHU216HW,2013-07-16 02:34:00,
2013-07-15 22:35:00,87.8,69.6,29.68,WSW,248,0.0,0.6,55,0.00,,,0.00,WUHU216HW,2013-07-16 02:35:00,
2013-07-15 22:36:00,87.8,69.6,29.68,WSW,248,0.0,0.6,55,0.00,,,0.00,WUHU216HW,2013-07-16 02:36:00,
2013-07-15 22:37:00,87.6,69.4,29.67,SSE,158,0.0,0.6,55,0.00,,,0.00,WUHU216HW,2013-07-16 02:37:00,
2013-07-15 22:38:00,87.6,69.4,29.67,SSE,158,0.0,0.6,55,0.00,,,0.00,WUHU216HW,2013-07-16 02:38:00,
2013-07-15 22:39:00,87.4,69.8,29.67,South,180,0.0,0.6,56,0.00,,,0.00,WUHU216HW,2013-07-16 02:39:00,
2013-07-15 22:40:00,87.4,69.8,29.67,South,180,0.0,0.6,56,0.00,,,0.00,WUHU216HW,2013-07-16 02:40:00,
2013-07-15 22:41:00,87.0,68.9,29.67,North,0,0.0,0.6,55,0.00,,,0.00,WUHU216HW,2013-07-16 02:41:00,
2013-07-15 22:42:00,87.0,68.9,29.67,North,0,0.0,0.0,55,0.00,,,0.00,WUHU216HW,2013-07-16 02:42:00,
2013-07-15 22:44:00,86.7,69.6,29.67,East,90,2.0,2.0,57,0.00,,,0.00,WUHU216HW,2013-07-16 02:44:00,
2013-07-15 22:45:00,86.7,69.6,29.67,East,90,0.0,2.0,59,0.00,,,0.00,WUHU216HW,2013-07-16 02:45:00,
2013-07-15 22:46:00,86.7,69.6,29.67,East,90,0.0,2.0,59,0.00,,,0.00,WUHU216HW,2013-07-16 02:46:00,
2013-07-15 22:47:00,87.0,70.0,29.67,SSE,158,2.6,2.6,57,0.00,,,0.00,WUHU216HW,2013-07-16 02:47:00,
2013-07-15 23:08:00,86.7,68.0,29.67,SW,225,0.4,3.1,54,0.00,,,0.00,WUHU216HW,2013-07-16 03:08:00,
2013-07-15 23:12:00,86.3,68.2,29.67,SE,135,0.0,2.6,55,0.00,,,0.00,WUHU216HW,2013-07-16 03:12:00,
2013-07-15 23:13:00,86.3,68.2,29.67,SE,135,0.0,2.6,55,0.00,,,0.00,WUHU216HW,2013-07-16 03:13:00,
2013-07-15 23:14:00,86.1,68.6,29.67,ESE,113,0.0,2.6,56,0.00,,,0.00,WUHU216HW,2013-07-16 03:14:00,
2013-07-15 23:15:00,86.1,68.6,29.67,ESE,113,0.0,2.6,56,0.00,,,0.00,WUHU216HW,2013-07-16 03:15:00,
2013-07-15 23:16:00,85.8,68.2,29.67,SE,135,0.0,2.6,56,0.00,,,0.00,WUHU216HW,2013-07-16 03:16:00,
2013-07-15 23:17:00,85.8,68.2,29.67,SE,135,0.0,2.6,56,0.00,,,0.00,WUHU216HW,2013-07-16 03:17:00,
2013-07-15 23:18:00,85.8,68.2,29.67,SSE,158,0.0,2.6,57,0.00,,,0.00,WUHU216HW,2013-07-16 03:18:00,
2013-07-15 23:19:00,85.8,68.2,29.67,SSE,158,0.0,2.6,57,0.00,,,0.00,WUHU216HW,2013-07-16 03:19:00,
2013-07-15 23:22:00,86.0,69.4,29.67,SSE,158,0.0,0.0,58,0.00,,,0.00,WUHU216HW,2013-07-16 03:22:00,
2013-07-15 23:23:00,75.7,70.9,29.98,NNW,338,0.0,0.0,85,0.00,,,0.00,WUHU216HW,2013-07-16 03:23:00,
2013-07-15 23:24:00,86.0,69.4,29.67,SSE,158,0.0,0.0,58,0.00,,,0.00,WUHU216HW,2013-07-16 03:24:00,
2013-07-15 23:25:00,85.8,69.3,29.68,SE,135,3.5,3.5,58,0.00,,,0.00,WUHU216HW,2013-07-16 03:25:00,
2013-07-15 23:27:00,85.8,69.3,29.67,NE,45,1.3,3.5,57,0.00,,,0.00,WUHU216HW,2013-07-16 03:27:00,
2013-07-15 23:28:00,85.8,69.3,29.67,NE,45,1.3,3.5,57,0.00,,,0.00,WUHU216HW,2013-07-16 03:28:00,
2013-07-15 23:29:00,85.8,69.3,29.67,SE,135,0.0,3.5,58,0.00,,,0.00,WUHU216HW,2013-07-16 03:29:00,
2013-07-15 23:30:00,85.8,69.3,29.67,SE,135,0.0,3.5,58,0.00,,,0.00,WUHU216HW,2013-07-16 03:30:00,
2013-07-15 23:31:00,85.8,69.3,29.67,SE,135,0.0,3.5,58,0.00,,,0.00,WUHU216HW,2013-07-16 03:31:00,
2013-07-15 23:32:00,85.6,68.6,29.67,SW,225,0.0,3.5,57,0.00,,,0.00,WUHU216HW,2013-07-16 03:32:00,
2013-07-15 23:33:00,85.4,68.9,29.67,WSW,248,0.0,3.5,58,0.00,,,0.00,WUHU216HW,2013-07-16 03:33:00,
2013-07-15 23:34:00,85.4,68.9,29.67,WSW,248,0.0,3.5,58,0.00,,,0.00,WUHU216HW,2013-07-16 03:34:00,
2013-07-15 23:35:00,85.4,68.9,29.67,WSW,248,0.0,3.5,58,0.00,,,0.00,WUHU216HW,2013-07-16 03:35:00,
2013-07-15 23:36:00,85.6,69.6,29.67,WSW,248,0.0,3.5,59,0.00,,,0.00,WUHU216HW,2013-07-16 03:36:00,
2013-07-15 23:37:00,85.6,69.6,29.67,SSE,158,0.0,1.3,59,0.00,,,0.00,WUHU216HW,2013-07-16 03:37:00,
2013-07-15 23:38:00,85.6,69.6,29.67,SSE,158,0.0,0.0,59,0.00,,,0.00,WUHU216HW,2013-07-16 03:38:00,
2013-07-15 23:39:00,85.6,69.6,29.67,SSE,158,0.0,0.0,59,0.00,,,0.00,WUHU216HW,2013-07-16 03:39:00,
2013-07-15 23:40:00,85.6,69.6,29.67,SSE,158,0.0,0.0,59,0.00,,,0.00,WUHU216HW,2013-07-16 03:40:00,
2013-07-15 23:41:00,85.6,69.6,29.67,SSE,158,0.0,0.0,59,0.00,,,0.00,WUHU216HW,2013-07-16 03:41:00,
2013-07-15 23:42:00,85.4,68.9,29.67,South,180,0.0,0.0,58,0.00,,,0.00,WUHU216HW,2013-07-16 03:42:00,
2013-07-15 23:43:00,85.4,68.9,29.67,South,180,0.0,0.0,58,0.00,,,0.00,WUHU216HW,2013-07-16 03:43:00,
2013-07-15 23:45:00,85.2,68.8,29.67,South,180,0.0,0.0,58,0.00,,,0.00,WUHU216HW,2013-07-16 03:45:00,
2013-07-15 23:46:00,85.2,68.8,29.67,South,180,0.0,0.0,58,0.00,,,0.00,WUHU216HW,2013-07-16 03:46:00,
2013-07-15 23:47:00,85.2,68.8,29.67,South,180,0.0,0.0,59,0.00,,,0.00,WUHU216HW,2013-07-16 03:47:00,
2013-07-15 23:48:00,85.2,68.8,29.67,South,180,0.0,0.0,59,0.00,,,0.00,WUHU216HW,2013-07-16 03:48:00,
2013-07-15 23:49:00,85.1,68.6,29.67,South,180,2.6,2.6,58,0.00,,,0.00,WUHU216HW,2013-07-16 03:49:00,
2013-07-15 23:50:00,85.1,68.6,29.67,South,180,2.6,2.6,58,0.00,,,0.00,WUHU216HW,2013-07-16 03:50:00,
2013-07-15 23:51:00,84.9,69.0,29.67,SSW,203,0.0,2.6,59,0.00,,,0.00,WUHU216HW,2013-07-16 03:51:00,
2013-07-15 23:53:00,84.9,69.0,29.67,SSW,203,0.0,2.6,59,0.00,,,0.00,WUHU216HW,2013-07-16 03:53:00,
2013-07-15 23:57:00,84.9,69.0,29.67,SSW,203,0.0,2.6,60,0.00,,,0.00,WUHU216HW,2013-07-16 03:57:00,
2013-07-15 23:58:00,84.9,69.0,29.67,SSW,203,0.0,2.6,60,0.00,,,0.00,WUHU216HW,2013-07-16 03:58:00,
2013-07-15 23:59:00,84.7,69.8,29.67,SSW,203,0.0,2.6,61,0.00,,,0.00,WUHU216HW,2013-07-16 03:59:00,